Provisional Data: Chest Creek near Patton, PA


Please select a monitoring station.
Please select start date.
Please select start date.

Toggle Unit: C/F Toggle Unit: C/F
Sample Time Temperature (C) Temperature (F) Specific Conductivity (mS/cm) pH   Turbidity (NTU+) DO (mg/L)
8/11/2023 12:00:00 AM 19.57 67.226 0.212 7.1 28.95 7.41
8/11/2023 12:15:00 AM 19.55 67.19 0.211 7.1 30.54 7.39
8/11/2023 12:30:00 AM 19.54 67.172 0.21 7.09 29.18 7.37
8/11/2023 12:45:00 AM 19.49 67.082 0.209 7.09 38.63 7.37
8/11/2023 1:00:00 AM 19.43 66.974 0.208 7.09 44.44 7.36
8/11/2023 1:15:00 AM 19.39 66.902 0.207 7.07 22.04 7.35
8/11/2023 1:30:00 AM 19.36 66.848 0.206 7.07 25.55 7.35
8/11/2023 1:45:00 AM 19.32 66.776 0.206 7.07 23.09 7.32
8/11/2023 2:00:00 AM 19.28 66.704 0.205 7.06 18.7 7.32
8/11/2023 2:15:00 AM 19.23 66.614 0.202 7.06 22.43 7.29
8/11/2023 2:30:00 AM 19.23 66.614 0.201 7.06 18.99 7.3
8/11/2023 2:45:00 AM 19.22 66.596 0.201 7.06 22.93 7.3
8/11/2023 3:00:00 AM 19.2 66.56 0.201 7.04 24.7 7.3
8/11/2023 3:15:00 AM 19.18 66.524 0.2 7.05 16.57 7.31
8/11/2023 3:30:00 AM 19.15 66.47 0.198 7.06 26.74 7.3
8/11/2023 3:45:00 AM 19.13 66.434 0.196 7.06 20.7 7.33
8/11/2023 4:00:00 AM 19.1 66.38 0.189 7.04 23.78 7.31
8/11/2023 4:15:00 AM 19.07 66.326 0.19 7.07 26.68 7.33
8/11/2023 4:30:00 AM 19.02 66.236 0.189 7.07 21.29 7.35
8/11/2023 4:45:00 AM 18.98 66.164 0.189 7.07 28.03 7.35
8/11/2023 5:00:00 AM 18.96 66.128 0.188 7.07 25.11 7.36
8/11/2023 5:15:00 AM 18.93 66.074 0.186 7.07 32.32 7.36
8/11/2023 5:30:00 AM 18.91 66.038 0.184 7.08 21.82 7.38
8/11/2023 5:45:00 AM 18.91 66.038 0.183 7.08 30.19 7.39
8/11/2023 6:00:00 AM 18.9 66.02 0.181 7.05 184.79 7.4
8/11/2023 6:15:00 AM 18.89 66.002 0.18 7.09 30.82 7.41
8/11/2023 6:30:00 AM 18.89 66.002 0.179 7.09 33 7.42
8/11/2023 6:45:00 AM 18.88 65.984 0.177 7.1 32.48 7.44
8/11/2023 7:00:00 AM 18.88 65.984 0.176 7.09 24.63 7.46
8/11/2023 7:15:00 AM 18.89 66.002 0.175 7.11 24.87 7.5
8/11/2023 7:30:00 AM 18.89 66.002 0.174 7.11 70.63 7.52
8/11/2023 7:45:00 AM 18.91 66.038 0.172 7.12 33.39 7.63
8/11/2023 8:00:00 AM 18.98 66.164 0.171 7.14 29.63 7.81
8/11/2023 8:15:00 AM 19 66.2 0.17 7.15 21.45 7.91
8/11/2023 8:30:00 AM 19.04 66.272 0.168 7.15 24.12 8.1
8/11/2023 8:45:00 AM 19.05 66.29 0.169 7.19 27.7 8.24
8/11/2023 9:00:00 AM 19.22 66.596 0.168 7.22 40.56 8.44
8/11/2023 9:15:00 AM 19.37 66.866 0.168 7.24 25.25 8.62
8/11/2023 9:30:00 AM 19.53 67.154 0.166 7.26 21.8 8.77
8/11/2023 9:45:00 AM 19.67 67.406 0.285 7.22 26.93 8.84
8/11/2023 10:00:00 AM 19.85 67.73 0.285 7.26 22.96 8.99
8/11/2023 10:15:00 AM 20.06 68.108 0.284 7.32 12.7 9.13
8/11/2023 10:30:00 AM 20.24 68.432 0.284 7.31 14.56 9.25
8/11/2023 10:45:00 AM 20.44 68.792 0.284 7.37 54.28 9.38
8/11/2023 11:00:00 AM 20.6 69.08 0.283 7.37 20.47 9.41
8/11/2023 11:15:00 AM 20.85 69.53 0.282 7.39 13.6 9.52
8/11/2023 11:30:00 AM 21.05 69.89 0.282 7.41 17.68 9.58
8/11/2023 11:45:00 AM 21.3 70.34 0.281 7.44 12.23 9.66
8/11/2023 12:00:00 PM 21.69 71.042 0.281 7.47 15.93 9.8
8/11/2023 12:15:00 PM 21.95 71.51 0.28 7.48 13.15 9.82
8/11/2023 12:30:00 PM 22.19 71.942 0.28 7.51 12.46 9.87
8/11/2023 12:45:00 PM 22.53 72.554 0.279 7.54 15.14 9.98
8/11/2023 1:00:00 PM 22.75 72.95 0.279 7.57 12.96 10.02
8/11/2023 1:15:00 PM 23 73.4 0.279 7.61 609.91 10.09
8/11/2023 1:30:00 PM 23.25 73.85 0.279 7.62 14.09 10.14
8/11/2023 1:45:00 PM 23.41 74.138 0.27 7.65 15.39 10.11
8/11/2023 2:00:00 PM 23.6 74.48 0.249 7.67 12.68 10.13
8/11/2023 2:15:00 PM 23.95 75.11 0.279 7.67 12.62 10.18
8/11/2023 2:30:00 PM 24.11 75.398 0.279 7.7 12.68 10.18
8/11/2023 2:45:00 PM 24.15 75.47 0.279 7.7 19.24 10.08
8/11/2023 3:00:00 PM 24.28 75.704 0.28 7.7 13.66 10.02
8/11/2023 3:15:00 PM 24.58 76.244 0.28 7.74 12.25 10.13
8/11/2023 3:30:00 PM 24.53 76.154 0.28 7.72 11.21 9.98
8/11/2023 3:45:00 PM 24.7 76.46 0.28 7.75 9.95 10.03
8/11/2023 4:00:00 PM 24.82 76.676 0.281 7.76 12.88 10.03
8/11/2023 4:15:00 PM 24.79 76.622 0.281 7.76 10.61 9.93
8/11/2023 4:30:00 PM 24.79 76.622 0.281 7.76 11.69 9.9
8/11/2023 4:45:00 PM 24.75 76.55 0.281 7.76 10.73 9.83
8/11/2023 5:00:00 PM 24.69 76.442 0.282 7.75 13.51 9.71
8/11/2023 5:15:00 PM 24.57 76.226 0.282 7.72 13.28 9.58
8/11/2023 5:30:00 PM 24.51 76.118 0.277 7.73 13.07 9.53
8/11/2023 5:45:00 PM 24.28 75.704 0.283 7.68 12.28 9.29
8/11/2023 6:00:00 PM 24.12 75.416 0.283 7.66 57.67 9.22
8/11/2023 6:15:00 PM 23.95 75.11 0.283 7.64 13.57 9.09
8/11/2023 6:30:00 PM 23.73 74.714 0.283 7.61 17.69 8.96
8/11/2023 6:45:00 PM 23.5 74.3 0.284 7.55 16.81 8.8
8/11/2023 7:00:00 PM 23.27 73.886 0.284 7.54 16.04 8.64
8/11/2023 7:15:00 PM 23.02 73.436 0.284 7.5 152.3 8.46
8/11/2023 7:30:00 PM 22.79 73.022 0.284 7.47 13.49 8.31
8/11/2023 7:45:00 PM 22.59 72.662 0.285 7.42 19.04 8.16
8/11/2023 8:00:00 PM 22.39 72.302 0.285 7.4 14.16 8.04
8/11/2023 8:15:00 PM 22.2 71.96 0.285 7.38 13.12 7.91
8/11/2023 8:30:00 PM 22.02 71.636 0.285 7.35 35.98 7.82
8/11/2023 8:45:00 PM 21.85 71.33 0.284 7.33 30.93 7.74
8/11/2023 9:00:00 PM 21.69 71.042 0.284 7.31 22.42 7.67
8/11/2023 9:15:00 PM 21.55 70.79 0.284 7.26 14.87 7.58
8/11/2023 9:30:00 PM 21.42 70.556 0.284 7.23 13.92 7.53
8/11/2023 9:45:00 PM 21.3 70.34 0.284 7.24 14.34 7.5
8/11/2023 10:00:00 PM 21.2 70.16 0.284 7.22 11.96 7.44
8/11/2023 10:15:00 PM 21.1 69.98 0.283 7.21 16.18 7.42
8/11/2023 10:30:00 PM 21.02 69.836 0.283 7.2 33.91 7.37
8/11/2023 10:45:00 PM 20.96 69.728 0.283 7.19 18.44 7.35
8/11/2023 11:00:00 PM 20.89 69.602 0.282 7.18 20.5 7.34
8/11/2023 11:15:00 PM 20.83 69.494 0.282 7.17 63.85 7.32
8/11/2023 11:30:00 PM 20.77 69.386 0.282 7.18 32.69 7.31
8/11/2023 11:45:00 PM 20.71 69.278 0.282 7.17 16.53 7.31
8/12/2023 12:00:00 AM 20.62 69.116 0.315 7.18 32.93 7.31
8/12/2023 12:15:00 AM 20.53 68.954 0.281 7.18 19.97 7.28
8/12/2023 12:30:00 AM 20.43 68.774 0.281 7.14 17.01 7.31
8/12/2023 12:45:00 AM 20.34 68.612 0.281 7.15 28.37 7.31
8/12/2023 1:00:00 AM 20.26 68.468 0.264 7.15 26.94 7.32
8/12/2023 1:15:00 AM 20.01 68.018 0.255 7.21 16.24 7.65
8/12/2023 1:30:00 AM 19.79 67.622 0.191 7.23 100.51 8.05
8/12/2023 1:45:00 AM 19.57 67.226 0.214 7.21 61.47 7.96
8/12/2023 2:00:00 AM 19.2 66.56 0.195 7.21 63.11 8.14
8/12/2023 2:15:00 AM 19.1 66.38 0.187 7.17 81.95 8.04
8/12/2023 2:30:00 AM 18.99 66.182 0.178 7.16 47.17 8.01
8/12/2023 2:45:00 AM 18.99 66.182 0.178 7.13 59.76 7.95
8/12/2023 3:00:00 AM 19.04 66.272 0.177 7.1 69.8 7.88
8/12/2023 3:15:00 AM 19.08 66.344 0.179 7.1 103.23 7.76
8/12/2023 3:30:00 AM 19.05 66.29 0.179 7.11 90.4 7.73
8/12/2023 3:45:00 AM 19.01 66.218 0.182 7.1 49.25 7.69
8/12/2023 4:00:00 AM 18.98 66.164 0.185 7.06 166.84 7.65
8/12/2023 4:15:00 AM 18.95 66.11 0.187 7.09 64.19 7.62
8/12/2023 4:30:00 AM 18.91 66.038 0.183 7.04 54.83 7.58
8/12/2023 4:45:00 AM 18.86 65.948 0.185 7.06 73.57 7.56
8/12/2023 5:00:00 AM 18.83 65.894 0.186 7.05 88.53 7.56
8/12/2023 5:15:00 AM 18.81 65.858 0.188 7.03 558.61 7.56
8/12/2023 5:30:00 AM 18.8 65.84 0.191 7.04 1441.8 7.54
8/12/2023 5:45:00 AM 18.78 65.804 0.193 7.07 4203.5 7.55
8/12/2023 6:00:00 AM 18.74 65.732 0.195 7.07 99.86 7.53
8/12/2023 6:15:00 AM 18.69 65.642 0.198 7.06 55.57 7.53
8/12/2023 6:30:00 AM 18.67 65.606 0.2 7.08 193.64 7.53
8/12/2023 6:45:00 AM 18.63 65.534 0.201 7.06 3691.42 7.58
8/12/2023 7:00:00 AM 18.61 65.498 0.2 7.05 234.42 7.51
8/12/2023 7:15:00 AM 18.58 65.444 0.201 7.02 694.1 7.59
8/12/2023 7:30:00 AM 18.56 65.408 0.197 7.05 1220.04 7.67
8/12/2023 7:45:00 AM 18.56 65.408 0.196 7.03 357.75 7.77
8/12/2023 8:00:00 AM 18.57 65.426 0.193 7.03 1797.54 7.81
8/12/2023 8:15:00 AM 18.59 65.462 0.195 7.06 1819.78 7.88
8/12/2023 8:30:00 AM 18.67 65.606 0.195 7.04 109.15 8.01
8/12/2023 8:45:00 AM 18.74 65.732 0.194 7.05 329.79 8.11
8/12/2023 9:00:00 AM 18.83 65.894 0.197 7.08 1914.94 8.29
8/12/2023 9:15:00 AM 18.96 66.128 0.198 7.08 2843.08 8.47
8/12/2023 9:30:00 AM 19.09 66.362 0.198 7.1 1382.47 8.6
8/12/2023 9:45:00 AM 19.29 66.722 0.196 7.13 683.71 8.74
8/12/2023 10:00:00 AM 19.37 66.866 0.196 7.16 636.8 8.74
8/12/2023 10:15:00 AM 19.6 67.28 0.195 7.17 32.24 8.89
8/12/2023 10:30:00 AM 19.84 67.712 0.194 7.2 580.81 9.01
8/12/2023 10:45:00 AM 20.18 68.324 0.194 7.25 443.93 9.16
8/12/2023 11:00:00 AM 20.51 68.918 0.194 7.25 1649.32 9.28
8/12/2023 11:15:00 AM 20.76 69.368 0.193 7.29 178.63 9.31
8/12/2023 11:30:00 AM 21.07 69.926 0.189 7.3 85.29 9.41
8/12/2023 11:45:00 AM 21.31 70.358 0.191 7.33 351.82 9.4
8/12/2023 12:00:00 PM 21.5 70.7 0.189 7.35 900.17 9.42
8/12/2023 12:15:00 PM 21.9 71.42 0.189 7.39 670.02 9.56
8/12/2023 12:30:00 PM 22.11 71.798 0.191 7.39 159.13 9.54
8/12/2023 12:45:00 PM 22.27 72.086 0.19 7.41 90.11 9.57
8/12/2023 1:00:00 PM 22.52 72.536 0.191 7.43 274.89 9.62
8/12/2023 1:15:00 PM 22.88 73.184 0.187 7.46 2525.51 9.77
8/12/2023 1:30:00 PM 23.04 73.472 0.187 7.47 306.44 9.71
8/12/2023 1:45:00 PM 23.28 73.904 0.187 7.5 347.52 9.79
8/12/2023 2:00:00 PM 23.55 74.39 0.187 7.52 459.98 9.79
8/12/2023 2:15:00 PM 23.76 74.768 0.189 7.55 338.51 9.81
8/12/2023 2:30:00 PM 24 75.2 0.189 7.58 112.07 9.88
8/12/2023 2:45:00 PM 24.23 75.614 0.188 7.61 68.05 9.93
8/12/2023 3:00:00 PM 24.34 75.812 0.187 7.63 964.98 9.9
8/12/2023 3:15:00 PM 24.51 76.118 0.189 7.64 68.58 9.84
8/12/2023 3:30:00 PM 24.55 76.19 0.188 7.66 1027.1 9.81
8/12/2023 3:45:00 PM 24.44 75.992 0.188 7.65 3139.33 9.66
8/12/2023 4:00:00 PM 24.29 75.722 0.188 7.64 1527.56 9.44
8/12/2023 4:15:00 PM 24.08 75.344 0.188 7.6 897.87 9.26
8/12/2023 4:30:00 PM 23.96 75.128 0.187 7.6 272.58 9.26
8/12/2023 4:45:00 PM 23.86 74.948 0.187 7.59 806.46 9.24
8/12/2023 5:00:00 PM 23.69 74.642 0.189 7.58 413.41 9.06
8/12/2023 5:15:00 PM 23.51 74.318 0.185 7.54 17828.05 8.88
8/12/2023 5:30:00 PM 23.38 74.084 0.188 7.54 950.05 8.84
8/12/2023 5:45:00 PM 23.23 73.814 0.187 7.51 226.38 8.73
8/12/2023 6:00:00 PM 23.11 73.598 0.187 7.48 2100.82 8.65
8/12/2023 6:15:00 PM 22.99 73.382 0.187 7.48 1050.25 8.56
8/12/2023 6:30:00 PM 22.88 73.184 0.187 7.45 154.87 8.42
8/12/2023 6:45:00 PM 22.77 72.986 0.187 7.41 613.6 8.24
8/12/2023 7:00:00 PM 22.65 72.77 0.186 7.39 663.54 8.09
8/12/2023 7:15:00 PM 22.54 72.57201 0.186 7.35 1036.32 7.98
8/12/2023 7:30:00 PM 22.43 72.374 0.185 7.36 1024.12 7.88
8/12/2023 7:45:00 PM 22.34 72.212 0.184 7.3 103.51 7.81
8/12/2023 8:00:00 PM 22.24 72.032 0.183 7.29 163.22 7.72
8/12/2023 8:15:00 PM 22.2 71.96 0.182 7.26 3141.76 7.65
8/12/2023 8:30:00 PM 22.13 71.834 0.178 7.26 208.05 7.61
8/12/2023 8:45:00 PM 22.14 71.852 0.178 7.26 148.49 7.54
8/12/2023 9:00:00 PM 21.91 71.438 0.176 7.26 1677.66 7.65
8/12/2023 9:15:00 PM 21.91 71.438 0.149 7.22 232.35 7.94
8/12/2023 9:30:00 PM 21.4 70.52 0.144 7.06 67.55 7.73
8/12/2023 9:45:00 PM 21.27 70.286 0.146 7 91.01 3.6
8/12/2023 10:00:00 PM 21.19 70.142 0.144 6.97 90.04 2.54
8/12/2023 10:15:00 PM 21.05 69.89 0.144 6.95 83.88 1.57
8/12/2023 10:30:00 PM 20.6 69.08 0.145 6.94 84.84 5.25
8/12/2023 10:45:00 PM 20.15 68.27 0.145 6.93 85.77 6.17
8/12/2023 11:00:00 PM 20.08 68.144 0.143 6.93 81.24 6.04
8/12/2023 11:15:00 PM 20.13 68.234 0.14 6.89 77.95 6.13
8/12/2023 11:30:00 PM 20.17 68.306 0.138 6.88 78.77 6.17
8/12/2023 11:45:00 PM 20.16 68.288 0.139 6.9 80.67 5.85
8/13/2023 12:00:00 AM 20.13 68.234 0.138 6.89 83.55 6.48
8/13/2023 12:15:00 AM 20.1 68.18 0.137 6.89 86.2 6.63
8/13/2023 12:30:00 AM 20.09 68.162 0.137 6.84 86.52 7.01
8/13/2023 12:45:00 AM 20.12 68.216 0.138 6.84 88.85 6
8/13/2023 1:00:00 AM 20.16 68.288 0.138 6.84 91.67 6.4
8/13/2023 1:15:00 AM 20.23 68.414 0.138 6.84 93.03 7.68
8/13/2023 1:30:00 AM 20.31 68.558 0.138 6.83 96.86 5.61
8/13/2023 1:45:00 AM 20.44 68.792 0.14 6.86 99.34 7.42
8/13/2023 2:00:00 AM 20.45 68.81 0.142 6.82 100.71 5.6
8/13/2023 2:15:00 AM 20.36 68.648 0.145 6.85 99.22 5.92
8/13/2023 2:30:00 AM 20.2 68.36 0.145 6.86 100.01 4.62
8/13/2023 2:45:00 AM 20.03 68.054 0.143 6.83 99.91 1.55
8/13/2023 3:00:00 AM 19.95 67.91 0.14 6.87 100.23 6.79
8/13/2023 3:15:00 AM 19.88 67.784 0.138 6.84 101.38 6.98
8/13/2023 3:30:00 AM 19.82 67.676 0.134 6.85 101.01 5.41
8/13/2023 3:45:00 AM 19.76 67.568 0.131 6.85 101.27 5.28
8/13/2023 4:00:00 AM 19.69 67.442 0.129 6.85 100.24 2.02
8/13/2023 4:15:00 AM 19.62 67.316 0.128 6.86 99.53 2.88
8/13/2023 4:30:00 AM 19.58 67.244 0.127 6.85 101.18 4.12
8/13/2023 4:45:00 AM 19.56 67.208 0.127 6.84 101.26 2
8/13/2023 5:00:00 AM 19.55 67.19 0.126 6.83 101.11 3.27
8/13/2023 5:15:00 AM 19.55 67.19 0.125 6.84 102.98 4.59
8/13/2023 5:30:00 AM 19.53 67.154 0.125 6.83 104.11 6.34
8/13/2023 5:45:00 AM 19.5 67.1 0.126 6.84 105.44 7.47
8/13/2023 6:00:00 AM 19.45 67.01 0.126 6.83 103.61 6.96
8/13/2023 6:15:00 AM 19.39 66.902 0.125 6.85 103.72 7.48
8/13/2023 6:30:00 AM 19.32 66.776 0.125 6.81 104.91 7.24
8/13/2023 6:45:00 AM 19.27 66.686 0.123 6.81 103.84 7.46
8/13/2023 7:00:00 AM 19.24 66.632 0.121 6.82 104.82 5.94
8/13/2023 7:15:00 AM 19.22 66.596 0.122 6.83 104.55 5.24
8/13/2023 7:30:00 AM 19.22 66.596 0.121 6.83 106.09 7.45
8/13/2023 7:45:00 AM 19.24 66.632 0.12 6.85 106.2 7.4
8/13/2023 8:00:00 AM 19.25 66.65 0.12 6.86 106.37 7.35
8/13/2023 8:15:00 AM 19.27 66.686 0.12 6.87 108.83 6.49
8/13/2023 8:30:00 AM 19.29 66.722 0.12 6.88 108.89 5.81
8/13/2023 8:45:00 AM 19.33 66.794 0.12 6.88 110.63 4.68
8/13/2023 9:00:00 AM 19.35 66.83 0.121 6.87 110.82 4.26
8/13/2023 9:15:00 AM 19.37 66.866 0.122 6.9 110.22 4.02
8/13/2023 9:30:00 AM 19.4 66.92 0.123 6.9 110.49 2.47
8/13/2023 9:45:00 AM 19.43 66.974 0.124 6.89 108.85 1.86
8/13/2023 10:00:00 AM 19.48 67.064 0.125 6.9 109.45 2.92
8/13/2023 10:15:00 AM 19.54 67.172 0.126 6.89 109.93 1.4
8/13/2023 10:30:00 AM 19.6 67.28 0.126 6.91 109.55 0.49
8/13/2023 10:45:00 AM 19.64 67.352 0.127 6.92 110.82 0.83
8/13/2023 11:00:00 AM 19.68 67.424 0.127 6.92 111.79 3.98
8/13/2023 11:15:00 AM 19.71 67.478 0.126 6.89 111.36 6.64
8/13/2023 11:30:00 AM 19.74 67.532 0.127 6.92 112.24 7.11
8/13/2023 11:45:00 AM 19.77 67.586 0.127 6.91 113.28 3.66
8/13/2023 12:00:00 PM 19.81 67.658 0.128 6.91 112.46 6.03
8/13/2023 12:15:00 PM 19.86 67.748 0.129 6.95 112.63 0.89
8/13/2023 12:30:00 PM 19.91 67.838 0.13 6.94 113.27 3.23
8/13/2023 12:45:00 PM 19.96 67.92799 0.13 6.96 114.76 2.71
8/13/2023 1:00:00 PM 20.05 68.09 0.13 6.94 116.08 0.73
8/13/2023 1:15:00 PM 20.13 68.234 0.13 6.97 116.72 1.54
8/13/2023 1:30:00 PM 20.23 68.414 0.129 6.95 117.91 1.99
8/13/2023 1:45:00 PM 20.31 68.558 0.129 7 119.01 2.84
8/13/2023 2:00:00 PM 20.4 68.72 0.129 7 120.45 1.44
8/13/2023 2:15:00 PM 20.48 68.864 0.129 7 121.61 1.96
8/13/2023 2:30:00 PM 20.56 69.008 0.129 7 122.12 1.84
8/13/2023 2:45:00 PM 20.67 69.206 0.129 6.98 121.22 2.89
8/13/2023 3:00:00 PM 20.76 69.368 0.129 7 122.3 2.34
8/13/2023 3:15:00 PM 20.87 69.566 0.129 7 124.15 3.78
8/13/2023 3:30:00 PM 20.97 69.746 0.129 7.01 123.74 4.42
8/13/2023 3:45:00 PM 20.99 69.782 0.129 7.02 126.05 3.37
8/13/2023 4:00:00 PM 20.97 69.746 0.13 7 131 2.99
8/13/2023 4:15:00 PM 20.96 69.728 0.13 7.03 131.87 3.34
8/13/2023 4:30:00 PM 20.97 69.746 0.131 7.03 131.99 3.83
8/13/2023 4:45:00 PM 21 69.8 0.131 7.03 131.28 3.01
8/13/2023 5:00:00 PM 21 69.8 0.131 7.03 130.85 4.51
8/13/2023 5:15:00 PM 20.99 69.782 0.131 7.02 130.28 3.64
8/13/2023 5:30:00 PM 20.99 69.782 0.131 7.02 129.76 3.09
8/13/2023 5:45:00 PM 20.99 69.782 0.131 7.01 124.82 3.4
8/13/2023 6:00:00 PM 20.96 69.728 0.13 7.02 124.93 4.83
8/13/2023 6:15:00 PM 20.9 69.62 0.13 7.02 127.06 4.84
8/13/2023 6:30:00 PM 20.83 69.494 0.131 7.01 126.12 4.6
8/13/2023 6:45:00 PM 20.77 69.386 0.131 7.01 127.39 5.44
8/13/2023 7:00:00 PM 20.7 69.26 0.131 6.99 126.07 4.62
8/13/2023 7:15:00 PM 20.63 69.134 0.131 7 127.39 3.97
8/13/2023 7:30:00 PM 20.57 69.026 0.13 7.01 127.09 3.87
8/13/2023 7:45:00 PM 20.52 68.936 0.13 7.03 127.89 5.7
8/13/2023 8:00:00 PM 20.47 68.846 0.13 7.01 127.56 5.79
8/13/2023 8:15:00 PM 20.42 68.756 0.129 7.02 127.17 6.12
8/13/2023 8:30:00 PM 20.38 68.684 0.129 7.03 127.49 6.26
8/13/2023 8:45:00 PM 20.34 68.612 0.129 7.02 127.63 6.17
8/13/2023 9:00:00 PM 20.31 68.558 0.129 7.04 125.06 6.33
8/13/2023 9:15:00 PM 20.28 68.504 0.13 7.04 131.97 5.58
8/13/2023 9:30:00 PM 20.24 68.432 0.13 7.05 126.34 4.96
8/13/2023 9:45:00 PM 20.21 68.378 0.131 7.04 123.08 4.82
8/13/2023 10:00:00 PM 20.2 68.36 0.131 7.04 121.72 5.68
8/13/2023 10:15:00 PM 20.17 68.306 0.131 7.03 125.13 5.59
8/13/2023 10:30:00 PM 20.14 68.252 0.13 7.02 131.79 5.4
8/13/2023 10:45:00 PM 20.09 68.162 0.131 7.03 133.45 5.75
8/13/2023 11:00:00 PM 20.06 68.108 0.131 7.03 136.28 4.77
8/13/2023 11:15:00 PM 20.02 68.036 0.132 7.04 134.82 4.73
8/13/2023 11:30:00 PM 20 68 0.132 7.04 134.56 5.02
8/13/2023 11:45:00 PM 19.97 67.946 0.132 7.05 130.59 5.16
8/14/2023 12:00:00 AM 19.94 67.892 0.131 7.04 126.47 4.69
8/14/2023 12:15:00 AM 19.91 67.838 0.131 7.05 126.91 4.37
8/14/2023 12:30:00 AM 19.89 67.802 0.13 7.04 125.39 3.96
8/14/2023 12:45:00 AM 19.86 67.748 0.13 7.05 123.62 3.84
8/14/2023 1:00:00 AM 19.84 67.712 0.13 7.05 124.16 4.07
8/14/2023 1:15:00 AM 19.82 67.676 0.131 7.06 124.37 3.44
8/14/2023 1:30:00 AM 19.79 67.622 0.131 7.06 124.76 3.36
8/14/2023 1:45:00 AM 19.77 67.586 0.131 7.06 120.25 3.21
8/14/2023 2:00:00 AM 19.75 67.55 0.131 7.08 116.98 3.28
8/14/2023 2:15:00 AM 19.73 67.514 0.131 7.07 121.7 3.04
8/14/2023 2:30:00 AM 19.71 67.478 0.131 7.08 116.6 2.97
8/14/2023 2:45:00 AM 19.69 67.442 0.131 7.07 112.39 2.48
8/14/2023 3:00:00 AM 19.66 67.388 0.132 7.09 114.78 2.59
8/14/2023 3:15:00 AM 19.64 67.352 0.132 7.08 113.45 2.7
8/14/2023 3:30:00 AM 19.61 67.298 0.133 7.1 117.26 2.61
8/14/2023 3:45:00 AM 19.59 67.262 0.134 7.1 119 2.56
8/14/2023 4:00:00 AM 19.56 67.208 0.134 7.1 119.56 3.11
8/14/2023 4:15:00 AM 19.53 67.154 0.134 7.11 119.67 2.67
8/14/2023 4:30:00 AM 19.5 67.1 0.134 7.11 119.26 2.18
8/14/2023 4:45:00 AM 19.48 67.064 0.134 7.1 121.43 2.74
8/14/2023 5:00:00 AM 19.45 67.01 0.134 7.11 118.1 2.71
8/14/2023 5:15:00 AM 19.42 66.956 0.134 7.1 117.63 2.54
8/14/2023 5:30:00 AM 19.39 66.902 0.134 7.1 118.64 2.76
8/14/2023 5:45:00 AM 19.36 66.848 0.134 7.09 118.54 2.42
8/14/2023 6:00:00 AM 19.33 66.794 0.135 7.12 119.51 2.38
8/14/2023 6:15:00 AM 19.3 66.74 0.135 7.12 117.97 2.93
8/14/2023 6:30:00 AM 19.27 66.686 0.135 7.12 116.81 2.37
8/14/2023 6:45:00 AM 19.25 66.65 0.134 7.11 115.77 2.52
8/14/2023 7:00:00 AM 19.23 66.614 0.135 7.14 114.63 1.68
8/14/2023 7:15:00 AM 19.21 66.578 0.136 7.15 112.62 1.91
8/14/2023 7:30:00 AM 19.19 66.542 0.136 7.15 118.09 1.84
8/14/2023 7:45:00 AM 19.19 66.542 0.136 7.15 116.52 2.01
8/14/2023 8:00:00 AM 19.19 66.542 0.136 7.17 116.93 2.55
8/14/2023 8:15:00 AM 19.19 66.542 0.136 7.16 117.38 2.4
8/14/2023 8:30:00 AM 19.2 66.56 0.137 7.15 112.55 2.16
8/14/2023 8:45:00 AM 19.23 66.614 0.138 7.14 111.73 2.72
8/14/2023 9:00:00 AM 19.28 66.704 0.138 7.16 110.4 2.7
8/14/2023 9:15:00 AM 19.34 66.812 0.138 7.14 109.66 2.24
8/14/2023 9:30:00 AM 19.43 66.974 0.138 7.15 108.61 2.51
8/14/2023 9:45:00 AM 19.54 67.172 0.138 7.15 108.15 2.32
8/14/2023 10:00:00 AM 19.65 67.37 0.139 7.15 109.49 2.16
8/14/2023 10:15:00 AM 19.69 67.442 0.138 7.16 110.55 2.54
8/14/2023 10:30:00 AM 19.75 67.55 0.139 7.16 111.17 2.14
8/14/2023 10:45:00 AM 19.8 67.64 0.139 7.15 111.15 2.22
8/14/2023 11:00:00 AM 19.89 67.802 0.14 7.16 110.87 2.6
8/14/2023 11:15:00 AM 20 68 0.139 7.15 108.79 1.85
8/14/2023 11:30:00 AM 20.09 68.162 0.14 7.16 112.15 4.9
8/14/2023 11:45:00 AM 20.24 68.432 0.141 7.14 111.13 4.64
8/14/2023 12:00:00 PM 20.45 68.81 0.141 7.16 110.64 4.1
8/14/2023 12:15:00 PM 20.59 69.062 0.14 7.17 111.07 4.92
8/14/2023 12:30:00 PM 20.8 69.44 0.141 7.17 107.52 5.25
8/14/2023 12:45:00 PM 20.89 69.602 0.14 7.19 112.75 5.3
8/14/2023 1:00:00 PM 20.91 69.638 0.139 7.19 107.61 5.27
8/14/2023 1:15:00 PM 20.9 69.62 0.14 7.19 109.39 4.07
8/14/2023 1:30:00 PM 20.83 69.494 0.14 7.2 105.56 3.03
8/14/2023 1:45:00 PM 20.78 69.404 0.141 7.17 102.62 2.9
8/14/2023 2:00:00 PM 20.71 69.278 0.141 7.21 102.42 1.89
8/14/2023 2:15:00 PM 20.61 69.098 0.141 7.21 102.44 1.27
8/14/2023 2:30:00 PM 20.53 68.954 0.141 7.22 99.84 1.74
8/14/2023 2:45:00 PM 20.46 68.828 0.141 7.22 98.92 1.8
8/14/2023 3:00:00 PM 20.4 68.72 0.141 7.22 96.48 2.18
8/14/2023 3:15:00 PM 20.37 68.666 0.142 7.22 95.01 2.34
8/14/2023 3:30:00 PM 20.38 68.684 0.142 7.21 94.3 2.21
8/14/2023 3:45:00 PM 20.41 68.738 0.143 7.21 93.33 2.01
8/14/2023 4:00:00 PM 20.41 68.738 0.144 7.21 91.13 2.23
8/14/2023 4:15:00 PM 20.39 68.702 0.145 7.22 93.52 2.03
8/14/2023 4:30:00 PM 20.35 68.63 0.145 7.21 94.06 2.35
8/14/2023 4:45:00 PM 20.31 68.558 0.147 7.21 96.12 2.2
8/14/2023 5:00:00 PM 20.27 68.486 0.147 7.22 94.68 2.16
8/14/2023 5:15:00 PM 20.31 68.558 0.148 7.22 96.6 2.22
8/14/2023 5:30:00 PM 20.23 68.414 0.148 7.21 97.67 2.51
8/14/2023 5:45:00 PM 20.13 68.234 0.148 7.21 92.86 2.74
8/14/2023 6:00:00 PM 20.09 68.162 0.149 7.2 94.39 3.12
8/14/2023 6:15:00 PM 20.07 68.126 0.15 7.21 98.08 2.4
8/14/2023 6:30:00 PM 20.02 68.036 0.149 7.21 89.98 2.23
8/14/2023 6:45:00 PM 19.96 67.92799 0.15 7.21 89.42 2.63
8/14/2023 7:00:00 PM 19.89 67.802 0.15 7.21 95.45 2.24
8/14/2023 7:15:00 PM 19.83 67.694 0.15 7.22 86.54 2.31
8/14/2023 7:30:00 PM 19.78 67.604 0.151 7.23 98.26 2.39
8/14/2023 7:45:00 PM 19.73 67.514 0.15 7.22 95.57 2.35
8/14/2023 8:00:00 PM 19.69 67.442 0.149 7.22 94.25 2.41
8/14/2023 8:15:00 PM 19.65 67.37 0.15 7.22 94.57 2.5
8/14/2023 8:30:00 PM 19.61 67.298 0.151 7.23 91.6 2.77
8/14/2023 8:45:00 PM 19.6 67.28 0.152 7.21 92.33 3.98
8/14/2023 9:00:00 PM 19.61 67.298 0.153 7.22 98.16 3.96
8/14/2023 9:15:00 PM 19.75 67.55 0.153 7.23 105.63 4.51
8/14/2023 9:30:00 PM 19.66 67.388 0.153 7.23 105.04 5.03
8/14/2023 9:45:00 PM 19.62 67.316 0.152 7.23 99.43 6.21
8/14/2023 10:00:00 PM 19.65 67.37 0.153 7.23 97.86 4.71
8/14/2023 10:15:00 PM 19.6 67.28 0.154 7.24 99.17 4.74
8/14/2023 10:30:00 PM 19.5 67.1 0.155 7.24 101.24 4.61
8/14/2023 10:45:00 PM 19.41 66.938 0.155 7.24 97.27 6.62
8/14/2023 11:00:00 PM 19.24 66.632 0.157 7.24 97.02 4.7
8/14/2023 11:15:00 PM 19.13 66.434 0.158 7.25 97.58 7.38
8/14/2023 11:30:00 PM 19.08 66.344 0.158 7.25 93.61 7.03
8/14/2023 11:45:00 PM 19.05 66.29 0.159 7.26 93.49 8.08
8/15/2023 12:00:00 AM 19.04 66.272 0.159 7.26 95.86 8.19
8/15/2023 12:15:00 AM 19.08 66.344 0.159 7.27 95.44 7.72
8/15/2023 12:30:00 AM 19.13 66.434 0.16 7.27 97.66 7.98
8/15/2023 12:45:00 AM 19.17 66.506 0.159 7.28 98.55 8.08
8/15/2023 1:00:00 AM 19.2 66.56 0.159 7.3 98.16 8.09
8/15/2023 1:15:00 AM 19.22 66.596 0.16 7.3 98.81 8.02
8/15/2023 1:30:00 AM 19.23 66.614 0.161 7.28 98.28 8.04
8/15/2023 1:45:00 AM 19.25 66.65 0.161 7.27 98.77 8.05
8/15/2023 2:00:00 AM 19.27 66.686 0.161 7.28 98.91 7.97
8/15/2023 2:15:00 AM 19.27 66.686 0.161 7.27 98.87 8.04
8/15/2023 2:30:00 AM 19.27 66.686 0.161 7.32 99.68 8.01
8/15/2023 2:45:00 AM 19.25 66.65 0.161 7.32 98.82 8.01
8/15/2023 3:00:00 AM 19.21 66.578 0.159 7.33 99.01 8.02
8/15/2023 3:15:00 AM 19.16 66.488 0.158 7.34 99.8 8.01
8/15/2023 3:30:00 AM 19.09 66.362 0.156 7.32 100.25 7.86
8/15/2023 3:45:00 AM 19.03 66.254 0.154 7.33 101.24 8.04
8/15/2023 4:00:00 AM 18.98 66.164 0.153 7.33 103.71 8.04
8/15/2023 4:15:00 AM 18.94 66.092 0.151 7.32 103.3 8.04
8/15/2023 4:30:00 AM 18.91 66.038 0.15 7.36 103.16 8.05
8/15/2023 4:45:00 AM 18.87 65.966 0.148 7.33 105.34 8.03
8/15/2023 5:00:00 AM 18.83 65.894 0.146 7.35 106.45 8.02
8/15/2023 5:15:00 AM 18.78 65.804 0.144 7.35 107.91 7.99
8/15/2023 5:30:00 AM 18.75 65.75 0.143 7.33 108.49 8.02
8/15/2023 5:45:00 AM 18.74 65.732 0.142 7.35 109.12 7.98
8/15/2023 6:00:00 AM 18.74 65.732 0.142 7.32 110.9 7.95
8/15/2023 6:15:00 AM 18.75 65.75 0.143 7.32 110.74 7.96
8/15/2023 6:30:00 AM 18.76 65.768 0.143 7.31 109.99 7.95
8/15/2023 6:45:00 AM 18.76 65.768 0.143 7.29 109.37 7.94
8/15/2023 7:00:00 AM 18.74 65.732 0.143 7.28 108.85 7.94
8/15/2023 7:15:00 AM 18.72 65.696 0.144 7.28 108.33 7.85
8/15/2023 7:30:00 AM 18.7 65.66 0.144 7.25 108.17 7.69
8/15/2023 7:45:00 AM 18.69 65.642 0.144 7.23 108.02 7.8
8/15/2023 8:00:00 AM 18.69 65.642 0.142 7.21 108.06 7.81
8/15/2023 8:15:00 AM 18.7 65.66 0.139 7.24 108.51 7.79
8/15/2023 8:30:00 AM 18.71 65.67799 0.137 7.22 108.94 7.86
8/15/2023 8:45:00 AM 18.73 65.714 0.134 7.22 109.4 7.84
8/15/2023 9:00:00 AM 18.76 65.768 0.134 7.23 109.25 7.81
8/15/2023 9:15:00 AM 18.81 65.858 0.132 7.23 108.79 7.81
8/15/2023 9:30:00 AM 18.85 65.93 0.13 7.24 107.71 7.83
8/15/2023 9:45:00 AM 18.88 65.984 0.128 7.26 107.28 7.87
8/15/2023 10:00:00 AM 18.9 66.02 0.127 7.27 107.72 7.86
8/15/2023 10:15:00 AM 18.88 65.984 0.127 7.28 107.65 7.87
8/15/2023 10:30:00 AM 18.84 65.912 0.126 7.28 107.07 7.83
8/15/2023 10:45:00 AM 18.82 65.876 0.126 7.3 107.13 7.88
8/15/2023 11:00:00 AM 18.85 65.93 0.127 7.29 106.93 7.9
8/15/2023 11:15:00 AM 18.89 66.002 0.128 7.25 107.42 7.96
8/15/2023 11:30:00 AM 18.91 66.038 0.13 7.28 107.56 7.95
8/15/2023 11:45:00 AM 18.98 66.164 0.13 7.28 107.2 7.98
8/15/2023 12:00:00 PM 19.05 66.29 0.13 7.28 107.44 7.97
8/15/2023 12:15:00 PM 19.11 66.398 0.13 7.28 107.69 7.96
8/15/2023 12:30:00 PM 19.17 66.506 0.13 7.28 107.59 7.98
8/15/2023 12:45:00 PM 19.24 66.632 0.13 7.29 107.01 7.99
8/15/2023 1:00:00 PM 19.35 66.83 0.129 7.28 105.77 8.01
8/15/2023 1:15:00 PM 19.5 67.1 0.128 7.28 99.85 8.01
8/15/2023 1:30:00 PM 19.58 67.244 0.128 7.29 100.69 7.99
8/15/2023 1:45:00 PM 19.62 67.316 0.127 7.3 100.89 7.98
8/15/2023 2:00:00 PM 19.6 67.28 0.125 7.21 101.29 7.97
8/15/2023 2:15:00 PM 19.62 67.316 0.124 7.28 100.85 7.98
8/15/2023 2:30:00 PM 19.7 67.46 0.124 7.29 102.08 7.95
8/15/2023 2:45:00 PM 19.8 67.64 0.123 7.3 103.3 7.98
8/15/2023 3:00:00 PM 19.85 67.73 0.123 7.32 103.87 7.98
8/15/2023 3:15:00 PM 19.82 67.676 0.122 7.32 99.63 7.97
8/15/2023 3:30:00 PM 19.85 67.73 0.122 7.31 101.86 7.97
8/15/2023 3:45:00 PM 19.96 67.92799 0.122 7.3 99.38 8
8/15/2023 4:00:00 PM 20.09 68.162 0.122 7.3 99.69 8.02
8/15/2023 4:15:00 PM 20.17 68.306 0.123 7.28 99.24 8.02
8/15/2023 4:30:00 PM 20.25 68.45 0.123 7.3 100.26 8.03
8/15/2023 4:45:00 PM 20.25 68.45 0.124 7.31 100.05 8
8/15/2023 5:00:00 PM 20.19 68.342 0.124 7.32 99.19 7.99
8/15/2023 5:15:00 PM 20.2 68.36 0.124 7.32 98.88 7.98
8/15/2023 5:30:00 PM 20.15 68.27 0.124 7.32 98.21 7.98
8/15/2023 5:45:00 PM 20.1 68.18 0.124 7.34 97.61 7.97
8/15/2023 6:00:00 PM 20.06 68.108 0.125 7.34 97.12 7.95
8/15/2023 6:15:00 PM 20 68 0.125 7.34 96.79 7.94
8/15/2023 6:30:00 PM 19.95 67.91 0.126 7.34 96.43 7.94
8/15/2023 6:45:00 PM 19.92 67.856 0.126 7.34 96.93 7.94
8/15/2023 7:00:00 PM 19.9 67.82 0.126 7.34 96.27 7.95
8/15/2023 7:15:00 PM 19.86 67.748 0.127 7.34 96.04 7.95
8/15/2023 7:30:00 PM 19.82 67.676 0.126 7.31 96.38 7.94
8/15/2023 7:45:00 PM 19.76 67.568 0.126 7.31 96.02 7.92
8/15/2023 8:00:00 PM 19.7 67.46 0.126 7.32 95.37 7.9
8/15/2023 8:15:00 PM 19.67 67.406 0.127 7.32 96.05 7.9
8/15/2023 8:30:00 PM 19.65 67.37 0.127 7.31 94.99 7.9
8/15/2023 8:45:00 PM 19.63 67.334 0.128 7.32 93.64 7.88
8/15/2023 9:00:00 PM 19.61 67.298 0.128 7.31 94.07 7.88
8/15/2023 9:15:00 PM 19.59 67.262 0.128 7.31 93 7.87
8/15/2023 9:30:00 PM 19.57 67.226 0.127 7.31 93.61 7.87
8/15/2023 9:45:00 PM 19.56 67.208 0.128 7.32 94.47 7.88
8/15/2023 10:00:00 PM 19.54 67.172 0.128 7.32 93.67 7.88
8/15/2023 10:15:00 PM 19.51 67.118 0.128 7.3 94.93 7.89
8/15/2023 10:30:00 PM 19.49 67.082 0.128 7.32 94.68 7.9
8/15/2023 10:45:00 PM 19.47 67.046 0.128 7.32 95.18 7.9
8/15/2023 11:00:00 PM 19.44 66.992 0.128 7.31 95.73 7.9
8/15/2023 11:15:00 PM 19.42 66.956 0.129 7.32 95.95 7.91
8/15/2023 11:30:00 PM 19.39 66.902 0.129 7.32 95.25 7.91
8/15/2023 11:45:00 PM 19.37 66.866 0.13 7.32 96.41 7.92
8/16/2023 12:00:00 AM 19.34 66.812 0.13 7.31 95.57 7.92
8/16/2023 12:15:00 AM 19.31 66.758 0.13 7.33 95.57 7.93
8/16/2023 12:30:00 AM 19.28 66.704 0.13 7.34 96.16 7.93
8/16/2023 12:45:00 AM 19.25 66.65 0.13 7.34 96.25 7.94
8/16/2023 1:00:00 AM 19.22 66.596 0.13 7.34 95.97 7.95
8/16/2023 1:15:00 AM 19.2 66.56 0.13 7.34 95.77 7.95
8/16/2023 1:30:00 AM 19.17 66.506 0.13 7.34 95.77 7.96
8/16/2023 1:45:00 AM 19.14 66.452 0.13 7.35 95.58 7.98
8/16/2023 2:00:00 AM 19.1 66.38 0.13 7.35 95.64 7.98
8/16/2023 2:15:00 AM 19.07 66.326 0.13 7.35 95.58 7.99
8/16/2023 2:30:00 AM 19.04 66.272 0.13 7.36 95.23 7.99
8/16/2023 2:45:00 AM 19.01 66.218 0.13 7.36 95.4 8.01
8/16/2023 3:00:00 AM 18.99 66.182 0.131 7.35 95.25 8
8/16/2023 3:15:00 AM 18.96 66.128 0.131 7.35 94.64 8.01
8/16/2023 3:30:00 AM 18.92 66.056 0.132 7.36 95.66 8.02
8/16/2023 3:45:00 AM 18.88 65.984 0.132 7.36 95.15 8.04
8/16/2023 4:00:00 AM 18.85 65.93 0.133 7.36 103.76 8.04
8/16/2023 4:15:00 AM 18.83 65.894 0.134 7.36 98.47 8.05
8/16/2023 4:30:00 AM 18.8 65.84 0.133 7.36 101 8.06
8/16/2023 4:45:00 AM 18.78 65.804 0.134 7.36 99.99 8.06
8/16/2023 5:00:00 AM 18.76 65.768 0.134 7.35 100.92 8.06
8/16/2023 5:15:00 AM 18.74 65.732 0.134 7.37 100.37 8.07
8/16/2023 5:30:00 AM 18.71 65.67799 0.134 7.38 102.86 8.07
8/16/2023 5:45:00 AM 18.68 65.624 0.134 7.37 102.91 8.08
8/16/2023 6:00:00 AM 18.66 65.588 0.134 7.37 102.55 8.08
8/16/2023 6:15:00 AM 18.63 65.534 0.135 7.38 102.67 8.08
8/16/2023 6:30:00 AM 18.6 65.48 0.135 7.37 104.23 8.09
8/16/2023 6:45:00 AM 18.58 65.444 0.136 7.39 103.47 8.1
8/16/2023 7:00:00 AM 18.56 65.408 0.136 7.38 103.11 8.12
8/16/2023 7:15:00 AM 18.54 65.372 0.136 7.38 102.84 8.11
8/16/2023 7:30:00 AM 18.52 65.336 0.136 7.38 103.36 8.12
8/16/2023 7:45:00 AM 18.5 65.3 0.137 7.37 103.94 8.14
8/16/2023 8:00:00 AM 18.49 65.282 0.136 7.38 103.06 8.15
8/16/2023 8:15:00 AM 18.49 65.282 0.137 7.37 102.69 8.16
8/16/2023 8:30:00 AM 18.5 65.3 0.136 7.37 102.01 8.19
8/16/2023 8:45:00 AM 18.54 65.372 0.136 7.38 102.79 8.24
8/16/2023 9:00:00 AM 18.56 65.408 0.137 7.37 103.43 8.26
8/16/2023 9:15:00 AM 18.61 65.498 0.137 7.39 103.04 8.31
8/16/2023 9:30:00 AM 18.7 65.66 0.137 7.38 102.35 8.36
8/16/2023 9:45:00 AM 18.77 65.786 0.137 7.39 102.74 8.4
8/16/2023 10:00:00 AM 18.81 65.858 0.138 7.37 102.21 8.4
8/16/2023 10:15:00 AM 18.82 65.876 0.138 7.38 102.13 8.44
8/16/2023 10:30:00 AM 18.82 65.876 0.138 7.38 101.5 8.45
8/16/2023 10:45:00 AM 18.89 66.002 0.138 7.38 100.77 8.49
8/16/2023 11:00:00 AM 18.99 66.182 0.139 7.39 101.04 8.53
8/16/2023 11:15:00 AM 19.1 66.38 0.139 7.4 101.03 8.52
8/16/2023 11:30:00 AM 19.08 66.344 0.139 7.4 100.74 8.51
8/16/2023 11:45:00 AM 19.03 66.254 0.14 7.38 99.4 8.51
8/16/2023 12:00:00 PM 19.04 66.272 0.141 7.41 99.91 8.56
8/16/2023 12:15:00 PM 19.18 66.524 0.141 7.39 99.92 8.56
8/16/2023 12:30:00 PM 19.26 66.668 0.142 7.4 98.84 8.63
8/16/2023 12:45:00 PM 19.42 66.956 0.142 7.39 99.47 8.71
8/16/2023 1:00:00 PM 19.64 67.352 0.143 7.41 99.6 8.73
8/16/2023 1:15:00 PM 19.63 67.334 0.144 7.4 98.74 8.69
8/16/2023 1:30:00 PM 19.66 67.388 0.144 7.41 97.92 8.73
8/16/2023 1:45:00 PM 19.71 67.478 0.145 7.39 98.37 8.73
8/16/2023 2:00:00 PM 19.74 67.532 0.144 7.41 98.29 8.73
8/16/2023 2:15:00 PM 19.76 67.568 0.145 7.4 98.04 8.72
8/16/2023 2:30:00 PM 19.86 67.748 0.145 7.4 97.98 8.79
8/16/2023 2:45:00 PM 20.05 68.09 0.145 7.39 97.74 8.8
8/16/2023 3:00:00 PM 20.18 68.324 0.145 7.36 97.12 8.78
8/16/2023 3:15:00 PM 20.16 68.288 0.144 7.36 96.84 8.77
8/16/2023 3:30:00 PM 20.13 68.234 0.144 7.36 97 8.76
8/16/2023 3:45:00 PM 20.1 68.18 0.144 7.36 96.04 8.79
8/16/2023 4:00:00 PM 20.08 68.144 0.143 7.36 95.24 8.75
8/16/2023 4:15:00 PM 20.12 68.216 0.143 7.34 95.68 8.78
8/16/2023 4:30:00 PM 20.11 68.198 0.144 7.37 94.81 8.76
8/16/2023 4:45:00 PM 20.22 68.396 0.144 7.34 94.24 8.81
8/16/2023 5:00:00 PM 20.29 68.522 0.144 7.35 94.54 8.8
8/16/2023 5:15:00 PM 20.32 68.576 0.144 7.35 94.01 8.78
8/16/2023 5:30:00 PM 20.3 68.54 0.144 7.34 92.4 8.74
8/16/2023 5:45:00 PM 20.28 68.504 0.144 7.35 92.76 8.72
8/16/2023 6:00:00 PM 20.23 68.414 0.145 7.34 91.21 8.66
8/16/2023 6:15:00 PM 20.13 68.234 0.145 7.35 92.81 8.63
8/16/2023 6:30:00 PM 19.99 67.982 0.145 7.35 91.85 8.54
8/16/2023 6:45:00 PM 19.86 67.748 0.146 7.35 93.62 8.48
8/16/2023 7:00:00 PM 19.78 67.604 0.146 7.35 92.54 8.46
8/16/2023 7:15:00 PM 19.72 67.496 0.147 7.35 91.61 8.45
8/16/2023 7:30:00 PM 19.67 67.406 0.147 7.35 93.49 8.4
8/16/2023 7:45:00 PM 19.61 67.298 0.147 7.34 91.47 8.37
8/16/2023 8:00:00 PM 19.54 67.172 0.147 7.35 92.76 8.33
8/16/2023 8:15:00 PM 19.47 67.046 0.147 7.35 87.51 8.31
8/16/2023 8:30:00 PM 19.4 66.92 0.147 7.35 87.46 8.27
8/16/2023 8:45:00 PM 19.34 66.812 0.147 7.34 88.18 8.26
8/16/2023 9:00:00 PM 19.29 66.722 0.147 7.34 90.2 8.24
8/16/2023 9:15:00 PM 19.22 66.596 0.147 7.35 89.83 8.21
8/16/2023 9:30:00 PM 19.14 66.452 0.147 7.32 89.29 8.21
8/16/2023 9:45:00 PM 19.1 66.38 0.147 7.33 90.68 8.19
8/16/2023 10:00:00 PM 19.06 66.308 0.147 7.32 89.19 8.21
8/16/2023 10:15:00 PM 19.02 66.236 0.147 7.33 90.34 8.2
8/16/2023 10:30:00 PM 18.98 66.164 0.147 7.32 95.24 8.21
8/16/2023 10:45:00 PM 18.94 66.092 0.147 7.3 96.51 8.19
8/16/2023 11:00:00 PM 18.9 66.02 0.147 7.31 96.24 8.2
8/16/2023 11:15:00 PM 18.87 65.966 0.148 7.29 97.59 8.2
8/16/2023 11:30:00 PM 18.85 65.93 0.148 7.31 98.47 8.18
8/16/2023 11:45:00 PM 18.82 65.876 0.148 7.3 98.64 8.19
8/17/2023 12:00:00 AM 18.79 65.82201 0.149 7.31 96.47 8.19
8/17/2023 12:15:00 AM 18.76 65.768 0.149 7.31 95.55 8.2
8/17/2023 12:30:00 AM 18.72 65.696 0.149 7.29 96.17 8.19
8/17/2023 12:45:00 AM 18.69 65.642 0.149 7.3 94.58 8.18
8/17/2023 1:00:00 AM 18.65 65.57 0.15 7.3 94.26 8.18
8/17/2023 1:15:00 AM 18.61 65.498 0.15 7.3 94.36 8.18
8/17/2023 1:30:00 AM 18.57 65.426 0.15 7.3 89.88 8.18
8/17/2023 1:45:00 AM 18.53 65.354 0.15 7.3 90.3 8.18
8/17/2023 2:00:00 AM 18.49 65.282 0.15 7.29 90.8 8.19
8/17/2023 2:15:00 AM 18.45 65.21 0.15 7.28 89.13 8.2
8/17/2023 2:30:00 AM 18.41 65.138 0.149 7.28 89.59 8.19
8/17/2023 2:45:00 AM 18.36 65.048 0.149 7.28 92.61 8.2
8/17/2023 3:00:00 AM 18.33 64.994 0.149 7.28 92.13 8.21
8/17/2023 3:15:00 AM 18.3 64.94 0.149 7.28 91.93 8.2
8/17/2023 3:30:00 AM 18.28 64.904 0.149 7.29 92.8 8.21
8/17/2023 3:45:00 AM 18.26 64.868 0.149 7.29 93.2 8.22
8/17/2023 4:00:00 AM 18.23 64.814 0.148 7.3 92.23 8.22
8/17/2023 4:15:00 AM 18.21 64.778 0.148 7.3 91.27 8.22
8/17/2023 4:30:00 AM 18.19 64.742 0.149 7.3 91.1 8.23
8/17/2023 4:45:00 AM 18.16 64.688 0.149 7.32 90.85 8.22
8/17/2023 5:00:00 AM 18.13 64.634 0.148 7.33 90.38 8.23
8/17/2023 5:15:00 AM 18.11 64.598 0.148 7.33 89.61 8.24
8/17/2023 5:30:00 AM 18.08 64.544 0.148 7.33 90.16 8.24
8/17/2023 5:45:00 AM 18.05 64.49 0.148 7.31 90.22 8.24
8/17/2023 6:00:00 AM 18.03 64.454 0.148 7.33 91.46 8.24
8/17/2023 6:15:00 AM 18 64.4 0.148 7.32 92.84 8.25
8/17/2023 6:30:00 AM 17.97 64.346 0.148 7.32 92.92 8.25
8/17/2023 6:45:00 AM 17.95 64.31 0.147 7.32 95.15 8.26
8/17/2023 7:00:00 AM 17.93 64.274 0.148 7.32 94.77 8.27
8/17/2023 7:15:00 AM 17.92 64.256 0.147 7.31 94.49 8.29
8/17/2023 7:30:00 AM 17.92 64.256 0.147 7.31 92.02 8.31
8/17/2023 7:45:00 AM 17.92 64.256 0.147 7.31 91.91 8.35
8/17/2023 8:00:00 AM 17.92 64.256 0.147 7.31 91.53 8.38
8/17/2023 8:15:00 AM 17.94 64.292 0.147 7.31 89.61 8.42
8/17/2023 8:30:00 AM 17.97 64.346 0.147 7.32 91.79 8.46
8/17/2023 8:45:00 AM 18.02 64.436 0.147 7.3 90.93 8.53
8/17/2023 9:00:00 AM 18.08 64.544 0.148 7.3 90.89 8.58
8/17/2023 9:15:00 AM 18.22 64.796 0.148 7.31 90.33 8.7
8/17/2023 9:30:00 AM 18.32 64.976 0.149 7.31 92.35 8.72
8/17/2023 9:45:00 AM 18.4 65.12 0.15 7.32 93.65 8.78
8/17/2023 10:00:00 AM 18.49 65.282 0.15 7.32 90.45 8.82
8/17/2023 10:15:00 AM 18.61 65.498 0.15 7.32 89.98 8.9
8/17/2023 10:30:00 AM 18.78 65.804 0.15 7.3 91.01 8.95
8/17/2023 10:45:00 AM 18.95 66.11 0.15 7.31 90.36 8.99
8/17/2023 11:00:00 AM 19.12 66.416 0.15 7.31 90.67 8.98
8/17/2023 11:15:00 AM 19.18 66.524 0.15 7.31 92.61 8.93
8/17/2023 11:30:00 AM 19.19 66.542 0.15 7.31 93.39 8.87
8/17/2023 11:45:00 AM 19.22 66.596 0.15 7.31 95.02 8.93
8/17/2023 12:00:00 PM 19.33 66.794 0.15 7.31 92.96 8.96
8/17/2023 12:15:00 PM 19.46 67.028 0.15 7.32 94.97 8.96
8/17/2023 12:30:00 PM 19.5 67.1 0.15 7.3 94.74 8.97
8/17/2023 12:45:00 PM 19.6 67.28 0.151 7.31 94.68 8.98
8/17/2023 1:00:00 PM 19.6 67.28 0.151 7.31 92.42 8.95
8/17/2023 1:15:00 PM 19.6 67.28 0.151 7.31 91.51 8.97
8/17/2023 1:30:00 PM 19.65 67.37 0.151 7.31 94.04 8.98
8/17/2023 1:45:00 PM 19.63 67.334 0.151 7.3 93.87 9
8/17/2023 2:00:00 PM 19.63 67.334 0.151 7.3 90.64 8.99
8/17/2023 2:15:00 PM 19.77 67.586 0.151 7.3 90.49 9.07
8/17/2023 2:30:00 PM 19.97 67.946 0.152 7.28 90.15 9.09
8/17/2023 2:45:00 PM 20.19 68.342 0.152 7.27 92.68 9.14
8/17/2023 3:00:00 PM 20.37 68.666 0.152 7.27 93.05 9.14
8/17/2023 3:15:00 PM 20.54 68.972 0.152 7.27 91.98 9.16
8/17/2023 3:30:00 PM 20.67 69.206 0.152 7.28 91.43 9.15
8/17/2023 3:45:00 PM 20.81 69.458 0.153 7.28 90.72 9.14
8/17/2023 4:00:00 PM 20.93 69.674 0.153 7.28 92.68 9.14
8/17/2023 4:15:00 PM 21.01 69.818 0.153 7.28 91.44 9.12
8/17/2023 4:30:00 PM 21.07 69.926 0.153 7.27 90.65 9.08
8/17/2023 4:45:00 PM 21.08 69.944 0.152 7.27 89.8 9.02
8/17/2023 5:00:00 PM 20.99 69.782 0.152 7.26 89.57 8.96
8/17/2023 5:15:00 PM 20.89 69.602 0.152 7.26 89.61 8.87
8/17/2023 5:30:00 PM 20.74 69.332 0.152 7.26 90.64 8.79
8/17/2023 5:45:00 PM 20.59 69.062 0.152 7.26 91.23 8.73
8/17/2023 6:00:00 PM 20.46 68.828 0.152 7.26 90.92 8.68
8/17/2023 6:15:00 PM 20.4 68.72 0.151 7.26 91.57 8.68
8/17/2023 6:30:00 PM 20.35 68.63 0.151 7.26 91.46 8.63
8/17/2023 6:45:00 PM 20.26 68.468 0.151 7.27 90.87 8.55
8/17/2023 7:00:00 PM 20.17 68.306 0.151 7.26 92.12 8.5
8/17/2023 7:15:00 PM 20.11 68.198 0.151 7.26 92.5 8.47
8/17/2023 7:30:00 PM 20.07 68.126 0.151 7.27 91.72 8.44
8/17/2023 7:45:00 PM 20.01 68.018 0.151 7.27 91.32 8.37
8/17/2023 8:00:00 PM 19.94 67.892 0.149 7.27 92.07 8.32
8/17/2023 8:15:00 PM 19.85 67.73 0.15 7.26 91.48 8.28
8/17/2023 8:30:00 PM 19.76 67.568 0.15 7.26 90.34 8.25
8/17/2023 8:45:00 PM 19.67 67.406 0.149 7.27 91.45 8.2
8/17/2023 9:00:00 PM 19.58 67.244 0.15 7.27 91.48 8.17
8/17/2023 9:15:00 PM 19.51 67.118 0.15 7.27 91.44 8.14
8/17/2023 9:30:00 PM 19.44 66.992 0.15 7.27 91.24 8.14
8/17/2023 9:45:00 PM 19.39 66.902 0.15 7.27 91.5 8.11
8/17/2023 10:00:00 PM 19.34 66.812 0.15 7.27 91.77 8.11
8/17/2023 10:15:00 PM 19.29 66.722 0.15 7.27 91.91 8.1
8/17/2023 10:30:00 PM 19.25 66.65 0.15 7.27 91.69 8.08
8/17/2023 10:45:00 PM 19.21 66.578 0.15 7.26 92.11 8.09
8/17/2023 11:00:00 PM 19.18 66.524 0.15 7.27 92.57 8.08
8/17/2023 11:15:00 PM 19.15 66.47 0.15 7.26 92.63 8.07
8/17/2023 11:30:00 PM 19.13 66.434 0.151 7.26 92.44 8.07
8/17/2023 11:45:00 PM 19.11 66.398 0.151 7.26 92.91 8.03
8/18/2023 12:00:00 AM 19.08 66.344 0.151 7.26 92.57 8.06
8/18/2023 12:15:00 AM 19.07 66.326 0.151 7.26 92.86 8.06
8/18/2023 12:30:00 AM 19.06 66.308 0.151 7.25 93.1 8.06
8/18/2023 12:45:00 AM 19.05 66.29 0.151 7.25 93.06 8.06
8/18/2023 1:00:00 AM 19.03 66.254 0.151 7.25 93.47 8.04
8/18/2023 1:15:00 AM 18.97 66.146 0.151 7.24 93.76 8.06
8/18/2023 1:30:00 AM 18.88 65.984 0.15 7.22 93.97 8.12
8/18/2023 1:45:00 AM 18.82 65.876 0.149 7.21 94.56 8.15
8/18/2023 2:00:00 AM 18.67 65.606 0.148 7.21 94.96 8.17
8/18/2023 2:15:00 AM 18.57 65.426 0.147 7.21 95.16 8.17
8/18/2023 2:30:00 AM 18.57 65.426 0.148 7.2 95.55 8.14
8/18/2023 2:45:00 AM 18.6 65.48 0.147 7.2 95.91 8.09
8/18/2023 3:00:00 AM 18.6 65.48 0.146 7.21 95.94 8.06
8/18/2023 3:15:00 AM 18.59 65.462 0.146 7.19 96.67 8.06
8/18/2023 3:30:00 AM 18.57 65.426 0.146 7.2 96.66 8.06
8/18/2023 3:45:00 AM 18.53 65.354 0.145 7.2 96.85 8.06
8/18/2023 4:00:00 AM 18.5 65.3 0.145 7.2 97.01 8.07
8/18/2023 4:15:00 AM 18.45 65.21 0.145 7.2 96.66 8.09
8/18/2023 4:30:00 AM 18.31 64.958 0.145 7.19 95.62 8.15
8/18/2023 4:45:00 AM 18.22 64.796 0.146 7.19 95.46 8.18
8/18/2023 5:00:00 AM 18.16 64.688 0.145 7.19 96.17 8.2
8/18/2023 5:15:00 AM 17.95 64.31 0.146 7.19 94.84 8.31
8/18/2023 5:30:00 AM 17.85 64.13 0.146 7.2 94.41 8.35
8/18/2023 5:45:00 AM 17.87 64.166 0.147 7.17 94.83 8.34
8/18/2023 6:00:00 AM 17.91 64.238 0.147 7.17 94.89 8.33
8/18/2023 6:15:00 AM 17.93 64.274 0.147 7.16 94.53 8.3
8/18/2023 6:30:00 AM 17.95 64.31 0.147 7.17 94.94 8.26
8/18/2023 6:45:00 AM 17.97 64.346 0.147 7.19 95.23 8.23
8/18/2023 7:00:00 AM 17.98 64.364 0.147 7.18 95.67 8.21
8/18/2023 7:15:00 AM 17.98 64.364 0.147 7.16 95.22 8.22
8/18/2023 7:30:00 AM 17.99 64.382 0.147 7.17 95.4 8.23
8/18/2023 7:45:00 AM 18 64.4 0.146 7.18 95.02 8.26
8/18/2023 8:00:00 AM 18.02 64.436 0.146 7.18 95.67 8.28
8/18/2023 8:15:00 AM 18.02 64.436 0.146 7.17 95.55 8.29
8/18/2023 8:30:00 AM 18.05 64.49 0.146 7.17 95.53 8.33
8/18/2023 8:45:00 AM 18.08 64.544 0.145 7.18 95.83 8.35
8/18/2023 9:00:00 AM 18.09 64.562 0.146 7.19 96.25 8.37
8/18/2023 9:15:00 AM 18.12 64.616 0.146 7.2 96.15 8.42
8/18/2023 9:30:00 AM 18.15 64.67 0.146 7.17 96 8.46
8/18/2023 9:45:00 AM 18.22 64.796 0.144 7.19 96.13 8.56
8/18/2023 10:00:00 AM 18.3 64.94 0.145 7.19 96.56 8.63
8/18/2023 10:15:00 AM 18.41 65.138 0.144 7.18 96.8 8.67
8/18/2023 10:30:00 AM 18.5 65.3 0.144 7.19 97.33 8.75
8/18/2023 10:45:00 AM 18.58 65.444 0.144 7.17 97.72 8.74
8/18/2023 11:00:00 AM 18.63 65.534 0.144 7.17 97.79 8.8
8/18/2023 11:15:00 AM 18.76 65.768 0.144 7.17 96.93 8.89
8/18/2023 11:30:00 AM 18.94 66.092 0.144 7.17 97.67 8.92
8/18/2023 11:45:00 AM 19.11 66.398 0.144 7.16 97.35 9.01
8/18/2023 12:00:00 PM 19.2 66.56 0.145 7.16 97.59 9.02
8/18/2023 12:15:00 PM 19.24 66.632 0.145 7.15 98.28 9
8/18/2023 12:30:00 PM 19.31 66.758 0.145 7.15 98.52 9.03
8/18/2023 12:45:00 PM 19.46 67.028 0.145 7.15 98.74 9.05
8/18/2023 1:00:00 PM 19.47 67.046 0.145 7.14 98.9 9.08
8/18/2023 1:15:00 PM 19.54 67.172 0.145 7.14 98.72 9.12
8/18/2023 1:30:00 PM 19.64 67.352 0.145 7.14 99 9.07
8/18/2023 1:45:00 PM 19.72 67.496 0.145 7.16 99.26 9.14
8/18/2023 2:00:00 PM 19.84 67.712 0.145 7.19 98.44 9.21
8/18/2023 2:15:00 PM 19.9 67.82 0.144 7.19 98.76 9.22
8/18/2023 2:30:00 PM 20.01 68.018 0.145 7.19 98.86 9.25
8/18/2023 2:45:00 PM 20.08 68.144 0.145 7.2 98.42 9.26
8/18/2023 3:00:00 PM 20.17 68.306 0.143 7.2 98.27 9.26
8/18/2023 3:15:00 PM 20.24 68.432 0.143 7.2 98.77 9.29
8/18/2023 3:30:00 PM 20.26 68.468 0.143 7.22 98.85 9.24
8/18/2023 3:45:00 PM 20.26 68.468 0.143 7.2 99.01 9.25
8/18/2023 4:00:00 PM 20.27 68.486 0.142 7.2 99.14 9.18
8/18/2023 4:15:00 PM 20.12 68.216 0.142 7.22 98.75 9.09
8/18/2023 4:30:00 PM 19.98 67.964 0.142 7.21 98.73 9.04
8/18/2023 4:45:00 PM 19.89 67.802 0.142 7.22 98.53 9.06
8/18/2023 5:00:00 PM 19.85 67.73 0.142 7.21 98.75 9.04
8/18/2023 5:15:00 PM 19.73 67.514 0.142 7.21 98.35 8.98
8/18/2023 5:30:00 PM 19.61 67.298 0.142 7.21 98.05 8.97
8/18/2023 5:45:00 PM 19.5 67.1 0.141 7.22 98.21 8.95
8/18/2023 6:00:00 PM 19.42 66.956 0.141 7.2 97.64 8.95
8/18/2023 6:15:00 PM 19.31 66.758 0.141 7.21 97.68 8.87
8/18/2023 6:30:00 PM 19.16 66.488 0.142 7.21 97.55 8.8
8/18/2023 6:45:00 PM 19.02 66.236 0.141 7.21 97.43 8.76
8/18/2023 7:00:00 PM 18.9 66.02 0.141 7.23 97.43 8.72
8/18/2023 7:15:00 PM 18.8 65.84 0.141 7.21 97.38 8.67
8/18/2023 7:30:00 PM 18.7 65.66 0.14 7.21 97.62 8.62
8/18/2023 7:45:00 PM 18.62 65.516 0.14 7.2 97.51 8.57
8/18/2023 8:00:00 PM 18.53 65.354 0.14 7.2 97.04 8.54
8/18/2023 8:15:00 PM 18.44 65.192 0.141 7.21 96.91 8.49
8/18/2023 8:30:00 PM 18.35 65.03 0.14 7.21 96.6 8.46
8/18/2023 8:45:00 PM 18.27 64.886 0.14 7.2 96.47 8.43
8/18/2023 9:00:00 PM 18.19 64.742 0.142 7.2 96.29 8.41
8/18/2023 9:15:00 PM 18.11 64.598 0.141 7.2 96.05 8.39
8/18/2023 9:30:00 PM 18.05 64.49 0.142 7.2 95.83 8.38
8/18/2023 9:45:00 PM 18 64.4 0.141 7.19 95.57 8.37
8/18/2023 10:00:00 PM 17.96 64.328 0.141 7.19 95.33 8.35
8/18/2023 10:15:00 PM 17.92 64.256 0.141 7.2 95.28 8.36
8/18/2023 10:30:00 PM 17.88 64.184 0.14 7.19 94.98 8.36
8/18/2023 10:45:00 PM 17.85 64.13 0.139 7.18 95.2 8.35
8/18/2023 11:00:00 PM 17.82 64.076 0.139 7.17 95.25 8.36
8/18/2023 11:15:00 PM 17.8 64.04 0.14 7.14 95.47 8.35
8/18/2023 11:30:00 PM 17.78 64.004 0.14 7.15 95.62 8.35
8/18/2023 11:45:00 PM 17.74 63.932 0.139 7.12 95.68 8.34
8/19/2023 12:00:00 AM 17.71 63.878 0.139 7.12 95.8 8.33
8/19/2023 12:15:00 AM 17.66 63.788 0.139 7.11 96.03 8.34
8/19/2023 12:30:00 AM 17.62 63.716 0.139 7.11 96.3 8.34
8/19/2023 12:45:00 AM 17.59 63.662 0.14 7.12 96.59 8.34
8/19/2023 1:00:00 AM 17.56 63.608 0.14 7.11 96.63 8.34
8/19/2023 1:15:00 AM 17.54 63.572 0.139 7.11 96.7 8.34
8/19/2023 1:30:00 AM 17.51 63.518 0.14 7.11 96.79 8.33
8/19/2023 1:45:00 AM 17.46 63.428 0.14 7.13 97.06 8.34
8/19/2023 2:00:00 AM 17.41 63.338 0.14 7.1 96.75 8.35
8/19/2023 2:15:00 AM 17.37 63.266 0.14 7.12 97.26 8.35
8/19/2023 2:30:00 AM 17.33 63.194 0.14 7.12 97.5 8.35
8/19/2023 2:45:00 AM 17.28 63.104 0.14 7.11 97.2 8.34
8/19/2023 3:00:00 AM 17.22 62.996 0.141 7.11 97.24 8.36
8/19/2023 3:15:00 AM 17.18 62.924 0.141 7.1 97.38 8.37
8/19/2023 3:30:00 AM 17.16 62.888 0.14 7.11 97.11 8.38
8/19/2023 3:45:00 AM 17.13 62.834 0.14 7.12 97.03 8.37
8/19/2023 4:00:00 AM 17.08 62.744 0.141 7.12 97.02 8.38
8/19/2023 4:15:00 AM 17.03 62.654 0.141 7.1 97.21 8.38
8/19/2023 4:30:00 AM 16.97 62.546 0.141 7.1 97.8 8.37
8/19/2023 4:45:00 AM 16.91 62.438 0.142 7.11 96.89 8.4
8/19/2023 5:00:00 AM 16.85 62.33 0.142 7.11 97.16 8.41
8/19/2023 5:15:00 AM 16.79 62.222 0.142 7.11 96.9 8.42
8/19/2023 5:30:00 AM 16.72 62.096 0.143 7.1 97.14 8.42
8/19/2023 5:45:00 AM 16.66 61.988 0.143 7.1 96.72 8.43
8/19/2023 6:00:00 AM 16.59 61.862 0.143 7.1 96.78 8.44
8/19/2023 6:15:00 AM 16.53 61.754 0.143 7.1 96.52 8.46
8/19/2023 6:30:00 AM 16.46 61.628 0.144 7.09 96.51 8.47
8/19/2023 6:45:00 AM 16.4 61.52 0.144 7.09 96.56 8.49
8/19/2023 7:00:00 AM 16.35 61.43 0.144 7.09 96.53 8.52
8/19/2023 7:15:00 AM 16.3 61.34 0.144 7.1 96.59 8.54
8/19/2023 7:30:00 AM 16.27 61.286 0.144 7.09 96.67 8.59
8/19/2023 7:45:00 AM 16.24 61.232 0.144 7.11 95.87 8.66
8/19/2023 8:00:00 AM 16.23 61.214 0.144 7.09 94.53 8.72
8/19/2023 8:15:00 AM 16.23 61.214 0.145 7.1 100.23 8.79
8/19/2023 8:30:00 AM 16.26 61.268 0.145 7.1 101.27 8.88
8/19/2023 8:45:00 AM 16.31 61.358 0.146 7.12 99.26 8.97
8/19/2023 9:00:00 AM 16.37 61.466 0.146 7.1 98.34 9.06
8/19/2023 9:15:00 AM 16.45 61.61 0.146 7.11 98.02 9.13
8/19/2023 9:30:00 AM 16.56 61.808 0.147 7.13 98.17 9.2
8/19/2023 9:45:00 AM 16.69 62.042 0.147 7.12 97.01 9.3
8/19/2023 10:00:00 AM 16.83 62.294 0.147 7.12 96.6 9.38
8/19/2023 10:15:00 AM 17 62.6 0.146 7.15 96.01 9.46
8/19/2023 10:30:00 AM 17.19 62.942 0.147 7.13 96.26 9.55
8/19/2023 10:45:00 AM 17.38 63.284 0.147 7.14 96.23 9.61
8/19/2023 11:00:00 AM 17.58 63.644 0.147 7.14 98.94 9.68
8/19/2023 11:15:00 AM 17.75 63.95 0.147 7.14 96.24 9.68
8/19/2023 11:30:00 AM 17.9 64.22 0.147 7.13 96.72 9.7
8/19/2023 11:45:00 AM 18.13 64.634 0.147 7.12 96.59 9.78
8/19/2023 12:00:00 PM 18.38 65.084 0.147 7.11 96.96 9.81
8/19/2023 12:15:00 PM 18.6 65.48 0.147 7.14 97.14 9.84
8/19/2023 12:30:00 PM 18.71 65.67799 0.146 7.15 96.77 9.81
8/19/2023 12:45:00 PM 18.93 66.074 0.146 7.14 96.82 9.88
8/19/2023 1:00:00 PM 19.14 66.452 0.146 7.15 96.75 9.9
8/19/2023 1:15:00 PM 19.33 66.794 0.147 7.16 97.18 9.91
8/19/2023 1:30:00 PM 19.51 67.118 0.147 7.15 97.06 9.92
8/19/2023 1:45:00 PM 19.69 67.442 0.147 7.16 93.38 9.92
8/19/2023 2:00:00 PM 19.8 67.64 0.147 7.17 93.31 9.92
8/19/2023 2:15:00 PM 19.95 67.91 0.147 7.16 94.38 9.9
8/19/2023 2:30:00 PM 20.12 68.216 0.147 7.17 93.12 9.95
8/19/2023 2:45:00 PM 20.25 68.45 0.147 7.15 94.03 9.94
8/19/2023 3:00:00 PM 20.39 68.702 0.147 7.15 94.06 9.92
8/19/2023 3:15:00 PM 20.45 68.81 0.148 7.15 93.01 9.89
8/19/2023 3:30:00 PM 20.52 68.936 0.148 7.17 94.08 9.89
8/19/2023 3:45:00 PM 20.56 69.008 0.148 7.15 94.34 9.87
8/19/2023 4:00:00 PM 20.58 69.044 0.148 7.16 94.26 9.83
8/19/2023 4:15:00 PM 20.59 69.062 0.148 7.16 94.26 9.81
8/19/2023 4:30:00 PM 20.57 69.026 0.148 7.14 94.16 9.76
8/19/2023 4:45:00 PM 20.53 68.954 0.148 7.15 94.09 9.71
8/19/2023 5:00:00 PM 20.49 68.882 0.148 7.14 94.13 9.66
8/19/2023 5:15:00 PM 20.45 68.81 0.148 7.15 94.27 9.63
8/19/2023 5:30:00 PM 20.4 68.72 0.148 7.14 94.53 9.58
8/19/2023 5:45:00 PM 20.31 68.558 0.148 7.14 94.53 9.5
8/19/2023 6:00:00 PM 20.2 68.36 0.148 7.15 94.54 9.42
8/19/2023 6:15:00 PM 20.05 68.09 0.147 7.15 94.72 9.33
8/19/2023 6:30:00 PM 19.86 67.748 0.148 7.13 94.88 9.21
8/19/2023 6:45:00 PM 19.67 67.406 0.148 7.12 94.88 9.1
8/19/2023 7:00:00 PM 19.49 67.082 0.148 7.14 94.32 9.02
8/19/2023 7:15:00 PM 19.33 66.794 0.148 7.13 93.27 8.92
8/19/2023 7:30:00 PM 19.2 66.56 0.147 7.15 100.44 8.84
8/19/2023 7:45:00 PM 19.07 66.326 0.146 7.12 99.82 8.76
8/19/2023 8:00:00 PM 18.95 66.11 0.147 7.14 101.99 8.69
8/19/2023 8:15:00 PM 18.84 65.912 0.147 7.12 100.4 8.63
8/19/2023 8:30:00 PM 18.72 65.696 0.146 7.14 95.48 8.55
8/19/2023 8:45:00 PM 18.6 65.48 0.146 7.14 102.97 8.49
8/19/2023 9:00:00 PM 18.48 65.264 0.146 7.12 90.41 8.47
8/19/2023 9:15:00 PM 18.36 65.048 0.146 7.12 90.03 8.44
8/19/2023 9:30:00 PM 18.25 64.85 0.146 7.14 99.35 8.41
8/19/2023 9:45:00 PM 18.14 64.652 0.145 7.12 107.56 8.38
8/19/2023 10:00:00 PM 18.03 64.454 0.145 7.12 96.4 8.37
8/19/2023 10:15:00 PM 17.92 64.256 0.147 7.12 96.11 8.38
8/19/2023 10:30:00 PM 17.82 64.076 0.147 7.13 95.9 8.38
8/19/2023 10:45:00 PM 17.72 63.896 0.147 7.1 95.87 8.3
8/19/2023 11:00:00 PM 17.62 63.716 0.147 7.11 95.67 8.36
8/19/2023 11:15:00 PM 17.53 63.554 0.147 7.09 95.71 8.37
8/19/2023 11:30:00 PM 17.45 63.41 0.147 7.09 95.95 8.36
8/19/2023 11:45:00 PM 17.38 63.284 0.147 7.12 95.9 8.35
8/20/2023 12:00:00 AM 17.3 63.14 0.147 7.11 96.36 8.33
8/20/2023 12:15:00 AM 17.23 63.014 0.147 7.13 96.64 8.38
8/20/2023 12:30:00 AM 17.16 62.888 0.146 7.13 96.76 8.37
8/20/2023 12:45:00 AM 17.09 62.762 0.147 7.12 96.77 8.37
8/20/2023 1:00:00 AM 17.03 62.654 0.147 7.12 96.59 8.37
8/20/2023 1:15:00 AM 16.96 62.528 0.147 7.1 96.93 8.35
8/20/2023 1:30:00 AM 16.9 62.42 0.147 7.1 97.21 8.39
8/20/2023 1:45:00 AM 16.84 62.312 0.147 7.12 97.3 8.41
8/20/2023 2:00:00 AM 16.78 62.204 0.147 7.11 97.3 8.39
8/20/2023 2:15:00 AM 16.71 62.078 0.147 7.1 97.58 8.36
8/20/2023 2:30:00 AM 16.65 61.97 0.148 7.11 97.7 8.41
8/20/2023 2:45:00 AM 16.58 61.844 0.148 7.1 97.74 8.44
8/20/2023 3:00:00 AM 16.53 61.754 0.148 7.1 97.73 8.44
8/20/2023 3:15:00 AM 16.47 61.646 0.148 7.1 97.96 8.45
8/20/2023 3:30:00 AM 16.41 61.538 0.148 7.11 98.46 8.45
8/20/2023 3:45:00 AM 16.36 61.448 0.148 7.1 97.91 8.45
8/20/2023 4:00:00 AM 16.31 61.358 0.149 7.1 97.75 8.47
8/20/2023 4:15:00 AM 16.26 61.268 0.149 7.09 97.96 8.46
8/20/2023 4:30:00 AM 16.22 61.196 0.149 7.12 98.1 8.47
8/20/2023 4:45:00 AM 16.17 61.106 0.148 7.09 97.92 8.45
8/20/2023 5:00:00 AM 16.13 61.034 0.148 7.12 98.34 8.51
8/20/2023 5:15:00 AM 16.07 60.926 0.148 7.09 98.71 8.49
8/20/2023 5:30:00 AM 16.03 60.854 0.148 7.1 99.14 8.52
8/20/2023 5:45:00 AM 15.98 60.764 0.148 7.11 100.67 8.52
8/20/2023 6:00:00 AM 15.93 60.674 0.148 7.09 101.07 8.51
8/20/2023 6:15:00 AM 15.88 60.584 0.148 7.1 100.96 8.54
8/20/2023 6:30:00 AM 15.83 60.494 0.147 7.09 100.93 8.54
8/20/2023 6:45:00 AM 15.78 60.404 0.146 7.09 101.09 8.57
8/20/2023 7:00:00 AM 15.74 60.332 0.147 7.1 101.67 8.61
8/20/2023 7:15:00 AM 15.71 60.278 0.147 7.08 101.45 8.65
8/20/2023 7:30:00 AM 15.69 60.242 0.147 7.09 101.46 8.73
8/20/2023 7:45:00 AM 15.69 60.242 0.147 7.09 101.11 8.82
8/20/2023 8:00:00 AM 15.71 60.278 0.147 7.12 101.32 8.9
8/20/2023 8:15:00 AM 15.74 60.332 0.147 7.11 101.26 9.02
8/20/2023 8:30:00 AM 15.8 60.44 0.147 7.09 101.44 9.13
8/20/2023 8:45:00 AM 15.87 60.566 0.147 7.12 101.51 9.27
8/20/2023 9:00:00 AM 15.98 60.764 0.147 7.1 101.43 9.4
8/20/2023 9:15:00 AM 16.1 60.98 0.147 7.11 102.01 9.51
8/20/2023 9:30:00 AM 16.25 61.25 0.147 7.13 104.4 9.63
8/20/2023 9:45:00 AM 16.41 61.538 0.147 7.12 103.09 9.73
8/20/2023 10:00:00 AM 16.6 61.88 0.147 7.12 102.39 9.83
8/20/2023 10:15:00 AM 16.8 62.24 0.147 7.13 102.29 9.93
8/20/2023 10:30:00 AM 17.02 62.636 0.148 7.11 102.51 10
8/20/2023 10:45:00 AM 17.26 63.068 0.148 7.14 103.56 10.06
8/20/2023 11:00:00 AM 17.5 63.5 0.149 7.11 104.02 10.14
8/20/2023 11:15:00 AM 17.76 63.968 0.149 7.11 104.4 10.2
8/20/2023 11:30:00 AM 18.02 64.436 0.149 7.11 104.84 10.26
8/20/2023 11:45:00 AM 18.28 64.904 0.149 7.11 105.44 10.3
8/20/2023 12:00:00 PM 18.54 65.372 0.149 7.13 105.71 10.27
8/20/2023 12:15:00 PM 18.8 65.84 0.149 7.12 105.24 10.27
8/20/2023 12:30:00 PM 19.05 66.29 0.15 7.14 105.35 10.32
8/20/2023 12:45:00 PM 19.3 66.74 0.15 7.11 104.68 10.31
8/20/2023 1:00:00 PM 19.53 67.154 0.15 7.11 105.47 10.33
8/20/2023 1:15:00 PM 19.75 67.55 0.15 7.11 105.59 10.34
8/20/2023 1:30:00 PM 19.96 67.92799 0.151 7.11 106.43 10.35
8/20/2023 1:45:00 PM 20.17 68.306 0.15 7.1 104.04 10.36
8/20/2023 2:00:00 PM 20.36 68.648 0.151 7.1 95.31 10.38
8/20/2023 2:15:00 PM 20.55 68.99 0.151 7.09 92.45 10.39
8/20/2023 2:30:00 PM 20.71 69.278 0.151 7.08 93.02 10.35
8/20/2023 2:45:00 PM 20.88 69.584 0.151 7.09 93.24 10.26
8/20/2023 3:00:00 PM 21.02 69.836 0.151 7.06 90.1 10.31
8/20/2023 3:15:00 PM 21.15 70.07 0.152 7.07 89.55 10.25
8/20/2023 3:30:00 PM 21.24 70.232 0.152 7.06 90.14 10.15
8/20/2023 3:45:00 PM 21.34 70.412 0.153 7.06 91.44 10.13
8/20/2023 4:00:00 PM 21.41 70.538 0.152 7.08 91.34 10.16
8/20/2023 4:15:00 PM 21.44 70.592 0.153 7.07 91 10.1
8/20/2023 4:30:00 PM 21.41 70.538 0.152 7.06 93.49 10.05
8/20/2023 4:45:00 PM 21.38 70.484 0.152 7.06 92.64 9.88
8/20/2023 5:00:00 PM 21.38 70.484 0.153 7.08 89.69 9.94
8/20/2023 5:15:00 PM 21.34 70.412 0.152 7.06 88.93 9.89
8/20/2023 5:30:00 PM 21.3 70.34 0.154 7.07 89.59 9.75
8/20/2023 5:45:00 PM 21.22 70.196 0.153 7.08 90.1 9.68
8/20/2023 6:00:00 PM 21.1 69.98 0.154 7.06 86.02 9.47
8/20/2023 6:15:00 PM 20.96 69.728 0.155 7.05 88.02 9.42
8/20/2023 6:30:00 PM 20.78 69.404 0.155 7.06 85.45 9.34
8/20/2023 6:45:00 PM 20.59 69.062 0.155 7.07 85.92 9.05
8/20/2023 7:00:00 PM 20.39 68.702 0.154 7.06 86.48 8.95
8/20/2023 7:15:00 PM 20.23 68.414 0.154 7.09 86.52 8.87
8/20/2023 7:30:00 PM 20.11 68.198 0.154 7.08 91.08 8.72
8/20/2023 7:45:00 PM 20 68 0.154 7.07 87.02 8.68
8/20/2023 8:00:00 PM 19.89 67.802 0.152 7.09 87.24 8.61
8/20/2023 8:15:00 PM 19.79 67.622 0.152 7.06 91.99 8.38
8/20/2023 8:30:00 PM 19.67 67.406 0.152 7.06 87.83 8.31
8/20/2023 8:45:00 PM 19.56 67.208 0.153 7.07 88.45 8.25
8/20/2023 9:00:00 PM 19.45 67.01 0.152 7.09 88.79 8.19
8/20/2023 9:15:00 PM 19.34 66.812 0.152 7.06 88.67 7.7
8/20/2023 9:30:00 PM 19.22 66.596 0.152 7.07 88.63 8.03
8/20/2023 9:45:00 PM 19.11 66.398 0.153 7.09 91.13 8
8/20/2023 10:00:00 PM 19 66.2 0.152 7.06 91.15 8.08
8/20/2023 10:15:00 PM 18.89 66.002 0.151 7.11 88.95 8.1
8/20/2023 10:30:00 PM 18.78 65.804 0.151 7.11 89.17 8.09
8/20/2023 10:45:00 PM 18.67 65.606 0.151 7.11 87.97 8.13
8/20/2023 11:00:00 PM 18.57 65.426 0.151 7.13 87.86 8.01
8/20/2023 11:15:00 PM 18.47 65.246 0.149 7.13 89.1 8.12
8/20/2023 11:30:00 PM 18.37 65.066 0.149 7.13 86.49 8.1
8/20/2023 11:45:00 PM 18.28 64.904 0.15 7.15 86.51 8.12
8/21/2023 12:00:00 AM 18.19 64.742 0.149 7.15 86.46 8.11
8/21/2023 12:15:00 AM 18.12 64.616 0.149 7.15 86.78 8.06
8/21/2023 12:30:00 AM 18.04 64.472 0.148 7.15 89.7 8.1
8/21/2023 12:45:00 AM 17.98 64.364 0.148 7.15 86.14 8.03
8/21/2023 1:00:00 AM 17.92 64.256 0.149 7.15 86.46 8.08
8/21/2023 1:15:00 AM 17.87 64.166 0.148 7.16 85.49 8.12
8/21/2023 1:30:00 AM 17.82 64.076 0.147 7.17 85.34 8.08
8/21/2023 1:45:00 AM 17.77 63.986 0.147 7.17 84.87 8.08
8/21/2023 2:00:00 AM 17.73 63.914 0.147 7.16 90.01 8.02
8/21/2023 2:15:00 AM 17.68 63.824 0.146 7.16 84.55 8.03
8/21/2023 2:30:00 AM 17.64 63.752 0.146 7.16 84.04 8.04
8/21/2023 2:45:00 AM 17.6 63.68 0.146 7.17 84.25 8.13
8/21/2023 3:00:00 AM 17.57 63.626 0.146 7.15 84.63 8.04
8/21/2023 3:15:00 AM 17.53 63.554 0.146 7.17 83.56 8.08
8/21/2023 3:30:00 AM 17.5 63.5 0.146 7.17 82.56 7.88
8/21/2023 3:45:00 AM 17.46 63.428 0.147 7.14 83.34 8.01
8/21/2023 4:00:00 AM 17.43 63.374 0.146 7.15 82.94 7.97
8/21/2023 4:15:00 AM 17.4 63.32 0.146 7.16 85.69 8.07
8/21/2023 4:30:00 AM 17.37 63.266 0.147 7.14 90.63 8.11
8/21/2023 4:45:00 AM 17.34 63.212 0.146 7.14 85.82 8.03
8/21/2023 5:00:00 AM 17.31 63.158 0.146 7.15 86.21 8.11
8/21/2023 5:15:00 AM 17.29 63.122 0.146 7.13 85.92 8.13
8/21/2023 5:30:00 AM 17.27 63.086 0.146 7.13 86.44 8.12
8/21/2023 5:45:00 AM 17.25 63.05 0.146 7.15 86.79 8.13
8/21/2023 6:00:00 AM 17.23 63.014 0.146 7.13 88.17 8.12
8/21/2023 6:15:00 AM 17.21 62.978 0.146 7.13 87.36 8.13
8/21/2023 6:30:00 AM 17.19 62.942 0.147 7.14 87.06 7.74
8/21/2023 6:45:00 AM 17.17 62.906 0.146 7.1 87.12 8.12
8/21/2023 7:00:00 AM 17.15 62.87 0.147 7.1 87.66 8.12
8/21/2023 7:15:00 AM 17.14 62.852 0.146 7.11 87.3 8.24
8/21/2023 7:30:00 AM 17.15 62.87 0.147 7.11 87.2 8.25
8/21/2023 7:45:00 AM 17.16 62.888 0.146 7.12 87.23 8.36
8/21/2023 8:00:00 AM 17.2 62.96 0.147 7.15 86.99 8.5
8/21/2023 8:15:00 AM 17.29 63.122 0.147 7.14 86.84 8.77
8/21/2023 8:30:00 AM 17.4 63.32 0.146 7.13 86.41 9.03
8/21/2023 8:45:00 AM 17.51 63.518 0.146 7.12 85.12 9.05
8/21/2023 9:00:00 AM 17.6 63.68 0.146 7.11 86.02 9.14
8/21/2023 9:15:00 AM 17.68 63.824 0.146 7.1 85.91 9.32
8/21/2023 9:30:00 AM 17.79 64.022 0.147 7.12 86.27 9.43
8/21/2023 9:45:00 AM 17.92 64.256 0.148 7.08 86.79 9.61
8/21/2023 10:00:00 AM 18.09 64.562 0.148 7.1 89.26 9.87
8/21/2023 10:15:00 AM 18.27 64.886 0.147 7.1 89.51 9.88
8/21/2023 10:30:00 AM 18.47 65.246 0.147 7.11 89.29 10.04
8/21/2023 10:45:00 AM 18.62 65.516 0.148 7.11 88.75 10.02
8/21/2023 11:00:00 AM 18.76 65.768 0.148 7.11 91.06 10.14
8/21/2023 11:15:00 AM 18.92 66.056 0.146 7.1 93.41 10.09
8/21/2023 11:30:00 AM 19.12 66.416 0.147 7.1 102.03 10.49
8/21/2023 11:45:00 AM 19.35 66.83 0.147 7.11 103.21 10.28
8/21/2023 12:00:00 PM 19.56 67.208 0.147 7.1 103.87 10.48
8/21/2023 12:15:00 PM 19.75 67.55 0.147 7.11 104.01 10.52
8/21/2023 12:30:00 PM 20.02 68.036 0.147 7.11 104.18 10.66
8/21/2023 12:45:00 PM 20.28 68.504 0.147 7.09 104.22 10.62
8/21/2023 1:00:00 PM 20.48 68.864 0.147 7.1 103.05 10.65
8/21/2023 1:15:00 PM 20.66 69.188 0.148 7.1 101.97 10.61
8/21/2023 1:30:00 PM 20.82 69.476 0.147 7.08 97.41 10.52
8/21/2023 1:45:00 PM 20.99 69.782 0.148 7.09 102.68 10.57
8/21/2023 2:00:00 PM 21.15 70.07 0.148 7.11 103.42 10.51
8/21/2023 2:15:00 PM 21.39 70.502 0.149 7.09 102.08 10.62
8/21/2023 2:30:00 PM 21.65 70.97 0.149 7.09 101.33 10.67
8/21/2023 2:45:00 PM 21.84 71.312 0.15 7.09 101.05 10.59
8/21/2023 3:00:00 PM 21.97 71.546 0.15 7.07 95.13 10.55
8/21/2023 3:15:00 PM 22.05 71.69 0.149 7.08 94.88 10.5
8/21/2023 3:30:00 PM 22.18 71.924 0.15 7.09 93.29 10.52
8/21/2023 3:45:00 PM 22.27 72.086 0.15 7.07 92.71 10.51
8/21/2023 4:00:00 PM 22.26 72.068 0.151 7.08 91.55 10.33
8/21/2023 4:15:00 PM 22.37 72.266 0.15 7.07 90.23 10.37
8/21/2023 4:30:00 PM 22.45 72.41 0.15 7.06 86.34 10.2
8/21/2023 4:45:00 PM 22.46 72.42799 0.15 7.04 85.61 10.22
8/21/2023 5:00:00 PM 22.47 72.446 0.149 7.07 86.59 10.15
8/21/2023 5:15:00 PM 22.41 72.338 0.148 7.04 86.66 9.87
8/21/2023 5:30:00 PM 22.39 72.302 0.148 7.04 86.31 10.01
8/21/2023 5:45:00 PM 22.34 72.212 0.148 7.07 86.97 9.56
8/21/2023 6:00:00 PM 22.25 72.05 0.148 7.05 84.37 9.49
8/21/2023 6:15:00 PM 22.12 71.816 0.148 7.04 83.61 9.5
8/21/2023 6:30:00 PM 21.99 71.582 0.148 7.06 84.12 9.19
8/21/2023 6:45:00 PM 21.83 71.294 0.148 7.06 85.83 8.99
8/21/2023 7:00:00 PM 21.68 71.024 0.149 7.06 82.88 8.94
8/21/2023 7:15:00 PM 21.54 70.772 0.147 7.07 82.36 8.92
8/21/2023 7:30:00 PM 21.4 70.52 0.147 7.06 83.29 8.58
8/21/2023 7:45:00 PM 21.26 70.268 0.148 7.04 83.57 8.56
8/21/2023 8:00:00 PM 21.14 70.052 0.147 7.07 83.37 8.5
8/21/2023 8:15:00 PM 21.01 69.818 0.147 7.06 82.85 8.06
8/21/2023 8:30:00 PM 20.89 69.602 0.147 7.04 83.2 8.1
8/21/2023 8:45:00 PM 20.79 69.422 0.147 7.06 83.61 8.06
8/21/2023 9:00:00 PM 20.69 69.242 0.147 7.07 83.69 8.07
8/21/2023 9:15:00 PM 20.6 69.08 0.147 7.05 83.81 8.02
8/21/2023 9:30:00 PM 20.5 68.9 0.147 7.07 83.26 7.94
8/21/2023 9:45:00 PM 20.41 68.738 0.147 7.04 83.2 7.94
8/21/2023 10:00:00 PM 20.32 68.576 0.147 7.06 83.05 7.93
8/21/2023 10:15:00 PM 20.23 68.414 0.147 7.05 83.78 7.9
8/21/2023 10:30:00 PM 20.13 68.234 0.147 7.06 83.55 7.84
8/21/2023 10:45:00 PM 20.04 68.07201 0.147 7.05 82.74 7.86
8/21/2023 11:00:00 PM 19.94 67.892 0.147 7.08 81.8 7.81
8/21/2023 11:15:00 PM 19.84 67.712 0.147 7.09 81.9 7.81
8/21/2023 11:30:00 PM 19.73 67.514 0.147 7.1 80.53 7.8
8/21/2023 11:45:00 PM 19.63 67.334 0.147 7.09 80.24 7.82
8/22/2023 12:00:00 AM 19.53 67.154 0.147 7.08 80.9 7.74
8/22/2023 12:15:00 AM 19.43 66.974 0.147 7.09 79.48 7.76
8/22/2023 12:30:00 AM 19.34 66.812 0.147 7.1 79.39 7.78
8/22/2023 12:45:00 AM 19.24 66.632 0.149 7.08 78.85 7.75
8/22/2023 1:00:00 AM 19.15 66.47 0.149 7.11 79.47 7.78
8/22/2023 1:15:00 AM 19.07 66.326 0.149 7.12 78.3 7.61
8/22/2023 1:30:00 AM 19 66.2 0.148 7.11 78.07 7.73
8/22/2023 1:45:00 AM 18.93 66.074 0.149 7.09 77.89 7.71
8/22/2023 2:00:00 AM 18.87 65.966 0.149 7.12 77.35 7.77
8/22/2023 2:15:00 AM 18.81 65.858 0.149 7.11 76.97 7.72
8/22/2023 2:30:00 AM 18.76 65.768 0.149 7.11 76.67 7.73
8/22/2023 2:45:00 AM 18.71 65.67799 0.148 7.1 77.36 7.64
8/22/2023 3:00:00 AM 18.66 65.588 0.149 7.08 77.14 7.68
8/22/2023 3:15:00 AM 18.61 65.498 0.149 7.07 76.97 7.67
8/22/2023 3:30:00 AM 18.56 65.408 0.149 7.09 78.82 7.58
8/22/2023 3:45:00 AM 18.51 65.318 0.149 7.07 79.37 7.42
8/22/2023 4:00:00 AM 18.46 65.228 0.149 7.08 79.71 7.67
8/22/2023 4:15:00 AM 18.42 65.156 0.149 7.1 79.53 7.58
8/22/2023 4:30:00 AM 18.4 65.12 0.15 7.07 79.78 7.55
8/22/2023 4:45:00 AM 18.38 65.084 0.15 7.1 80.1 7.61
8/22/2023 5:00:00 AM 18.37 65.066 0.15 7.11 80.02 7.82
8/22/2023 5:15:00 AM 18.37 65.066 0.149 7.1 79.93 7.84
8/22/2023 5:30:00 AM 18.36 65.048 0.15 7.09 81.34 7.82
8/22/2023 5:45:00 AM 18.35 65.03 0.149 7.11 80.4 7.85
8/22/2023 6:00:00 AM 18.31 64.958 0.148 7.1 79.84 7.89
8/22/2023 6:15:00 AM 18.27 64.886 0.15 7.09 79.96 7.85
8/22/2023 6:30:00 AM 18.22 64.796 0.15 7.07 79.29 7.89
8/22/2023 6:45:00 AM 18.18 64.724 0.15 7.08 78.85 7.91
8/22/2023 7:00:00 AM 18.16 64.688 0.15 7.06 79.02 7.98
8/22/2023 7:15:00 AM 18.14 64.652 0.15 7.08 78.41 8.05
8/22/2023 7:30:00 AM 18.11 64.598 0.15 7.06 78.17 8.17
8/22/2023 7:45:00 AM 18.11 64.598 0.15 7.07 77.58 8
8/22/2023 8:00:00 AM 18.12 64.616 0.15 7.07 77.92 8.45
8/22/2023 8:15:00 AM 18.14 64.652 0.15 7.08 78.16 8.77
8/22/2023 8:30:00 AM 18.16 64.688 0.15 7.06 77.83 9.03
8/22/2023 8:45:00 AM 18.18 64.724 0.15 7.06 77.61 9.2
8/22/2023 9:00:00 AM 18.23 64.814 0.15 7.07 77.33 9.44
8/22/2023 9:15:00 AM 18.3 64.94 0.15 7.07 76.7 9.69
8/22/2023 9:30:00 AM 18.39 65.102 0.15 7.08 76.91 9.95
8/22/2023 9:45:00 AM 18.48 65.264 0.15 7.07 76.79 10.09
8/22/2023 10:00:00 AM 18.59 65.462 0.151 7.07 76.89 10.29
8/22/2023 10:15:00 AM 18.75 65.75 0.15 7.09 76.47 10.32
8/22/2023 10:30:00 AM 18.91 66.038 0.151 7.06 77.07 10.79
8/22/2023 10:45:00 AM 19.1 66.38 0.151 7.07 77.09 10.64
8/22/2023 11:00:00 AM 19.29 66.722 0.151 7.07 77.15 10.93
8/22/2023 11:15:00 AM 19.52 67.136 0.151 7.09 76.86 11.11
8/22/2023 11:30:00 AM 19.76 67.568 0.152 7.09 76.95 11.05
8/22/2023 11:45:00 AM 20 68 0.151 7.11 77.35 11.07
8/22/2023 12:00:00 PM 20.25 68.45 0.152 7.1 77.1 11.06
8/22/2023 12:15:00 PM 20.5 68.9 0.152 7.09 77.16 11.04
8/22/2023 12:30:00 PM 20.75 69.35 0.152 7.1 76.74 11.03
8/22/2023 12:45:00 PM 20.97 69.746 0.151 7.08 77 11.03
8/22/2023 1:00:00 PM 21.21 70.17799 0.151 7.09 76.73 11.05
8/22/2023 1:15:00 PM 21.44 70.592 0.153 7.08 76.74 11.1
8/22/2023 1:30:00 PM 21.66 70.988 0.153 7.09 76.92 11.1
8/22/2023 1:45:00 PM 21.82 71.276 0.152 7.09 76.83 11.09
8/22/2023 2:00:00 PM 22 71.6 0.153 7.08 76.19 11.04
8/22/2023 2:15:00 PM 22.13 71.834 0.152 7.09 76.08 10.95
8/22/2023 2:30:00 PM 22.19 71.942 0.151 7.09 76.84 11.01
8/22/2023 2:45:00 PM 22.32 72.176 0.151 7.09 76.75 11.04
8/22/2023 3:00:00 PM 22.45 72.41 0.151 7.08 76.38 11.01
8/22/2023 3:15:00 PM 22.55 72.59 0.151 7.07 76.4 10.97
8/22/2023 3:30:00 PM 22.64 72.752 0.151 7.09 75.8 10.9
8/22/2023 3:45:00 PM 22.71 72.878 0.151 7.07 75.91 10.9
8/22/2023 4:00:00 PM 22.73 72.914 0.151 7.08 75.86 10.81
8/22/2023 4:15:00 PM 22.72 72.896 0.151 7.07 75.89 10.69
8/22/2023 4:30:00 PM 22.64 72.752 0.151 7.07 76.02 10.61
8/22/2023 4:45:00 PM 22.62 72.716 0.151 7.07 75.71 10.54
8/22/2023 5:00:00 PM 22.57 72.626 0.153 7.07 75.62 10.47
8/22/2023 5:15:00 PM 22.44 72.392 0.153 7.06 75.53 10.26
8/22/2023 5:30:00 PM 22.31 72.158 0.153 7.07 75.53 10.17
8/22/2023 5:45:00 PM 22.12 71.816 0.153 7.06 75.18 9.94
8/22/2023 6:00:00 PM 21.94 71.492 0.152 7.07 75.32 9.83
8/22/2023 6:15:00 PM 21.78 71.204 0.152 7.07 75.12 9.74
8/22/2023 6:30:00 PM 21.57 70.826 0.152 7.08 75.15 9.54
8/22/2023 6:45:00 PM 21.34 70.412 0.152 7.06 75.18 9.32
8/22/2023 7:00:00 PM 21.11 69.998 0.152 7.08 75.53 9.11
8/22/2023 7:15:00 PM 20.89 69.602 0.152 7.07 75.06 8.91
8/22/2023 7:30:00 PM 20.7 69.26 0.152 7.07 74.81 8.75
8/22/2023 7:45:00 PM 20.53 68.954 0.152 7.08 74.91 8.64
8/22/2023 8:00:00 PM 20.38 68.684 0.152 7.08 74.94 8.48
8/22/2023 8:15:00 PM 20.24 68.432 0.152 7.07 74.55 8.37
8/22/2023 8:30:00 PM 20.1 68.18 0.152 7.09 74.76 8.26
8/22/2023 8:45:00 PM 19.97 67.946 0.151 7.09 74.85 8.2
8/22/2023 9:00:00 PM 19.85 67.73 0.151 7.09 74.47 8.12
8/22/2023 9:15:00 PM 19.73 67.514 0.151 7.08 74.5 8.07
8/22/2023 9:30:00 PM 19.62 67.316 0.152 7.08 74.61 8.01
8/22/2023 9:45:00 PM 19.51 67.118 0.151 7.09 74.82 7.96
8/22/2023 10:00:00 PM 19.39 66.902 0.151 7.09 74.83 7.94
8/22/2023 10:15:00 PM 19.29 66.722 0.151 7.1 74.88 7.91
8/22/2023 10:30:00 PM 19.18 66.524 0.152 7.08 75.02 7.88
8/22/2023 10:45:00 PM 19.06 66.308 0.152 7.08 75.03 7.88
8/22/2023 11:00:00 PM 18.95 66.11 0.152 7.09 74.98 7.88
8/22/2023 11:15:00 PM 18.84 65.912 0.152 7.09 75.07 7.86
8/22/2023 11:30:00 PM 18.72 65.696 0.152 7.09 74.87 7.86
8/22/2023 11:45:00 PM 18.6 65.48 0.152 7.09 74.83 7.86
8/23/2023 12:00:00 AM 18.48 65.264 0.152 7.08 74.68 7.86
8/23/2023 12:15:00 AM 18.35 65.03 0.152 7.1 74.54 7.85
8/23/2023 12:30:00 AM 18.23 64.814 0.152 7.09 74.73 7.87
8/23/2023 12:45:00 AM 18.11 64.598 0.152 7.08 74.94 7.9
8/23/2023 1:00:00 AM 17.98 64.364 0.152 7.08 75.13 7.91
8/23/2023 1:15:00 AM 17.87 64.166 0.152 7.09 74.89 7.91
8/23/2023 1:30:00 AM 17.76 63.968 0.152 7.08 74.97 7.93
8/23/2023 1:45:00 AM 17.65 63.77 0.152 7.07 74.85 7.94
8/23/2023 2:00:00 AM 17.55 63.59 0.151 7.07 75 7.94
8/23/2023 2:15:00 AM 17.45 63.41 0.151 7.07 75.05 7.96
8/23/2023 2:30:00 AM 17.35 63.23 0.15 7.09 75.09 7.98
8/23/2023 2:45:00 AM 17.27 63.086 0.152 7.06 75.09 7.99
8/23/2023 3:00:00 AM 17.19 62.942 0.15 7.06 74.99 7.99
8/23/2023 3:15:00 AM 17.12 62.816 0.152 7.03 74.85 8
8/23/2023 3:30:00 AM 17.06 62.708 0.152 7.02 75.03 8.01
8/23/2023 3:45:00 AM 16.99 62.582 0.152 7.02 75.27 8.02
8/23/2023 4:00:00 AM 16.92 62.456 0.152 7.04 75.06 8.02
8/23/2023 4:15:00 AM 16.85 62.33 0.152 7.03 74.93 8.03
8/23/2023 4:30:00 AM 16.79 62.222 0.152 7.03 74.96 8.04
8/23/2023 4:45:00 AM 16.73 62.114 0.152 7.05 75.01 8.05
8/23/2023 5:00:00 AM 16.67 62.006 0.152 7.03 74.78 8.05
8/23/2023 5:15:00 AM 16.6 61.88 0.153 7.04 74.75 8.06
8/23/2023 5:30:00 AM 16.55 61.79 0.153 7.05 74.74 8.08
8/23/2023 5:45:00 AM 16.5 61.7 0.153 7.05 75.08 8.05
8/23/2023 6:00:00 AM 16.45 61.61 0.151 7.04 74.95 8.09
8/23/2023 6:15:00 AM 16.4 61.52 0.152 7.05 74.99 8.08
8/23/2023 6:30:00 AM 16.37 61.466 0.152 7.05 75.19 8.07
8/23/2023 6:45:00 AM 16.35 61.43 0.153 7.04 75.25 8.11
8/23/2023 7:00:00 AM 16.34 61.412 0.153 7.05 74.88 8.17
8/23/2023 7:15:00 AM 16.32 61.376 0.153 7.05 75.33 8.21
8/23/2023 7:30:00 AM 16.3 61.34 0.153 7.05 75.51 8.28
8/23/2023 7:45:00 AM 16.29 61.322 0.152 7.06 75.53 8.67
8/23/2023 8:00:00 AM 16.33 61.394 0.151 7.04 75.8 8.53
8/23/2023 8:15:00 AM 16.33 61.394 0.151 7.05 75.84 8.71
8/23/2023 8:30:00 AM 16.38 61.484 0.152 7.04 76.13 8.97
8/23/2023 8:45:00 AM 16.45 61.61 0.153 7.06 76.36 9.03
8/23/2023 9:00:00 AM 16.52 61.736 0.153 7.04 76.37 9.21
8/23/2023 9:15:00 AM 16.61 61.898 0.153 7.06 76.47 9.5
8/23/2023 9:30:00 AM 16.71 62.078 0.153 7.06 76.42 9.57
8/23/2023 9:45:00 AM 16.81 62.258 0.154 7.07 76.93 9.7
8/23/2023 10:00:00 AM 16.92 62.456 0.152 7.06 76.88 9.88
8/23/2023 10:15:00 AM 17.01 62.618 0.152 7.07 77.15 9.9
8/23/2023 10:30:00 AM 17.15 62.87 0.153 7.07 77.46 10.28
8/23/2023 10:45:00 AM 17.4 63.32 0.153 7.05 77.84 10.98
8/23/2023 11:00:00 AM 17.58 63.644 0.154 7.06 77.94 10.48
8/23/2023 11:15:00 AM 17.7 63.86 0.152 7.07 78.93 10.79
8/23/2023 11:30:00 AM 17.9 64.22 0.153 7.07 79.21 11.54
8/23/2023 11:45:00 AM 18.22 64.796 0.154 7.07 79.3 11.2
8/23/2023 12:00:00 PM 18.33 64.994 0.154 7.08 79.23 10.87
8/23/2023 12:15:00 PM 18.36 65.048 0.154 7.08 79.18 10.59
8/23/2023 12:30:00 PM 18.35 65.03 0.154 7.08 79.16 10.36
8/23/2023 12:45:00 PM 18.35 65.03 0.153 7.08 79.47 10.31
8/23/2023 1:00:00 PM 18.29 64.922 0.154 7.07 79.29 9.99
8/23/2023 1:15:00 PM 18.21 64.778 0.154 7.08 79.41 9.89
8/23/2023 1:30:00 PM 18.16 64.688 0.154 7.07 79.35 9.77
8/23/2023 1:45:00 PM 18.13 64.634 0.154 7.07 79.57 9.59
8/23/2023 2:00:00 PM 18.06 64.508 0.154 7.08 79.58 9.42
8/23/2023 2:15:00 PM 18.01 64.418 0.154 7.07 79.67 9.33
8/23/2023 2:30:00 PM 17.95 64.31 0.154 7.07 79.63 9.22
8/23/2023 2:45:00 PM 17.96 64.328 0.154 7.06 79.92 9.53
8/23/2023 3:00:00 PM 18 64.4 0.153 7.06 80.13 9.38
8/23/2023 3:15:00 PM 17.9 64.22 0.153 7.05 80.31 9.33
8/23/2023 3:30:00 PM 17.82 64.076 0.153 7.05 80.44 9.45
8/23/2023 3:45:00 PM 17.81 64.058 0.151 7.07 80.53 9.71
8/23/2023 4:00:00 PM 17.85 64.13 0.152 7.08 80.75 9.67
8/23/2023 4:15:00 PM 17.88 64.184 0.152 7.06 80.82 9.84
8/23/2023 4:30:00 PM 17.92 64.256 0.152 7.07 80.66 9.91
8/23/2023 4:45:00 PM 17.96 64.328 0.152 7.06 80.86 9.94
8/23/2023 5:00:00 PM 17.98 64.364 0.151 7.08 81.06 9.96
8/23/2023 5:15:00 PM 17.98 64.364 0.151 7.06 80.93 10.02
8/23/2023 5:30:00 PM 17.98 64.364 0.151 7.07 80.88 9.99
8/23/2023 5:45:00 PM 17.97 64.346 0.152 7.07 80.87 9.92
8/23/2023 6:00:00 PM 17.94 64.292 0.151 7.06 80.91 9.78
8/23/2023 6:15:00 PM 17.91 64.238 0.151 7.06 80.9 9.56
8/23/2023 6:30:00 PM 17.88 64.184 0.151 7.07 80.98 9.43
8/23/2023 6:45:00 PM 17.85 64.13 0.151 7.07 81.16 9.31
8/23/2023 7:00:00 PM 17.8 64.04 0.152 7.08 81.4 9.13
8/23/2023 7:15:00 PM 17.75 63.95 0.152 7.06 81.41 9.15
8/23/2023 7:30:00 PM 17.69 63.842 0.152 7.06 81.81 8.95
8/23/2023 7:45:00 PM 17.63 63.734 0.152 7.08 81.63 8.86
8/23/2023 8:00:00 PM 17.57 63.626 0.152 7.11 81.41 8.74
8/23/2023 8:15:00 PM 17.52 63.536 0.152 7.08 81.2 8.36
8/23/2023 8:30:00 PM 17.48 63.464 0.152 7.09 81.41 8.35
8/23/2023 8:45:00 PM 17.43 63.374 0.152 7.11 81.44 8.29
8/23/2023 9:00:00 PM 17.39 63.302 0.152 7.09 81.35 8.18
8/23/2023 9:15:00 PM 17.35 63.23 0.152 7.08 81.09 8.14
8/23/2023 9:30:00 PM 17.31 63.158 0.152 7.1 80.89 7.91
8/23/2023 9:45:00 PM 17.27 63.086 0.153 7.08 80.82 7.9
8/23/2023 10:00:00 PM 17.24 63.032 0.153 7.08 80.7 7.82
8/23/2023 10:15:00 PM 17.21 62.978 0.153 7.09 80.68 7.79
8/23/2023 10:30:00 PM 17.18 62.924 0.153 7.06 80.72 7.92
8/23/2023 10:45:00 PM 17.15 62.87 0.152 7.08 80.63 7.91
8/23/2023 11:00:00 PM 17.12 62.816 0.153 7.08 80.62 7.79
8/23/2023 11:15:00 PM 17.09 62.762 0.153 7.07 80.76 7.88
8/23/2023 11:30:00 PM 17.05 62.69 0.153 7.07 80.88 7.77
8/23/2023 11:45:00 PM 17.03 62.654 0.153 7.05 80.98 7.79
8/24/2023 12:00:00 AM 17 62.6 0.153 7.05 81.15 7.77
8/24/2023 12:15:00 AM 16.98 62.564 0.153 7.06 81.02 7.81
8/24/2023 12:30:00 AM 16.96 62.528 0.152 7.06 81.3 7.61
8/24/2023 12:45:00 AM 16.93 62.474 0.154 7.05 80.54 7.7
8/24/2023 1:00:00 AM 16.9 62.42 0.153 7.06 80.69 7.77
8/24/2023 1:15:00 AM 16.87 62.366 0.154 7.06 80.41 7.67
8/24/2023 1:30:00 AM 16.85 62.33 0.153 7.05 80.29 7.68
8/24/2023 1:45:00 AM 16.83 62.294 0.154 7.04 80.08 7.68
8/24/2023 2:00:00 AM 16.82 62.276 0.153 7.06 79.69 7.69
8/24/2023 2:15:00 AM 16.8 62.24 0.154 7.05 79.89 7.77
8/24/2023 2:30:00 AM 16.79 62.222 0.154 7.05 80.15 7.78
8/24/2023 2:45:00 AM 16.78 62.204 0.154 7.06 80.03 7.81
8/24/2023 3:00:00 AM 16.77 62.186 0.153 7.06 79.9 7.63
8/24/2023 3:15:00 AM 16.75 62.15 0.154 7.07 79.85 7.79
8/24/2023 3:30:00 AM 16.74 62.132 0.154 7.08 79.45 7.72
8/24/2023 3:45:00 AM 16.72 62.096 0.154 7.08 79.07 7.78
8/24/2023 4:00:00 AM 16.71 62.078 0.153 7.07 79.25 7.8
8/24/2023 4:15:00 AM 16.69 62.042 0.153 7.06 79.31 7.84
8/24/2023 4:30:00 AM 16.68 62.024 0.153 7.05 79.21 7.7
8/24/2023 4:45:00 AM 16.67 62.006 0.154 7.06 79.14 7.78
8/24/2023 5:00:00 AM 16.66 61.988 0.154 7.05 79.36 7.71
8/24/2023 5:15:00 AM 16.64 61.952 0.154 7.05 79.11 7.65
8/24/2023 5:30:00 AM 16.62 61.916 0.154 7.03 80.27 7.78
8/24/2023 5:45:00 AM 16.62 61.916 0.154 7.05 79.01 7.89
8/24/2023 6:00:00 AM 16.61 61.898 0.154 7.01 78.97 7.93
8/24/2023 6:15:00 AM 16.6 61.88 0.154 7.03 79.03 7.93
8/24/2023 6:30:00 AM 16.6 61.88 0.154 7.04 79.33 7.78
8/24/2023 6:45:00 AM 16.6 61.88 0.154 7.03 79.65 7.97
8/24/2023 7:00:00 AM 16.6 61.88 0.155 7.02 79.04 7.98
8/24/2023 7:15:00 AM 16.59 61.862 0.154 7.04 78.75 7.95
8/24/2023 7:30:00 AM 16.6 61.88 0.155 7.03 79.12 7.94
8/24/2023 7:45:00 AM 16.62 61.916 0.155 7.04 79.29 8.01
8/24/2023 8:00:00 AM 16.65 61.97 0.155 7.05 81.43 8.15
8/24/2023 8:15:00 AM 16.68 62.024 0.155 7.06 80.58 8.25
8/24/2023 8:30:00 AM 16.71 62.078 0.155 7.05 80.51 8.25
8/24/2023 8:45:00 AM 16.78 62.204 0.155 7.06 79.94 8.64
8/24/2023 9:00:00 AM 16.85 62.33 0.154 7.06 79.88 8.9
8/24/2023 9:15:00 AM 16.92 62.456 0.155 7.05 79.89 9.1
8/24/2023 9:30:00 AM 17 62.6 0.154 7.07 78.9 9.14
8/24/2023 9:45:00 AM 17.08 62.744 0.156 7.04 78.64 9.27
8/24/2023 10:00:00 AM 17.2 62.96 0.155 7.06 79.01 9.67
8/24/2023 10:15:00 AM 17.33 63.194 0.154 7.06 78.6 10.28
8/24/2023 10:30:00 AM 17.53 63.554 0.154 7.06 78 10.83
8/24/2023 10:45:00 AM 17.71 63.878 0.154 7.06 78.83 10.36
8/24/2023 11:00:00 AM 17.84 64.112 0.154 7.07 77.03 10.68
8/24/2023 11:15:00 AM 17.99 64.382 0.154 7.04 77.21 10.96
8/24/2023 11:30:00 AM 18.08 64.544 0.154 7.05 76.99 10.76
8/24/2023 11:45:00 AM 18.36 65.048 0.154 7.06 77.32 11.15
8/24/2023 12:00:00 PM 18.54 65.372 0.154 7.03 77.38 10.5
8/24/2023 12:15:00 PM 18.6 65.48 0.154 7.05 77.3 11
8/24/2023 12:30:00 PM 18.78 65.804 0.157 7.06 77.28 11.21
8/24/2023 12:45:00 PM 19.03 66.254 0.157 7.04 77.42 11.12
8/24/2023 1:00:00 PM 19.2 66.56 0.158 7.03 77.45 11.74
8/24/2023 1:15:00 PM 19.52 67.136 0.159 7.03 75.53 11.54
8/24/2023 1:30:00 PM 19.77 67.586 0.159 7.02 71.71 11.67
8/24/2023 1:45:00 PM 19.96 67.92799 0.16 7.02 72.43 11.49
8/24/2023 2:00:00 PM 20.04 68.07201 0.16 7.03 71.84 11.43
8/24/2023 2:15:00 PM 20.17 68.306 0.16 7.01 72.73 11.54
8/24/2023 2:30:00 PM 20.16 68.288 0.16 7.02 72.01 11.21
8/24/2023 2:45:00 PM 20.12 68.216 0.162 7.03 72.46 10.84
8/24/2023 3:00:00 PM 20.09 68.162 0.16 7.01 72.76 10.67
8/24/2023 3:15:00 PM 20.06 68.108 0.158 7.01 72.97 10.65
8/24/2023 3:30:00 PM 20.03 68.054 0.177 7.03 72.99 10.69
8/24/2023 3:45:00 PM 20.11 68.198 0.181 7.02 73.36 10.8
8/24/2023 4:00:00 PM 20.09 68.162 0.179 7 72.91 10.79
8/24/2023 4:15:00 PM 20 68 0.179 7.01 71.93 10.44
8/24/2023 4:30:00 PM 20 68 0.178 7 72.43 10.64
8/24/2023 4:45:00 PM 20.09 68.162 0.178 7.01 72.76 10.82
8/24/2023 5:00:00 PM 20.07 68.126 0.178 7 72.65 10.67
8/24/2023 5:15:00 PM 20 68 0.179 7.01 72.08 10.42
8/24/2023 5:30:00 PM 20.03 68.054 0.177 7.02 71.68 10.51
8/24/2023 5:45:00 PM 19.97 67.946 0.176 7.01 72.1 10.16
8/24/2023 6:00:00 PM 19.89 67.802 0.174 6.99 72.39 10
8/24/2023 6:15:00 PM 19.85 67.73 0.166 6.99 72.09 9.86
8/24/2023 6:30:00 PM 19.8 67.64 0.166 7 72.06 9.8
8/24/2023 6:45:00 PM 19.74 67.532 0.17 7 71.6 9.61
8/24/2023 7:00:00 PM 19.7 67.46 0.175 7.01 70.87 9.51
8/24/2023 7:15:00 PM 19.62 67.316 0.172 7.02 69.61 9.34
8/24/2023 7:30:00 PM 19.55 67.19 0.169 7.03 69.98 9.27
8/24/2023 7:45:00 PM 19.45 67.01 0.164 7.03 68.07 8.81
8/24/2023 8:00:00 PM 19.37 66.866 0.16 7.02 68.41 8.72
8/24/2023 8:15:00 PM 19.26 66.668 0.158 7.01 68.21 8.66
8/24/2023 8:30:00 PM 19.16 66.488 0.158 7 67.52 8.5
8/24/2023 8:45:00 PM 19.07 66.326 0.158 7 67.6 8.39
8/24/2023 9:00:00 PM 18.99 66.182 0.157 7.02 67.7 8.3
8/24/2023 9:15:00 PM 18.9 66.02 0.157 7 67.91 8.29
8/24/2023 9:30:00 PM 18.82 65.876 0.157 7 67.48 8.18
8/24/2023 9:45:00 PM 18.75 65.75 0.157 7.01 67.49 7.99
8/24/2023 10:00:00 PM 18.67 65.606 0.156 7.01 67.55 8.07
8/24/2023 10:15:00 PM 18.6 65.48 0.156 7 67.71 8.07
8/24/2023 10:30:00 PM 18.52 65.336 0.156 7.01 67.89 7.99
8/24/2023 10:45:00 PM 18.45 65.21 0.156 7 67.24 7.9
8/24/2023 11:00:00 PM 18.39 65.102 0.156 7 67.41 7.95
8/24/2023 11:15:00 PM 18.35 65.03 0.155 7.03 67 7.92
8/24/2023 11:30:00 PM 18.32 64.976 0.155 7.02 66.03 7.84
8/24/2023 11:45:00 PM 18.28 64.904 0.155 7.03 66.83 7.86
8/25/2023 12:00:00 AM 18.24 64.832 0.155 7.05 66.04 7.88
8/25/2023 12:15:00 AM 18.21 64.778 0.155 7.03 65.74 7.82
8/25/2023 12:30:00 AM 18.17 64.706 0.154 7.04 66.01 7.85
8/25/2023 12:45:00 AM 18.12 64.616 0.154 7.06 66.03 7.87
8/25/2023 1:00:00 AM 18.09 64.562 0.154 7.03 66.52 7.88
8/25/2023 1:15:00 AM 18.08 64.544 0.154 7.03 66.29 7.85
8/25/2023 1:30:00 AM 18.07 64.526 0.154 7.04 66.22 7.78
8/25/2023 1:45:00 AM 18.07 64.526 0.154 7.04 66.22 7.79
8/25/2023 2:00:00 AM 18.06 64.508 0.154 7.05 66.31 7.78
8/25/2023 2:15:00 AM 18.06 64.508 0.154 7.03 66.34 7.67
8/25/2023 2:30:00 AM 18.07 64.526 0.154 7.04 66.05 7.81
8/25/2023 2:45:00 AM 18.1 64.58 0.154 7.03 66.14 7.81
8/25/2023 3:00:00 AM 18.3 64.94 0.154 7.04 65.79 8.03
8/25/2023 3:15:00 AM 19.07 66.326 0.154 6.99 66.24 7.95
8/25/2023 3:30:00 AM 18.57 65.426 0.152 7.01 66.86 8.01
8/25/2023 3:45:00 AM 18.65 65.57 0.151 7 66.41 7.99
8/25/2023 4:00:00 AM 18.7 65.66 0.152 7 65.94 7.77
8/25/2023 4:15:00 AM 18.68 65.624 0.161 7.02 65.71 7.78
8/25/2023 4:30:00 AM 18.66 65.588 0.162 7.03 65.88 7.68
8/25/2023 4:45:00 AM 18.64 65.552 0.159 7.04 65.97 7.76
8/25/2023 5:00:00 AM 18.59 65.462 0.158 7.03 66.18 7.76
8/25/2023 5:15:00 AM 18.51 65.318 0.16 7.05 65.74 7.65
8/25/2023 5:30:00 AM 18.43 65.174 0.164 7.03 65.67 7.67
8/25/2023 5:45:00 AM 18.35 65.03 0.167 7.04 65.47 7.64
8/25/2023 6:00:00 AM 18.29 64.922 0.16 7.05 65.3 7.73
8/25/2023 6:15:00 AM 18.23 64.814 0.165 7.03 65.52 7.73
8/25/2023 6:30:00 AM 18.17 64.706 0.171 7.02 65.69 7.75
8/25/2023 6:45:00 AM 18.09 64.562 0.168 7.05 64.79 7.77
8/25/2023 7:00:00 AM 18.02 64.436 0.169 7 65.02 7.8
8/25/2023 7:15:00 AM 17.99 64.382 0.171 7.04 64.76 7.86
8/25/2023 7:30:00 AM 17.93 64.274 0.171 7.05 64.67 8
8/25/2023 7:45:00 AM 17.83 64.094 0.178 7.03 64.65 8.17
8/25/2023 8:00:00 AM 17.83 64.094 0.177 7.04 64.81 8.17
8/25/2023 8:15:00 AM 17.92 64.256 0.172 7.05 64.75 8.34
8/25/2023 8:30:00 AM 18.02 64.436 0.176 7.02 64.85 8.41
8/25/2023 8:45:00 AM 18.14 64.652 0.177 7.03 63.96 8.54
8/25/2023 9:00:00 AM 18.27 64.886 0.173 7.05 63.92 8.67
8/25/2023 9:15:00 AM 18.39 65.102 0.172 7.04 64.14 8.83
8/25/2023 9:30:00 AM 18.56 65.408 0.172 7.03 64.08 8.9
8/25/2023 9:45:00 AM 18.63 65.534 0.171 7.05 63.43 8.9
8/25/2023 10:00:00 AM 18.79 65.82201 0.171 7.05 63 9.07
8/25/2023 10:15:00 AM 18.94 66.092 0.162 7.04 62.81 9.2
8/25/2023 10:30:00 AM 19.1 66.38 0.161 7.04 62.9 9.4
8/25/2023 10:45:00 AM 19.34 66.812 0.161 7.03 62.66 9.74
8/25/2023 11:00:00 AM 19.6 67.28 0.159 7.05 62.49 9.86
8/25/2023 11:15:00 AM 19.87 67.766 0.158 7.06 62.42 10.11
8/25/2023 11:30:00 AM 20.07 68.126 0.157 7.04 63.02 10.19
8/25/2023 11:45:00 AM 20.26 68.468 0.156 7.05 63.12 10.03
8/25/2023 12:00:00 PM 20.37 68.666 0.156 7.03 62.87 10.1
8/25/2023 12:15:00 PM 20.52 68.936 0.156 7.03 62.81 10.06
8/25/2023 12:30:00 PM 20.57 69.026 0.157 7.02 62.46 9.95
8/25/2023 12:45:00 PM 20.6 69.08 0.156 7.02 62.69 9.99
8/25/2023 1:00:00 PM 20.74 69.332 0.156 7.05 62.56 10.04
8/25/2023 1:15:00 PM 20.71 69.278 0.155 7.03 63.08 9.85
8/25/2023 1:30:00 PM 20.67 69.206 0.154 7.02 62.9 9.77
8/25/2023 1:45:00 PM 20.59 69.062 0.154 7.04 63 9.64
8/25/2023 2:00:00 PM 20.53 68.954 0.154 7.02 63.21 9.65
8/25/2023 2:15:00 PM 20.55 68.99 0.153 7.04 63.21 9.85
8/25/2023 2:30:00 PM 20.6 69.08 0.149 7.01 63.14 9.89
8/25/2023 2:45:00 PM 20.66 69.188 0.149 7.02 63.47 9.88
8/25/2023 3:00:00 PM 20.63 69.134 0.148 7.02 63.33 9.88
8/25/2023 3:15:00 PM 20.72 69.296 0.148 7.03 63.33 9.99
8/25/2023 3:30:00 PM 21 69.8 0.148 7.02 62.7 10.17
8/25/2023 3:45:00 PM 21.23 70.214 0.148 7.02 62.8 10.23
8/25/2023 4:00:00 PM 21.32 70.376 0.148 7.01 62.26 10.07
8/25/2023 4:15:00 PM 21.24 70.232 0.148 7.02 62.24 9.87
8/25/2023 4:30:00 PM 21.26 70.268 0.148 7.01 62.43 9.88
8/25/2023 4:45:00 PM 21.35 70.43 0.147 7.02 62.25 9.93
8/25/2023 5:00:00 PM 21.43 70.574 0.147 7.02 62.1 9.97
8/25/2023 5:15:00 PM 21.52 70.736 0.147 7.03 61.71 9.96
8/25/2023 5:30:00 PM 21.45 70.61 0.144 7.01 61.7 9.64
8/25/2023 5:45:00 PM 21.41 70.538 0.147 7.02 62.49 9.58
8/25/2023 6:00:00 PM 21.27 70.286 0.144 7.03 62.06 9.36
8/25/2023 6:15:00 PM 21.15 70.07 0.145 7.01 62.32 9.16
8/25/2023 6:30:00 PM 21.06 69.908 0.145 7.03 62.43 9.05
8/25/2023 6:45:00 PM 20.92 69.656 0.145 7.17 62.42 8.81
8/25/2023 7:00:00 PM 20.8 69.44 0.144 7.04 63.35 8.66
8/25/2023 7:15:00 PM 20.69 69.242 0.144 7.12 61.9 8.53
8/25/2023 7:30:00 PM 20.59 69.062 0.144 7.02 57.25 8.4
8/25/2023 7:45:00 PM 20.49 68.882 0.143 7.02 58.52 8.29
8/25/2023 8:00:00 PM 20.42 68.756 0.143 7.03 58.43 8.16
8/25/2023 8:15:00 PM 20.35 68.63 0.143 7.02 58.73 8.09
8/25/2023 8:30:00 PM 20.29 68.522 0.142 7.03 59 7.99
8/25/2023 8:45:00 PM 20.24 68.432 0.141 7.03 58.41 7.96
8/25/2023 9:00:00 PM 20.2 68.36 0.141 7.01 56.88 7.91
8/25/2023 9:15:00 PM 20.18 68.324 0.14 7 56.55 7.88
8/25/2023 9:30:00 PM 20.16 68.288 0.14 7.11 56.57 7.82
8/25/2023 9:45:00 PM 20.14 68.252 0.14 7.02 56.57 7.81
8/25/2023 10:00:00 PM 20.12 68.216 0.14 7 56.53 7.79
8/25/2023 10:15:00 PM 20.1 68.18 0.139 7.02 56.32 7.77
8/25/2023 10:30:00 PM 20.07 68.126 0.139 7 56.64 7.75
8/25/2023 10:45:00 PM 20.05 68.09 0.139 7.03 56.59 7.74
8/25/2023 11:00:00 PM 20.03 68.054 0.139 7.01 56.66 7.7
8/25/2023 11:15:00 PM 20 68 0.139 7.03 56.92 7.71
8/25/2023 11:30:00 PM 19.96 67.92799 0.139 7.04 57.06 7.69
8/25/2023 11:45:00 PM 19.92 67.856 0.139 7.05 56.9 7.7
8/26/2023 12:00:00 AM 19.88 67.784 0.138 7.04 57.1 7.7
8/26/2023 12:15:00 AM 19.85 67.73 0.138 7.03 56.98 7.67
8/26/2023 12:30:00 AM 19.83 67.694 0.138 7.05 57.08 7.69
8/26/2023 12:45:00 AM 19.8 67.64 0.138 7.04 56.96 7.67
8/26/2023 1:00:00 AM 19.78 67.604 0.138 7.02 56.65 7.66
8/26/2023 1:15:00 AM 19.75 67.55 0.139 7.05 55.92 7.67
8/26/2023 1:30:00 AM 19.73 67.514 0.139 7.04 56.35 7.64
8/26/2023 1:45:00 AM 19.69 67.442 0.138 7.04 56.04 7.64
8/26/2023 2:00:00 AM 19.65 67.37 0.138 7.06 57.78 7.63
8/26/2023 2:15:00 AM 19.6 67.28 0.138 7.04 57.6 7.64
8/26/2023 2:30:00 AM 19.56 67.208 0.138 7.06 57.42 7.61
8/26/2023 2:45:00 AM 19.51 67.118 0.138 7.09 57.87 7.63
8/26/2023 3:00:00 AM 19.49 67.082 0.138 7.07 58.73 7.64
8/26/2023 3:15:00 AM 19.46 67.028 0.138 7.05 59.78 7.62
8/26/2023 3:30:00 AM 19.43 66.974 0.139 7.02 59.27 7.62
8/26/2023 3:45:00 AM 19.41 66.938 0.139 7.04 59.15 7.64
8/26/2023 4:00:00 AM 19.4 66.92 0.139 7.01 59.31 7.63
8/26/2023 4:15:00 AM 19.38 66.884 0.139 7.06 59.21 7.62
8/26/2023 4:30:00 AM 19.37 66.866 0.139 7.04 58.7 7.61
8/26/2023 4:45:00 AM 19.36 66.848 0.139 7.02 58.35 7.62
8/26/2023 5:00:00 AM 19.36 66.848 0.139 7.04 58.51 7.61
8/26/2023 5:15:00 AM 19.34 66.812 0.139 7.04 58.98 7.61
8/26/2023 5:30:00 AM 19.33 66.794 0.139 7.06 58.79 7.6
8/26/2023 5:45:00 AM 19.32 66.776 0.139 7.05 59.14 7.6
8/26/2023 6:00:00 AM 19.31 66.758 0.139 7.03 58.58 7.62
8/26/2023 6:15:00 AM 19.3 66.74 0.139 7.01 58.66 7.6
8/26/2023 6:30:00 AM 19.28 66.704 0.139 7.04 58.64 7.59
8/26/2023 6:45:00 AM 19.27 66.686 0.139 7.01 58.68 7.58
8/26/2023 7:00:00 AM 19.26 66.668 0.14 7.02 58.45 7.6
8/26/2023 7:15:00 AM 19.25 66.65 0.14 7.04 58.19 7.67
8/26/2023 7:30:00 AM 19.24 66.632 0.14 7.09 58.19 7.7
8/26/2023 7:45:00 AM 19.25 66.65 0.14 7.04 58.05 7.83
8/26/2023 8:00:00 AM 19.26 66.668 0.14 7.06 58.16 7.91
8/26/2023 8:15:00 AM 19.28 66.704 0.14 7.05 58.02 7.99
8/26/2023 8:30:00 AM 19.29 66.722 0.14 7.05 58.74 8.06
8/26/2023 8:45:00 AM 19.33 66.794 0.14 7.05 58.76 8.46
8/26/2023 9:00:00 AM 19.42 66.956 0.14 7.04 59.2 9
8/26/2023 9:15:00 AM 19.51 67.118 0.141 7.03 59.85 9.29
8/26/2023 9:30:00 AM 19.64 67.352 0.141 7.06 60.37 9.04
8/26/2023 9:45:00 AM 19.72 67.496 0.141 7.05 60.17 9.67
8/26/2023 10:00:00 AM 19.82 67.676 0.141 7.03 60.9 9.62
8/26/2023 10:15:00 AM 20 68 0.141 7.03 61.03 9.6
8/26/2023 10:30:00 AM 20.13 68.234 0.142 7.03 61.09 9.71
8/26/2023 10:45:00 AM 20.25 68.45 0.142 7.04 61.35 9.95
8/26/2023 11:00:00 AM 20.34 68.612 0.142 7.01 62.16 10.57
8/26/2023 11:15:00 AM 20.56 69.008 0.143 7.04 61.24 10.07
8/26/2023 11:30:00 AM 20.84 69.512 0.143 7 60.26 10.27
8/26/2023 11:45:00 AM 21.08 69.944 0.144 7.02 60.45 10.27
8/26/2023 12:00:00 PM 21.26 70.268 0.144 7.02 59.58 10.62
8/26/2023 12:15:00 PM 21.57 70.826 0.145 7.05 61.03 10.84
8/26/2023 12:30:00 PM 21.78 71.204 0.145 7.06 61.11 10.78
8/26/2023 12:45:00 PM 21.92 71.456 0.145 7.05 62.57 10.69
8/26/2023 1:00:00 PM 22.15 71.87 0.145 7.02 62.65 10.96
8/26/2023 1:15:00 PM 22.32 72.176 0.146 7.03 64.44 10.75
8/26/2023 1:30:00 PM 22.5 72.5 0.146 7 64.33 10.86
8/26/2023 1:45:00 PM 22.86 73.148 0.147 7.04 65.46 11.06
8/26/2023 2:00:00 PM 23.11 73.598 0.147 7.05 63.34 10.96
8/26/2023 2:15:00 PM 23.29 73.922 0.147 7.11 62.75 10.88
8/26/2023 2:30:00 PM 23.4 74.12 0.147 7.12 61.27 10.94
8/26/2023 2:45:00 PM 23.48 74.264 0.148 7.14 61.41 10.86
8/26/2023 3:00:00 PM 23.43 74.174 0.148 7.14 60.67 10.74
8/26/2023 3:15:00 PM 23.57 74.426 0.148 7.13 60.61 10.48
8/26/2023 3:30:00 PM 23.67 74.606 0.148 7.13 60.18 10.78
8/26/2023 3:45:00 PM 23.65 74.57 0.148 7.08 58.28 10.37
8/26/2023 4:00:00 PM 23.67 74.606 0.148 7.11 57.53 10.58
8/26/2023 4:15:00 PM 23.82 74.876 0.149 7.1 57.32 10.67
8/26/2023 4:30:00 PM 23.93 75.074 0.149 7.07 57.61 10.56
8/26/2023 4:45:00 PM 23.92 75.056 0.149 7.07 58.12 10.41
8/26/2023 5:00:00 PM 23.91 75.038 0.149 7.06 58.25 10.29
8/26/2023 5:15:00 PM 23.85 74.93 0.149 7.08 57.3 10.16
8/26/2023 5:30:00 PM 23.7 74.66 0.149 7.08 60.1 9.75
8/26/2023 5:45:00 PM 23.59 74.462 0.149 7.1 60.52 9.8
8/26/2023 6:00:00 PM 23.44 74.192 0.149 7.09 62.05 9.33
8/26/2023 6:15:00 PM 23.28 73.904 0.149 7.08 62.87 8.85
8/26/2023 6:30:00 PM 23.07 73.526 0.149 7.12 61.13 9.15
8/26/2023 6:45:00 PM 22.84 73.112 0.149 7.07 60.19 8.12
8/26/2023 7:00:00 PM 22.63 72.734 0.149 7.07 60.64 8.64
8/26/2023 7:15:00 PM 22.43 72.374 0.148 7.09 60.36 8.62
8/26/2023 7:30:00 PM 22.24 72.032 0.148 7.05 60.49 8.23
8/26/2023 7:45:00 PM 22.07 71.726 0.148 7.04 59.1 8.02
8/26/2023 8:00:00 PM 21.92 71.456 0.148 7.02 59.47 7.83
8/26/2023 8:15:00 PM 21.77 71.186 0.148 7.02 56.93 7.7
8/26/2023 8:30:00 PM 21.63 70.934 0.148 7.01 58.1 7.75
8/26/2023 8:45:00 PM 21.49 70.682 0.148 7.06 57.89 7.52
8/26/2023 9:00:00 PM 21.37 70.466 0.147 6.99 58.56 7.4
8/26/2023 9:15:00 PM 21.25 70.25 0.148 6.99 60.31 7.3
8/26/2023 9:30:00 PM 21.13 70.034 0.148 6.95 61.96 7.2
8/26/2023 9:45:00 PM 21.02 69.836 0.148 6.96 59.8 7.2
8/26/2023 10:00:00 PM 20.91 69.638 0.148 6.97 60 7.31
8/26/2023 10:15:00 PM 20.79 69.422 0.148 6.97 61.18 7.21
8/26/2023 10:30:00 PM 20.69 69.242 0.148 6.93 59.57 7.2
8/26/2023 10:45:00 PM 20.59 69.062 0.148 6.95 60.52 7.17
8/26/2023 11:00:00 PM 20.47 68.846 0.148 6.97 56.83 7.18
8/26/2023 11:15:00 PM 20.36 68.648 0.148 6.96 55.56 7.19
8/26/2023 11:30:00 PM 20.25 68.45 0.148 6.94 56.29 7.25
8/26/2023 11:45:00 PM 20.13 68.234 0.148 6.96 56.44 7.25
8/27/2023 12:00:00 AM 20.01 68.018 0.148 6.96 56.61 7.25
8/27/2023 12:15:00 AM 19.89 67.802 0.148 6.97 58.03 7.22
8/27/2023 12:30:00 AM 19.78 67.604 0.148 6.95 58.1 7.24
8/27/2023 12:45:00 AM 19.67 67.406 0.149 6.95 59.63 7.27
8/27/2023 1:00:00 AM 19.57 67.226 0.148 6.94 57.03 7.27
8/27/2023 1:15:00 AM 19.48 67.064 0.149 6.94 57.47 7.29
8/27/2023 1:30:00 AM 19.39 66.902 0.149 6.94 57.67 7.33
8/27/2023 1:45:00 AM 19.3 66.74 0.149 6.95 57.74 7.38
8/27/2023 2:00:00 AM 19.21 66.578 0.149 6.93 57.55 7.28
8/27/2023 2:15:00 AM 19.13 66.434 0.149 6.95 57.04 7.36
8/27/2023 2:30:00 AM 19.07 66.326 0.149 6.94 57.98 7.28
8/27/2023 2:45:00 AM 19 66.2 0.148 6.93 57.29 7.36
8/27/2023 3:00:00 AM 18.93 66.074 0.149 6.93 55.38 7.4
8/27/2023 3:15:00 AM 18.86 65.948 0.148 6.94 53.4 7.44
8/27/2023 3:30:00 AM 18.8 65.84 0.148 6.9 53.17 7.41
8/27/2023 3:45:00 AM 18.74 65.732 0.148 6.91 52.95 7.44
8/27/2023 4:00:00 AM 18.68 65.624 0.149 6.88 52.04 7.42
8/27/2023 4:15:00 AM 18.61 65.498 0.148 6.86 52.96 7.44
8/27/2023 4:30:00 AM 18.55 65.39 0.148 6.87 52.85 7.5
8/27/2023 4:45:00 AM 18.49 65.282 0.148 6.84 52.26 7.46
8/27/2023 5:00:00 AM 18.44 65.192 0.148 6.86 52.1 7.49
8/27/2023 5:15:00 AM 18.38 65.084 0.148 6.85 52.06 7.43
8/27/2023 5:30:00 AM 18.33 64.994 0.148 6.86 51.95 7.49
8/27/2023 5:45:00 AM 18.28 64.904 0.148 6.85 50.42 7.47
8/27/2023 6:00:00 AM 18.23 64.814 0.148 6.86 50.94 7.49
8/27/2023 6:15:00 AM 18.18 64.724 0.148 6.82 49.62 7.53
8/27/2023 6:30:00 AM 18.13 64.634 0.147 6.83 50.09 7.51
8/27/2023 6:45:00 AM 18.08 64.544 0.147 6.86 50.53 7.55
8/27/2023 7:00:00 AM 18.04 64.472 0.147 6.85 50.44 7.63
8/27/2023 7:15:00 AM 18.02 64.436 0.148 6.83 49.89 7.75
8/27/2023 7:30:00 AM 18.01 64.418 0.148 6.84 50 7.83
8/27/2023 7:45:00 AM 18.01 64.418 0.148 6.86 48.77 7.9
8/27/2023 8:00:00 AM 18.04 64.472 0.148 6.86 48.73 8.02
8/27/2023 8:15:00 AM 18.07 64.526 0.148 6.83 48.77 8.11
8/27/2023 8:30:00 AM 18.1 64.58 0.148 6.84 49.02 8.14
8/27/2023 8:45:00 AM 18.14 64.652 0.148 6.85 50.68 8.29
8/27/2023 9:00:00 AM 18.19 64.742 0.148 6.83 50.73 8.51
8/27/2023 9:15:00 AM 18.26 64.868 0.148 6.82 49.73 8.71
8/27/2023 9:30:00 AM 18.33 64.994 0.148 6.81 49.55 8.94
8/27/2023 9:45:00 AM 18.43 65.174 0.148 6.81 49.29 9.51
8/27/2023 10:00:00 AM 18.55 65.39 0.148 6.83 49.57 9.52
8/27/2023 10:15:00 AM 18.74 65.732 0.149 6.82 49.31 10.36
8/27/2023 10:30:00 AM 18.93 66.074 0.149 6.83 48.49 9.89
8/27/2023 10:45:00 AM 19.04 66.272 0.149 6.83 48.61 9.99
8/27/2023 11:00:00 AM 19.15 66.47 0.149 6.83 48.88 10.27
8/27/2023 11:15:00 AM 19.23 66.614 0.15 6.84 48.98 10.19
8/27/2023 11:30:00 AM 19.29 66.722 0.15 6.84 49.47 10.18
8/27/2023 11:45:00 AM 19.4 66.92 0.15 6.85 51.24 10.89
8/27/2023 12:00:00 PM 19.82 67.676 0.15 6.84 50.44 11.17
8/27/2023 12:15:00 PM 20.13 68.234 0.15 6.83 52.77 10.9
8/27/2023 12:30:00 PM 20.28 68.504 0.15 6.86 53.1 10.87
8/27/2023 12:45:00 PM 20.3 68.54 0.15 6.86 50.12 10.71
8/27/2023 1:00:00 PM 20.44 68.792 0.15 6.86 50.62 11.09
8/27/2023 1:15:00 PM 20.84 69.512 0.15 6.86 50.22 11.04
8/27/2023 1:30:00 PM 20.9 69.62 0.15 6.87 51.33 11
8/27/2023 1:45:00 PM 21.23 70.214 0.15 6.85 50.27 11.21
8/27/2023 2:00:00 PM 21.62 70.916 0.15 6.85 48.21 11.36
8/27/2023 2:15:00 PM 21.74 71.132 0.15 6.84 47.36 10.94
8/27/2023 2:30:00 PM 21.87 71.366 0.15 6.84 47.21 11.16
8/27/2023 2:45:00 PM 22.1 71.78 0.15 6.84 47.79 11.05
8/27/2023 3:00:00 PM 22.05 71.69 0.15 6.83 48.45 10.96
8/27/2023 3:15:00 PM 22.18 71.924 0.149 6.84 47.91 11
8/27/2023 3:30:00 PM 22.12 71.816 0.149 6.85 47.45 10.45
8/27/2023 3:45:00 PM 22.13 71.834 0.148 6.83 47.24 10.57
8/27/2023 4:00:00 PM 22.22 71.996 0.148 6.85 47.17 10.7
8/27/2023 4:15:00 PM 22.23 72.014 0.148 6.82 46.93 10.58
8/27/2023 4:30:00 PM 22.24 72.032 0.147 6.84 46.91 10.46
8/27/2023 4:45:00 PM 22.28 72.104 0.148 6.83 47.36 10.49
8/27/2023 5:00:00 PM 22.3 72.14 0.147 6.86 47.12 10.38
8/27/2023 5:15:00 PM 22.26 72.068 0.147 6.86 46.84 10.39
8/27/2023 5:30:00 PM 22.31 72.158 0.147 6.86 46.23 10.45
8/27/2023 5:45:00 PM 22.3 72.14 0.147 6.92 46.23 10.27
8/27/2023 6:00:00 PM 22.2 71.96 0.147 6.89 46.96 10.11
8/27/2023 6:15:00 PM 22.1 71.78 0.146 6.95 47.04 9.91
8/27/2023 6:30:00 PM 21.95 71.51 0.146 6.95 46.53 9.68
8/27/2023 6:45:00 PM 21.74 71.132 0.146 6.95 46.79 9.35
8/27/2023 7:00:00 PM 21.53 70.754 0.146 6.98 46.65 9.05
8/27/2023 7:15:00 PM 21.33 70.394 0.146 6.98 46.3 8.84
8/27/2023 7:30:00 PM 21.18 70.124 0.145 6.95 46.5 8.65
8/27/2023 7:45:00 PM 21.04 69.872 0.146 6.95 46.36 8.47
8/27/2023 8:00:00 PM 20.89 69.602 0.145 6.93 46.74 8.28
8/27/2023 8:15:00 PM 20.78 69.404 0.145 6.93 48.93 8.15
8/27/2023 8:30:00 PM 20.66 69.188 0.145 6.89 48.61 8.02
8/27/2023 8:45:00 PM 20.53 68.954 0.145 6.92 48.02 7.91
8/27/2023 9:00:00 PM 20.42 68.756 0.145 6.89 48.63 7.79
8/27/2023 9:15:00 PM 20.3 68.54 0.145 6.89 48.47 7.63
8/27/2023 9:30:00 PM 20.19 68.342 0.145 6.91 48.17 7.63
8/27/2023 9:45:00 PM 20.09 68.162 0.145 6.9 48.05 7.59
8/27/2023 10:00:00 PM 20 68 0.144 6.87 49.1 7.55
8/27/2023 10:15:00 PM 19.92 67.856 0.144 6.87 49.84 7.5
8/27/2023 10:30:00 PM 19.84 67.712 0.145 6.84 49.04 7.42
8/27/2023 10:45:00 PM 19.77 67.586 0.145 6.84 49.04 7.39
8/27/2023 11:00:00 PM 19.7 67.46 0.145 6.82 48.78 7.35
8/27/2023 11:15:00 PM 19.63 67.334 0.145 6.83 50.82 7.42
8/27/2023 11:30:00 PM 19.57 67.226 0.146 6.84 50.6 7.38
8/27/2023 11:45:00 PM 19.52 67.136 0.146 6.82 52.46 7.33
8/28/2023 12:00:00 AM 19.46 67.028 0.146 6.8 61.06 7.31
8/28/2023 12:15:00 AM 19.4 66.92 0.147 6.83 65.14 7.35
8/28/2023 12:30:00 AM 19.35 66.83 0.148 6.81 58.65 7.32
8/28/2023 12:45:00 AM 19.28 66.704 0.148 6.83 58.75 7.38
8/28/2023 1:00:00 AM 19.21 66.578 0.148 6.86 55.2 7.3
8/28/2023 1:15:00 AM 19.14 66.452 0.148 6.86 55.03 7.37
8/28/2023 1:30:00 AM 19.08 66.344 0.148 6.89 53.56 7.33
8/28/2023 1:45:00 AM 19.01 66.218 0.147 6.84 54.48 7.24
8/28/2023 2:00:00 AM 18.92 66.056 0.147 6.83 54.61 7.28
8/28/2023 2:15:00 AM 18.84 65.912 0.147 6.77 51.59 7.39
8/28/2023 2:30:00 AM 18.76 65.768 0.146 6.75 52.19 7.39
8/28/2023 2:45:00 AM 18.68 65.624 0.146 6.77 51.68 7.44
8/28/2023 3:00:00 AM 18.61 65.498 0.146 6.69 51.83 7.45
8/28/2023 3:15:00 AM 18.54 65.372 0.146 6.7 52.53 7.43
8/28/2023 3:30:00 AM 18.47 65.246 0.146 6.69 52.18 7.43
8/28/2023 3:45:00 AM 18.4 65.12 0.145 6.69 51.51 7.47
8/28/2023 4:00:00 AM 18.35 65.03 0.146 6.7 52.93 7.43
8/28/2023 4:15:00 AM 18.3 64.94 0.146 6.71 52.93 7.47
8/28/2023 4:30:00 AM 18.27 64.886 0.147 6.69 51.96 7.48
8/28/2023 4:45:00 AM 18.22 64.796 0.147 6.71 52.87 7.47
8/28/2023 5:00:00 AM 18.19 64.742 0.147 6.7 51.65 7.49
8/28/2023 5:15:00 AM 18.15 64.67 0.148 6.72 50.09 7.48
8/28/2023 5:30:00 AM 18.13 64.634 0.148 6.72 51.25 7.47
8/28/2023 5:45:00 AM 18.09 64.562 0.148 6.74 53.31 7.5
8/28/2023 6:00:00 AM 18.05 64.49 0.148 6.73 54.69 7.48
8/28/2023 6:15:00 AM 18.01 64.418 0.148 6.76 53.99 7.47
8/28/2023 6:30:00 AM 17.99 64.382 0.148 6.77 51.44 7.46
8/28/2023 6:45:00 AM 17.97 64.346 0.148 6.76 51.48 7.49
8/28/2023 7:00:00 AM 17.97 64.346 0.148 6.79 51.39 7.5
8/28/2023 7:15:00 AM 17.97 64.346 0.148 6.81 50.38 7.6
8/28/2023 7:30:00 AM 17.97 64.346 0.148 6.78 50.4 7.72
8/28/2023 7:45:00 AM 17.99 64.382 0.148 6.79 50.58 7.92
8/28/2023 8:00:00 AM 18.06 64.508 0.148 6.78 50.81 8.44
8/28/2023 8:15:00 AM 18.15 64.67 0.148 6.81 51.51 8.45
8/28/2023 8:30:00 AM 18.2 64.76 0.148 6.82 49.92 9.22
8/28/2023 8:45:00 AM 18.3 64.94 0.148 6.87 46.1 8.78
8/28/2023 9:00:00 AM 18.36 65.048 0.148 6.89 44.14 8.82
8/28/2023 9:15:00 AM 18.43 65.174 0.148 6.95 44.29 9.05
8/28/2023 9:30:00 AM 18.49 65.282 0.148 6.99 44.06 8.88
8/28/2023 9:45:00 AM 18.54 65.372 0.148 7.03 48.13 7.94
8/28/2023 10:00:00 AM 18.64 65.552 0.148 7.09 48.99 9.56
8/28/2023 10:15:00 AM 18.78 65.804 0.148 7.12 51.15 9.21
8/28/2023 10:30:00 AM 18.89 66.002 0.148 7.15 49.04 9.14
8/28/2023 10:45:00 AM 19.01 66.218 0.148 7.18 49.57 9.11
8/28/2023 11:00:00 AM 19.13 66.434 0.148 7.23 49.49 9.22
8/28/2023 11:15:00 AM 19.25 66.65 0.148 7.23 51.02 9.52
8/28/2023 11:30:00 AM 19.36 66.848 0.148 7.3 55.49 8.36
8/28/2023 11:45:00 AM 19.47 67.046 0.148 7.31 57.1 10.03
8/28/2023 12:00:00 PM 19.73 67.514 0.148 7.35 68.4 10.11
8/28/2023 12:15:00 PM 19.95 67.91 0.148 7.4 65.48 10.46
8/28/2023 12:30:00 PM 20.21 68.378 0.148 7.47 53.56 10.41
8/28/2023 12:45:00 PM 20.39 68.702 0.148 7.52 58.27 10.7
8/28/2023 1:00:00 PM 20.54 68.972 0.149 7.54 58.85 10.81
8/28/2023 1:15:00 PM 20.57 69.026 0.149 7.5 59.41 10.29
8/28/2023 1:30:00 PM 20.68 69.224 0.149 7.57 60.83 10.26
8/28/2023 1:45:00 PM 20.93 69.674 0.149 7.62 57.26 10.25
8/28/2023 2:00:00 PM 21.01 69.818 0.149 7.64 55.57 10.09
8/28/2023 2:15:00 PM 21.27 70.286 0.149 7.64 53.15 10.76
8/28/2023 2:30:00 PM 21.33 70.394 0.149 7.56 57.05 10.73
8/28/2023 2:45:00 PM 21.31 70.358 0.149 7.51 55.07 10.48
8/28/2023 3:00:00 PM 21.48 70.664 0.149 7.5 52.88 10.86
8/28/2023 3:15:00 PM 21.64 70.952 0.148 7.46 53.43 10.76
8/28/2023 3:30:00 PM 21.63 70.934 0.149 7.43 56.36 10.64
8/28/2023 3:45:00 PM 21.67 71.006 0.149 7.3 57.13 10.68
8/28/2023 4:00:00 PM 21.91 71.438 0.149 7.13 57.86 10.71
8/28/2023 4:15:00 PM 22 71.6 0.149 7.08 52.23 10.58
8/28/2023 4:30:00 PM 21.92 71.456 0.149 7.04 51.82 10.44
8/28/2023 4:45:00 PM 21.89 71.402 0.149 6.99 53.99 10.37
8/28/2023 5:00:00 PM 21.83 71.294 0.149 6.95 56.46 9.72
8/28/2023 5:15:00 PM 21.73 71.114 0.149 6.93 55.99 9.88
8/28/2023 5:30:00 PM 21.65 70.97 0.149 6.91 54.05 9.55
8/28/2023 5:45:00 PM 21.55 70.79 0.149 6.89 54 9.7
8/28/2023 6:00:00 PM 21.42 70.556 0.149 6.85 57.45 9.55
8/28/2023 6:15:00 PM 21.32 70.376 0.149 6.84 58.2 9.39
8/28/2023 6:30:00 PM 21.23 70.214 0.149 6.83 61.14 9.29
8/28/2023 6:45:00 PM 21.12 70.016 0.149 6.82 59.15 9.17
8/28/2023 7:00:00 PM 21.01 69.818 0.149 6.82 59.78 8.6
8/28/2023 7:15:00 PM 20.91 69.638 0.149 6.81 57.98 8.18
8/28/2023 7:30:00 PM 20.79 69.422 0.149 6.79 58.38 8.52
8/28/2023 7:45:00 PM 20.67 69.206 0.149 6.8 57 8.27
8/28/2023 8:00:00 PM 20.55 68.99 0.149 6.79 56.71 7.95
8/28/2023 8:15:00 PM 20.44 68.792 0.149 6.79 57.67 7.94
8/28/2023 8:30:00 PM 20.31 68.558 0.149 6.79 56.92 7.75
8/28/2023 8:45:00 PM 20.2 68.36 0.149 6.79 58.96 7.58
8/28/2023 9:00:00 PM 20.1 68.18 0.149 6.78 59.54 7.85
8/28/2023 9:15:00 PM 19.99 67.982 0.149 6.77 58.8 7.67
8/28/2023 9:30:00 PM 19.89 67.802 0.149 6.77 58.76 7.45
8/28/2023 9:45:00 PM 19.79 67.622 0.149 6.79 58.5 7.62
8/28/2023 10:00:00 PM 19.69 67.442 0.149 6.76 57.56 7.53
8/28/2023 10:15:00 PM 19.59 67.262 0.149 6.73 57.53 7.49
8/28/2023 10:30:00 PM 19.51 67.118 0.149 6.73 57.83 7.33
8/28/2023 10:45:00 PM 19.42 66.956 0.149 6.72 57.93 7.32
8/28/2023 11:00:00 PM 19.34 66.812 0.149 6.7 58.8 7.37
8/28/2023 11:15:00 PM 19.26 66.668 0.148 6.73 58.13 7.28
8/28/2023 11:30:00 PM 19.19 66.542 0.148 6.73 57.84 7.37
8/28/2023 11:45:00 PM 19.11 66.398 0.148 6.73 56.93 7.34
8/29/2023 12:00:00 AM 19.04 66.272 0.148 6.73 56.54 7.27
8/29/2023 12:15:00 AM 18.98 66.164 0.148 6.71 55.83 7.28
8/29/2023 12:30:00 AM 18.93 66.074 0.148 6.72 55.95 7.33
8/29/2023 12:45:00 AM 18.9 66.02 0.148 6.73 59.29 7.42
8/29/2023 1:00:00 AM 18.86 65.948 0.149 6.72 59.78 7.43
8/29/2023 1:15:00 AM 18.81 65.858 0.149 6.75 59.5 7.41
8/29/2023 1:30:00 AM 18.75 65.75 0.148 6.76 58.63 7.42
8/29/2023 1:45:00 AM 18.69 65.642 0.148 6.77 58.54 7.43
8/29/2023 2:00:00 AM 18.63 65.534 0.148 6.78 58.39 7.29
8/29/2023 2:15:00 AM 18.57 65.426 0.148 6.78 58.87 7.41
8/29/2023 2:30:00 AM 18.51 65.318 0.148 6.77 59.67 7.41
8/29/2023 2:45:00 AM 18.44 65.192 0.148 6.77 59.46 7.44
8/29/2023 3:00:00 AM 18.38 65.084 0.148 6.77 61.21 7.42
8/29/2023 3:15:00 AM 18.33 64.994 0.148 6.75 58.05 7.47
8/29/2023 3:30:00 AM 18.3 64.94 0.148 6.75 57.98 7.43
8/29/2023 3:45:00 AM 18.26 64.868 0.148 6.72 57.37 7.45
8/29/2023 4:00:00 AM 18.22 64.796 0.148 6.73 57.92 7.45
8/29/2023 4:15:00 AM 18.2 64.76 0.148 6.74 59.66 7.4
8/29/2023 4:30:00 AM 18.18 64.724 0.148 6.72 60.8 7.4
8/29/2023 4:45:00 AM 18.15 64.67 0.148 6.73 61.29 7.45
8/29/2023 5:00:00 AM 18.13 64.634 0.149 6.73 61.68 7.43
8/29/2023 5:15:00 AM 18.1 64.58 0.148 6.7 62.82 7.47
8/29/2023 5:30:00 AM 18.08 64.544 0.148 6.72 63.06 7.45
8/29/2023 5:45:00 AM 18.05 64.49 0.149 6.73 66.46 7.46
8/29/2023 6:00:00 AM 18.01 64.418 0.149 6.69 81.64 7.54
8/29/2023 6:15:00 AM 17.96 64.328 0.148 6.71 61.67 7.46
8/29/2023 6:30:00 AM 17.91 64.238 0.148 6.76 63.43 7.42
8/29/2023 6:45:00 AM 17.88 64.184 0.149 6.75 63.48 7.47
8/29/2023 7:00:00 AM 17.86 64.148 0.149 6.73 69.17 7.51
8/29/2023 7:15:00 AM 17.86 64.148 0.149 6.78 70.85 7.57
8/29/2023 7:30:00 AM 17.87 64.166 0.149 6.81 70.01 7.54
8/29/2023 7:45:00 AM 17.86 64.148 0.149 6.81 74.17 7.89
8/29/2023 8:00:00 AM 17.89 64.202 0.149 6.82 76.82 7.95
8/29/2023 8:15:00 AM 17.95 64.31 0.149 6.84 74.91 8.29
8/29/2023 8:30:00 AM 18 64.4 0.149 6.89 63.83 8.48
8/29/2023 8:45:00 AM 18.09 64.562 0.149 6.85 67.15 8.86
8/29/2023 9:00:00 AM 18.18 64.724 0.149 6.81 73.18 8.64
8/29/2023 9:15:00 AM 18.26 64.868 0.149 6.84 65.67 8.49
8/29/2023 9:30:00 AM 18.34 65.012 0.149 6.83 65.66 8.68
8/29/2023 9:45:00 AM 18.42 65.156 0.149 6.9 59.1 8.9
8/29/2023 10:00:00 AM 18.51 65.318 0.149 6.88 65.48 9.07
8/29/2023 10:15:00 AM 18.63 65.534 0.148 6.92 67.46 9.33
8/29/2023 10:30:00 AM 18.74 65.732 0.145 6.98 60.08 9.05
8/29/2023 10:45:00 AM 18.84 65.912 0.143 6.95 61.95 8.86
8/29/2023 11:00:00 AM 18.9 66.02 0.142 6.94 63.97 8.16
8/29/2023 11:15:00 AM 18.94 66.092 0.141 6.97 62.63 9.13
8/29/2023 11:30:00 AM 19.02 66.236 0.142 7 59.39 9.15
8/29/2023 11:45:00 AM 19.1 66.38 0.141 7 53.39 9.04
8/29/2023 12:00:00 PM 19.17 66.506 0.141 7.04 52.61 8.7
8/29/2023 12:15:00 PM 19.25 66.65 0.14 7.06 47.23 8.28
8/29/2023 12:30:00 PM 19.42 66.956 0.14 7.08 48.67 9.61
8/29/2023 12:45:00 PM 19.58 67.244 0.14 7.13 50.55 9.83
8/29/2023 1:00:00 PM 19.64 67.352 0.139 7.11 55.42 8.92
8/29/2023 1:15:00 PM 19.77 67.586 0.139 7.25 57.12 9.35
8/29/2023 1:30:00 PM 19.87 67.766 0.14 7.34 61.89 9.98
8/29/2023 1:45:00 PM 20.06 68.108 0.141 7.36 62.42 10.33
8/29/2023 2:00:00 PM 20.22 68.396 0.141 7.43 65.79 10.53
8/29/2023 2:15:00 PM 20.43 68.774 0.141 7.45 68.94 10.59
8/29/2023 2:30:00 PM 20.71 69.278 0.141 7.49 66.75 10.88
8/29/2023 2:45:00 PM 20.88 69.584 0.141 7.53 74.9 10.95
8/29/2023 3:00:00 PM 21.05 69.89 0.141 7.52 107.53 11.14
8/29/2023 3:15:00 PM 21.22 70.196 0.141 7.48 101.66 11.14
8/29/2023 3:30:00 PM 21.3 70.34 0.141 7.55 96.49 11.12
8/29/2023 3:45:00 PM 21.38 70.484 0.14 7.61 99.07 11.03
8/29/2023 4:00:00 PM 21.45 70.61 0.138 7.61 90.88 11.03
8/29/2023 4:15:00 PM 21.6 70.88 0.138 7.62 85.03 11.02
8/29/2023 4:30:00 PM 21.71 71.078 0.138 7.62 86.95 11.01
8/29/2023 4:45:00 PM 21.77 71.186 0.139 7.64 88.16 10.85
8/29/2023 5:00:00 PM 21.74 71.132 0.139 7.61 83.32 10.66
8/29/2023 5:15:00 PM 21.68 71.024 0.139 7.6 77.21 10.42
8/29/2023 5:30:00 PM 21.6 70.88 0.139 7.6 72.18 10.25
8/29/2023 5:45:00 PM 21.52 70.736 0.139 7.57 63.91 10.08
8/29/2023 6:00:00 PM 21.41 70.538 0.139 7.51 63.46 9.78
8/29/2023 6:15:00 PM 21.29 70.32201 0.139 7.5 61.37 9.58
8/29/2023 6:30:00 PM 21.17 70.106 0.139 7.45 58.97 9.36
8/29/2023 6:45:00 PM 21.06 69.908 0.141 7.37 56.81 9.08
8/29/2023 7:00:00 PM 20.94 69.692 0.142 7.33 64.7 8.91
8/29/2023 7:15:00 PM 20.82 69.476 0.142 7.32 71.19 8.75
8/29/2023 7:30:00 PM 20.72 69.296 0.143 7.29 74.41 8.55
8/29/2023 7:45:00 PM 20.61 69.098 0.144 7.23 72.72 8.39
8/29/2023 8:00:00 PM 20.49 68.882 0.144 7.19 74.42 8.25
8/29/2023 8:15:00 PM 20.53 68.954 0.144 7.16 70.87 7.97
8/29/2023 8:30:00 PM 20.81 69.458 0.14 7.16 72 7.68
8/29/2023 8:45:00 PM 20.45 68.81 0.139 7.1 73.24 7.63
8/29/2023 9:00:00 PM 20.08 68.144 0.142 7.12 63.35 7.71
8/29/2023 9:15:00 PM 20.07 68.126 0.142 7.05 69.43 7.62
8/29/2023 9:30:00 PM 20.08 68.144 0.14 7 113.09 7.46
8/29/2023 9:45:00 PM 20.06 68.108 0.14 6.98 97.36 7.42
8/29/2023 10:00:00 PM 20.01 68.018 0.139 7 92.18 7.42
8/29/2023 10:15:00 PM 19.94 67.892 0.139 6.95 85.84 7.35
8/29/2023 10:30:00 PM 19.9 67.82 0.138 6.94 60.31 7.33
8/29/2023 10:45:00 PM 19.86 67.748 0.137 6.96 91.96 7.3
8/29/2023 11:00:00 PM 19.83 67.694 0.136 6.89 93.03 7.3
8/29/2023 11:15:00 PM 19.77 67.586 0.138 6.91 96.77 7.27
8/29/2023 11:30:00 PM 19.71 67.478 0.138 6.9 98.54 7.3
8/29/2023 11:45:00 PM 19.64 67.352 0.138 6.89 97.67 7.31
8/30/2023 12:00:00 AM 19.58 67.244 0.139 6.88 97.38 7.29
8/30/2023 12:15:00 AM 19.53 67.154 0.139 6.89 94.73 7.29
8/30/2023 12:30:00 AM 19.46 67.028 0.139 6.88 91.3 7.25
8/30/2023 12:45:00 AM 19.4 66.92 0.14 6.9 90.19 7.29
8/30/2023 1:00:00 AM 19.33 66.794 0.14 6.9 88.29 7.34
8/30/2023 1:15:00 AM 19.28 66.704 0.14 6.87 85.67 7.39
8/30/2023 1:30:00 AM 19.25 66.65 0.139 6.85 87.89 7.4
8/30/2023 1:45:00 AM 19.25 66.65 0.139 6.8 84.16 7.41
8/30/2023 2:00:00 AM 19.31 66.758 0.138 6.77 83.54 7.45
8/30/2023 2:15:00 AM 19.4 66.92 0.136 6.77 80.78 7.48
8/30/2023 2:30:00 AM 19.46 67.028 0.135 6.82 79.15 7.52
8/30/2023 2:45:00 AM 19.48 67.064 0.134 6.82 80.7 7.54
8/30/2023 3:00:00 AM 19.5 67.1 0.133 6.81 76.75 7.58
8/30/2023 3:15:00 AM 19.52 67.136 0.132 6.77 76.66 7.62
8/30/2023 3:30:00 AM 19.57 67.226 0.131 6.78 74.4 7.69
8/30/2023 3:45:00 AM 19.65 67.37 0.13 6.76 74.35 7.74
8/30/2023 4:00:00 AM 19.7 67.46 0.131 6.75 74.66 7.72
8/30/2023 4:15:00 AM 19.7 67.46 0.13 6.78 75.99 7.71
8/30/2023 4:30:00 AM 19.64 67.352 0.129 6.8 76.33 7.71
8/30/2023 4:45:00 AM 19.5 67.1 0.128 6.82 74.84 7.7
8/30/2023 5:00:00 AM 19.31 66.758 0.128 6.84 79.57 7.72
8/30/2023 5:15:00 AM 19.12 66.416 0.127 6.85 77.69 7.76
8/30/2023 5:30:00 AM 18.98 66.164 0.126 6.85 79.15 7.77
8/30/2023 5:45:00 AM 18.88 65.984 0.126 6.93 83.18 7.8
8/30/2023 6:00:00 AM 18.85 65.93 0.119 6.95 84.75 7.79
8/30/2023 6:15:00 AM 18.86 65.948 0.12 6.91 95.84 7.78
8/30/2023 6:30:00 AM 18.9 66.02 0.12 6.88 91.14 7.76
8/30/2023 6:45:00 AM 18.94 66.092 0.127 6.89 104.87 7.76
8/30/2023 7:00:00 AM 18.97 66.146 0.12 6.97 101.31 7.76
8/30/2023 7:15:00 AM 18.99 66.182 0.118 6.98 92.37 7.74
8/30/2023 7:30:00 AM 19.01 66.218 0.121 6.97 100.98 7.73
8/30/2023 7:45:00 AM 19.01 66.218 0.12 7.06 107.09 7.72
8/30/2023 8:00:00 AM 18.98 66.164 0.116 7.06 97.08 7.72
8/30/2023 8:15:00 AM 18.93 66.074 0.123 6.99 93.9 7.73
8/30/2023 8:30:00 AM 18.87 65.966 0.12 6.99 101.14 7.73
8/30/2023 8:45:00 AM 18.82 65.876 0.114 6.99 109.64 7.72
8/30/2023 9:00:00 AM 18.83 65.894 0.112 6.98 115.22 7.72
8/30/2023 9:15:00 AM 18.85 65.93 0.117 6.98 128.57 7.72
8/30/2023 9:30:00 AM 18.88 65.984 0.114 6.94 1868.2 7.72
8/30/2023 9:45:00 AM 18.93 66.074 0.12 6.96 85.44 7.71
8/30/2023 10:00:00 AM 18.97 66.146 0.114 6.96 2106.24 7.7
8/30/2023 10:15:00 AM 19 66.2 0.112 6.96 3401.19 7.7
8/30/2023 10:30:00 AM 19.06 66.308 0.111 6.96 876.86 7.68
8/30/2023 10:45:00 AM 19.1 66.38 0.119 6.94 580.8 7.68
8/30/2023 11:00:00 AM 19.12 66.416 0.117 6.98 102.8 7.69
8/30/2023 11:15:00 AM 19.22 66.596 0.114 6.99 906.36 7.71
8/30/2023 11:30:00 AM 19.3 66.74 0.119 7.01 1022.99 7.73
8/30/2023 11:45:00 AM 19.43 66.974 0.119 6.99 1004.35 7.76
8/30/2023 12:00:00 PM 19.51 67.118 0.121 7.01 462.01 7.77
8/30/2023 12:15:00 PM 19.53 67.154 0.119 7.05 1824.84 7.79
8/30/2023 12:30:00 PM 19.55 67.19 0.126 7.07 243.22 7.82
8/30/2023 12:45:00 PM 19.59 67.262 0.128 7.07 5077.64 7.84
8/30/2023 1:00:00 PM 19.55 67.19 0.123 7.09 403.36 7.85
8/30/2023 1:15:00 PM 19.66 67.388 0.129 7.06 1318.41 7.87
8/30/2023 1:30:00 PM 19.66 67.388 0.129 7.11 117.15 7.89
8/30/2023 1:45:00 PM 19.74 67.532 0.128 7.1 703.43 7.89
8/30/2023 2:00:00 PM 19.83 67.694 0.129 7.08 93.01 7.9
8/30/2023 2:15:00 PM 19.9 67.82 0.125 7.13 2470.27 7.91
8/30/2023 2:30:00 PM 19.98 67.964 0.117 7.1 588.3 7.92
8/30/2023 2:45:00 PM 19.95 67.91 0.118 7.14 1960.63 7.91
8/30/2023 3:00:00 PM 20.03 68.054 0.113 7.12 743.11 7.92
8/30/2023 3:15:00 PM 20.06 68.108 0.123 7.11 467.28 7.94
8/30/2023 3:30:00 PM 20.14 68.252 0.118 7.15 602.19 7.93
8/30/2023 3:45:00 PM 20.1 68.18 0.12 7.12 306.64 7.93
8/30/2023 4:00:00 PM 20.07 68.126 0.119 7.12 2079.93 7.91
8/30/2023 4:15:00 PM 20.04 68.07201 0.12 7.12 530.53 7.92
8/30/2023 4:30:00 PM 20.03 68.054 0.116 7.12 652.56 7.93
8/30/2023 4:45:00 PM 20.09 68.162 0.117 7.12 933.38 7.94
8/30/2023 5:00:00 PM 20.12 68.216 0.121 7.15 225.23 7.93
8/30/2023 5:15:00 PM 20.02 68.036 0.121 7.1 480.07 7.92
8/30/2023 5:30:00 PM 19.88 67.784 0.122 7.13 408.21 7.88
8/30/2023 5:45:00 PM 19.75 67.55 0.124 7.12 614.04 7.89
8/30/2023 6:00:00 PM 19.63 67.334 0.12 7.09 1768.69 7.86
8/30/2023 6:15:00 PM 19.54 67.172 0.124 7.09 815.28 7.84
8/30/2023 6:30:00 PM 19.47 67.046 0.12 7.1 1938.31 7.86
8/30/2023 6:45:00 PM 19.4 66.92 0.113 7.09 339.4 7.86
8/30/2023 7:00:00 PM 19.33 66.794 0.115 7.08 2461.96 7.84
8/30/2023 7:15:00 PM 19.22 66.596 0.114 7.06 899.33 7.84
8/30/2023 7:30:00 PM 19.13 66.434 0.113 7.11 197.31 7.86
8/30/2023 7:45:00 PM 19.05 66.29 0.122 7.08 1453.46 7.82
8/30/2023 8:00:00 PM 18.97 66.146 0.12 7.07 1610.02 7.8
8/30/2023 8:15:00 PM 18.92 66.056 0.121 7.07 533.49 7.78
8/30/2023 8:30:00 PM 18.88 65.984 0.121 7.07 946.06 7.79
8/30/2023 8:45:00 PM 18.85 65.93 0.121 7.06 157.23 7.79
8/30/2023 9:00:00 PM 18.81 65.858 0.121 7.04 400.74 7.8
8/30/2023 9:15:00 PM 18.77 65.786 0.117 7.04 747.01 7.8
8/30/2023 9:30:00 PM 18.74 65.732 0.12 7.03 375.18 7.8
8/30/2023 9:45:00 PM 18.7 65.66 0.119 7.01 412.18 7.8
8/30/2023 10:00:00 PM 18.67 65.606 0.121 7.01 123.18 7.78
8/30/2023 10:15:00 PM 18.64 65.552 0.119 7 180.43 7.78
8/30/2023 10:30:00 PM 18.61 65.498 0.12 6.99 6422.18 7.8
8/30/2023 10:45:00 PM 18.58 65.444 0.12 6.99 1410.77 7.79
8/30/2023 11:00:00 PM 18.55 65.39 0.121 6.99 1803.42 7.78
8/30/2023 11:15:00 PM 18.52 65.336 0.121 6.99 95.65 7.81
8/30/2023 11:30:00 PM 18.49 65.282 0.121 6.99 2065.15 7.79
8/30/2023 11:45:00 PM 18.46 65.228 0.12 6.98 1099.03 7.78
8/31/2023 12:00:00 AM 18.43 65.174 0.121 6.99 132.25 7.8
8/31/2023 12:15:00 AM 18.4 65.12 0.122 6.98 158.65 7.79
8/31/2023 12:30:00 AM 18.37 65.066 0.122 6.99 1943.71 7.77
8/31/2023 12:45:00 AM 18.34 65.012 0.121 6.98 204.37 7.81
8/31/2023 1:00:00 AM 18.31 64.958 0.124 7 534.78 7.82
8/31/2023 1:15:00 AM 18.29 64.922 0.123 7 52.88 7.84
8/31/2023 1:30:00 AM 18.25 64.85 0.124 6.99 2433.42 7.83
8/31/2023 1:45:00 AM 18.22 64.796 0.123 6.97 1801.44 7.83
8/31/2023 2:00:00 AM 18.18 64.724 0.123 6.98 4005.47 7.85
8/31/2023 2:15:00 AM 18.15 64.67 0.123 6.99 3072.05 7.84
8/31/2023 2:30:00 AM 18.12 64.616 0.123 6.99 268.35 7.85
8/31/2023 2:45:00 AM 18.09 64.562 0.123 6.98 1895.42 7.85
8/31/2023 3:00:00 AM 18.05 64.49 0.124 6.96 735.88 7.86
8/31/2023 3:15:00 AM 18.01 64.418 0.124 6.97 284.28 7.87
8/31/2023 3:30:00 AM 17.97 64.346 0.124 6.99 483.06 7.88
8/31/2023 3:45:00 AM 17.91 64.238 0.125 6.97 135.13 7.88
8/31/2023 4:00:00 AM 17.86 64.148 0.126 6.97 426.67 7.88
8/31/2023 4:15:00 AM 17.79 64.022 0.126 7 629.13 7.89
8/31/2023 4:30:00 AM 17.73 63.914 0.126 6.98 263.2 7.91
8/31/2023 4:45:00 AM 17.69 63.842 0.126 6.99 174.14 7.91
8/31/2023 5:00:00 AM 17.65 63.77 0.127 6.99 251.19 7.91
8/31/2023 5:15:00 AM 17.58 63.644 0.126 6.95 68.25 7.93
8/31/2023 5:30:00 AM 17.52 63.536 0.125 6.96 49.48 7.94
8/31/2023 5:45:00 AM 17.45 63.41 0.127 6.97 54.41 7.93
8/31/2023 6:00:00 AM 17.38 63.284 0.129 6.98 59.49 7.96
8/31/2023 6:15:00 AM 17.32 63.176 0.129 6.97 47.54 7.96
8/31/2023 6:30:00 AM 17.25 63.05 0.13 6.96 46.62 7.96
8/31/2023 6:45:00 AM 17.18 62.924 0.13 6.95 82.54 7.98
8/31/2023 7:00:00 AM 17.12 62.816 0.131 6.96 55.09 8
8/31/2023 7:15:00 AM 17.08 62.744 0.131 6.96 202.65 8.02
8/31/2023 7:30:00 AM 17.03 62.654 0.131 6.96 662.09 8.04
8/31/2023 7:45:00 AM 17 62.6 0.131 6.96 101.57 8.1
8/31/2023 8:00:00 AM 16.97 62.546 0.132 6.97 121.79 8.14
8/31/2023 8:15:00 AM 16.95 62.51 0.128 6.99 63.09 8.21
8/31/2023 8:30:00 AM 16.94 62.492 0.132 6.98 46.24 8.25
8/31/2023 8:45:00 AM 16.95 62.51 0.132 6.99 62.95 8.32
8/31/2023 9:00:00 AM 16.98 62.564 0.132 7.02 58.62 8.36
8/31/2023 9:15:00 AM 16.98 62.564 0.132 7 51.76 8.45
8/31/2023 9:30:00 AM 17.03 62.654 0.132 7.01 42.02 8.54
8/31/2023 9:45:00 AM 17.17 62.906 0.132 7.02 41.66 8.65
8/31/2023 10:00:00 AM 17.33 63.194 0.132 7.03 43.99 8.73
8/31/2023 10:15:00 AM 17.47 63.446 0.133 7.08 104.56 8.84
8/31/2023 10:30:00 AM 17.66 63.788 0.133 7.08 43.97 8.93
8/31/2023 10:45:00 AM 17.86 64.148 0.133 7.1 48.39 9.01
8/31/2023 11:00:00 AM 18.06 64.508 0.134 7.09 39.06 9.1
8/31/2023 11:15:00 AM 18.28 64.904 0.134 7.15 1410.34 9.16
8/31/2023 11:30:00 AM 18.5 65.3 0.135 7.15 1338.61 9.23
8/31/2023 11:45:00 AM 18.74 65.732 0.134 7.17 1265.97 9.29
8/31/2023 12:00:00 PM 18.97 66.146 0.135 7.15 96.66 9.33
8/31/2023 12:15:00 PM 19.18 66.524 0.135 7.19 416.45 9.37
8/31/2023 12:30:00 PM 19.38 66.884 0.135 7.22 53.01 9.41
8/31/2023 12:45:00 PM 19.58 67.244 0.136 7.24 39.82 9.45
8/31/2023 1:00:00 PM 19.75 67.55 0.136 7.25 77.61 9.47
8/31/2023 1:15:00 PM 19.93 67.874 0.136 7.23 41.43 9.49
8/31/2023 1:30:00 PM 20.11 68.198 0.136 7.25 25.24 9.51
8/31/2023 1:45:00 PM 20.28 68.504 0.137 7.27 40.2 9.52
8/31/2023 2:00:00 PM 20.44 68.792 0.137 7.29 36.38 9.54
8/31/2023 2:15:00 PM 20.59 69.062 0.137 7.31 38.73 9.53
8/31/2023 2:30:00 PM 20.71 69.278 0.138 7.32 31.34 9.54
8/31/2023 2:45:00 PM 20.82 69.476 0.138 7.31 32.45 9.53
8/31/2023 3:00:00 PM 20.93 69.674 0.138 7.32 24.19 9.51
8/31/2023 3:15:00 PM 21 69.8 0.138 7.33 29.13 9.5
8/31/2023 3:30:00 PM 21.04 69.872 0.139 7.33 36.33 9.48
8/31/2023 3:45:00 PM 21.06 69.908 0.139 7.34 33.42 9.38
8/31/2023 4:00:00 PM 21.06 69.908 0.14 7.33 1473.9 9.4
8/31/2023 4:15:00 PM 21.06 69.908 0.14 7.35 58.01 9.35
8/31/2023 4:30:00 PM 21.01 69.818 0.14 7.33 115.97 9.27
8/31/2023 4:45:00 PM 20.95 69.71 0.14 7.33 320.3 9.23
8/31/2023 5:00:00 PM 20.88 69.584 0.14 7.32 162.61 9.16
8/31/2023 5:15:00 PM 20.78 69.404 0.141 7.32 1580.31 9.12
8/31/2023 5:30:00 PM 20.65 69.17 0.142 7.3 36.94 9.04
8/31/2023 5:45:00 PM 20.5 68.9 0.142 7.28 37.1 8.95
8/31/2023 6:00:00 PM 20.32 68.576 0.142 7.27 50.06 8.85
8/31/2023 6:15:00 PM 20.08 68.144 0.142 7.25 33.12 8.73
8/31/2023 6:30:00 PM 19.86 67.748 0.142 7.23 27.93 8.6
8/31/2023 6:45:00 PM 19.64 67.352 0.142 7.19 40.81 8.51
8/31/2023 7:00:00 PM 19.47 67.046 0.141 7.18 32.03 8.4
8/31/2023 7:15:00 PM 19.34 66.812 0.142 7.16 502.93 8.31
8/31/2023 7:30:00 PM 19.23 66.614 0.142 7.15 50.38 8.28
8/31/2023 7:45:00 PM 19.12 66.416 0.142 7.13 355.44 8.22
8/31/2023 8:00:00 PM 19.01 66.218 0.143 7.12 827.09 8.16
8/31/2023 8:15:00 PM 18.89 66.002 0.142 7.12 462.13 8.15
8/31/2023 8:30:00 PM 18.76 65.768 0.142 7.11 1362.87 8.09
8/31/2023 8:45:00 PM 18.64 65.552 0.143 7.06 126.71 8.07
8/31/2023 9:00:00 PM 18.52 65.336 0.143 7.07 63 8.05
8/31/2023 9:15:00 PM 18.39 65.102 0.145 7.06 68.15 8.04
8/31/2023 9:30:00 PM 18.26 64.868 0.145 7.05 2408 8.03
8/31/2023 9:45:00 PM 18.13 64.634 0.146 7.07 330.68 8.03
8/31/2023 10:00:00 PM 18.01 64.418 0.144 7.03 24.98 8.03
8/31/2023 10:15:00 PM 17.88 64.184 0.146 7.05 840.18 8.02
8/31/2023 10:30:00 PM 17.76 63.968 0.147 7.03 311.24 8.03
8/31/2023 10:45:00 PM 17.64 63.752 0.148 7.06 353.16 8.03
8/31/2023 11:00:00 PM 17.53 63.554 0.148 7.03 189.65 8.04
8/31/2023 11:15:00 PM 17.42 63.356 0.148 7.04 52.27 8.08
8/31/2023 11:30:00 PM 17.33 63.194 0.153 7.02 100.2 8.02
8/31/2023 11:45:00 PM 17.24 63.032 0.153 7.04 879.23 8.08
9/1/2023 12:00:00 AM 17.15 62.87 0.155 7.04 812.02 8.09
9/1/2023 12:15:00 AM 17.07 62.726 0.155 7.03 57.7 8.08
9/1/2023 12:30:00 AM 16.99 62.582 0.155 6.99 1507.9 8.1
9/1/2023 12:45:00 AM 16.91 62.438 0.156 7.03 399.73 8.09
9/1/2023 1:00:00 AM 16.83 62.294 0.156 7.02 48.66 8.1
9/1/2023 1:15:00 AM 16.75 62.15 0.157 7.02 359.19 8.11
9/1/2023 1:30:00 AM 16.68 62.024 0.157 7.01 614.04 8.15
9/1/2023 1:45:00 AM 16.59 61.862 0.157 7.03 79.62 8.18
9/1/2023 2:00:00 AM 16.52 61.736 0.156 7.01 729.46 8.17
9/1/2023 2:15:00 AM 16.44 61.592 0.157 6.99 121.77 8.2
9/1/2023 2:30:00 AM 16.36 61.448 0.157 7 37.62 8.21
9/1/2023 2:45:00 AM 16.28 61.304 0.156 7.01 952.21 8.21
9/1/2023 3:00:00 AM 16.2 61.16 0.157 7.01 131.37 8.24
9/1/2023 3:15:00 AM 16.12 61.016 0.154 7 125.58 8.25
9/1/2023 3:30:00 AM 16.04 60.872 0.146 7.01 37.63 8.26
9/1/2023 3:45:00 AM 15.97 60.746 0.15 7.01 880.48 8.28
9/1/2023 4:00:00 AM 15.89 60.602 0.158 7 1386.18 8.29
9/1/2023 4:15:00 AM 15.81 60.458 0.159 6.99 136.38 8.29
9/1/2023 4:30:00 AM 15.74 60.332 0.158 7.01 140.84 8.31
9/1/2023 4:45:00 AM 15.67 60.206 0.158 7 36.91 8.32
9/1/2023 5:00:00 AM 15.6 60.08 0.158 7 54.29 8.29
9/1/2023 5:15:00 AM 15.53 59.954 0.158 7 1478.59 8.34
9/1/2023 5:30:00 AM 15.45 59.81 0.158 6.99 184.57 8.36
9/1/2023 5:45:00 AM 15.39 59.702 0.157 7 111.28 8.38
9/1/2023 6:00:00 AM 15.31 59.558 0.159 6.96 24.97 8.39
9/1/2023 6:15:00 AM 15.24 59.432 0.159 6.96 1479.98 8.38
9/1/2023 6:30:00 AM 15.18 59.324 0.157 6.98 516.55 8.37
9/1/2023 6:45:00 AM 15.12 59.216 0.152 6.99 32.54 8.41
9/1/2023 7:00:00 AM 15.05 59.09 0.153 6.99 1947.24 8.43
9/1/2023 7:15:00 AM 14.99 58.982 0.148 6.96 35.65 8.48
9/1/2023 7:30:00 AM 14.96 58.928 0.142 6.97 785.37 8.56
9/1/2023 7:45:00 AM 14.91 58.838 0.162 7.02 276.74 8.7
9/1/2023 8:00:00 AM 14.91 58.838 0.161 6.99 120.99 8.83
9/1/2023 8:15:00 AM 14.91 58.838 0.16 7.03 1303.84 8.99
9/1/2023 8:30:00 AM 14.95 58.91 0.159 7.01 1280.09 9.19
9/1/2023 8:45:00 AM 15.01 59.018 0.163 7.06 1134.13 9.37
9/1/2023 9:00:00 AM 15.11 59.198 0.164 7.07 492.27 9.47
9/1/2023 9:15:00 AM 15.24 59.432 0.164 7.08 555.23 9.66
9/1/2023 9:30:00 AM 15.38 59.684 0.166 7.08 984.71 9.82
9/1/2023 9:45:00 AM 15.55 59.99 0.165 7.08 219.73 9.98
9/1/2023 10:00:00 AM 15.75 60.35 0.166 7.09 216.05 9.98
9/1/2023 10:15:00 AM 15.97 60.746 0.166 7.15 248.4 10.22
9/1/2023 10:30:00 AM 16.22 61.196 0.163 7.17 225.01 10.23
9/1/2023 10:45:00 AM 16.49 61.682 0.166 7.16 325.23 10.13
9/1/2023 11:00:00 AM 16.8 62.24 0.166 7.22 98.44 10.28
9/1/2023 11:15:00 AM 17.11 62.798 0.167 7.2 172.21 10.34
9/1/2023 11:30:00 AM 17.39 63.302 0.167 7.22 218.85 10.46
9/1/2023 11:45:00 AM 17.68 63.824 0.167 7.27 161.53 10.46
9/1/2023 12:00:00 PM 17.97 64.346 0.167 7.25 149.2 10.44
9/1/2023 12:15:00 PM 18.26 64.868 0.155 7.3 565.49 10.43
9/1/2023 12:30:00 PM 18.54 65.372 0.161 7.29 353.63 10.39
9/1/2023 12:45:00 PM 18.8 65.84 0.168 7.35 8356.51 10.42
9/1/2023 1:00:00 PM 19.04 66.272 0.169 7.36 37.93 10.45
9/1/2023 1:15:00 PM 19.27 66.686 0.169 7.34 22.03 10.46
9/1/2023 1:30:00 PM 19.47 67.046 0.17 7.41 28.67 10.46
9/1/2023 1:45:00 PM 19.7 67.46 0.17 7.39 18.55 10.44
9/1/2023 2:00:00 PM 19.9 67.82 0.176 7.41 809.1 10.44
9/1/2023 2:15:00 PM 20.09 68.162 0.177 7.42 20.94 10.43
9/1/2023 2:30:00 PM 20.26 68.468 0.185 7.44 28.02 10.42
9/1/2023 2:45:00 PM 20.41 68.738 0.185 7.46 845.5 10.41
9/1/2023 3:00:00 PM 20.54 68.972 0.184 7.49 699.08 10.36
9/1/2023 3:15:00 PM 20.67 69.206 0.178 7.48 20.37 10.36
9/1/2023 3:30:00 PM 20.74 69.332 0.183 7.51 19.89 10.32
9/1/2023 3:45:00 PM 20.78 69.404 0.183 7.51 16.6 10.29
9/1/2023 4:00:00 PM 20.83 69.494 0.185 7.51 2823 10.25
9/1/2023 4:15:00 PM 20.82 69.476 0.186 7.51 15.99 10.18
9/1/2023 4:30:00 PM 20.8 69.44 0.186 7.51 26.37 10.11
9/1/2023 4:45:00 PM 20.73 69.314 0.188 7.47 1041.78 10.03
9/1/2023 5:00:00 PM 20.65 69.17 0.186 7.48 2033.92 9.96
9/1/2023 5:15:00 PM 20.56 69.008 0.188 7.48 31.52 9.88
9/1/2023 5:30:00 PM 20.43 68.774 0.192 7.43 15.62 9.8
9/1/2023 5:45:00 PM 20.26 68.468 0.191 7.44 19 9.69
9/1/2023 6:00:00 PM 20.06 68.108 0.189 7.42 12 9.57
9/1/2023 6:15:00 PM 19.82 67.676 0.189 7.37 68.42 9.43
9/1/2023 6:30:00 PM 19.55 67.19 0.195 7.35 14.42 9.24
9/1/2023 6:45:00 PM 19.29 66.722 0.197 7.33 21.74 9.06
9/1/2023 7:00:00 PM 19.06 66.308 0.197 7.27 256.62 8.92
9/1/2023 7:15:00 PM 18.89 66.002 0.209 7.25 29.29 8.82
9/1/2023 7:30:00 PM 18.74 65.732 0.212 7.25 42.57 8.72
9/1/2023 7:45:00 PM 18.61 65.498 0.2 7.24 46.47 8.63
9/1/2023 8:00:00 PM 18.49 65.282 0.201 7.22 185.73 8.55
9/1/2023 8:15:00 PM 18.37 65.066 0.199 7.2 23.16 8.48
9/1/2023 8:30:00 PM 18.26 64.868 0.208 7.17 44.37 8.41
9/1/2023 8:45:00 PM 18.15 64.67 0.208 7.17 231.89 8.38
9/1/2023 9:00:00 PM 18.04 64.472 0.181 7.12 210.34 8.35
9/1/2023 9:15:00 PM 17.93 64.274 0.214 7.12 1214.17 8.29
9/1/2023 9:30:00 PM 17.81 64.058 0.215 7.1 1880.17 8.27
9/1/2023 9:45:00 PM 17.7 63.86 0.217 7.11 5949.44 8.25
9/1/2023 10:00:00 PM 17.58 63.644 0.216 7.1 3404.57 8.26
9/1/2023 10:15:00 PM 17.47 63.446 0.216 7.11 51.8 8.2
9/1/2023 10:30:00 PM 17.34 63.212 0.211 7.08 14.89 8.25
9/1/2023 10:45:00 PM 17.21 62.978 0.213 7.09 31.98 8.26
9/1/2023 11:00:00 PM 17.08 62.744 0.213 7.1 23.34 8.25
9/1/2023 11:15:00 PM 16.94 62.492 0.212 7.1 41.1 8.27
9/1/2023 11:30:00 PM 16.81 62.258 0.211 7.09 21.21 8.28
9/1/2023 11:45:00 PM 16.67 62.006 0.212 7.09 43.61 8.3
9/2/2023 12:00:00 AM 16.54 61.772 0.21 7.08 24.98 8.32
9/2/2023 12:15:00 AM 16.41 61.538 0.21 7.04 19.99 8.32
9/2/2023 12:30:00 AM 16.29 61.322 0.21 7.07 84.85 8.34
9/2/2023 12:45:00 AM 16.18 61.124 0.21 7.06 624.8 8.33
9/2/2023 1:00:00 AM 16.07 60.926 0.209 7.04 103.88 8.36
9/2/2023 1:15:00 AM 15.98 60.764 0.209 7.04 31.91 8.37
9/2/2023 1:30:00 AM 15.89 60.602 0.22 7.05 128.49 8.37
9/2/2023 1:45:00 AM 15.82 60.476 0.215 7.03 18.8 8.36
9/2/2023 2:00:00 AM 15.74 60.332 0.217 7.04 1363.23 8.39
9/2/2023 2:15:00 AM 15.67 60.206 0.205 7.04 2048.25 8.42
9/2/2023 2:30:00 AM 15.6 60.08 0.207 7.04 116.38 8.42
9/2/2023 2:45:00 AM 15.54 59.972 0.207 7.04 174.44 8.43
9/2/2023 3:00:00 AM 15.48 59.864 0.209 7.04 99.63 8.44
9/2/2023 3:15:00 AM 15.42 59.756 0.206 7.02 124.25 8.43
9/2/2023 3:30:00 AM 15.36 59.648 0.205 7.04 300.51 8.44
9/2/2023 3:45:00 AM 15.31 59.558 0.221 7.04 412.32 8.46
9/2/2023 4:00:00 AM 15.25 59.45 0.211 7 35.85 8.47
9/2/2023 4:15:00 AM 15.19 59.342 0.209 7 20.99 8.46
9/2/2023 4:30:00 AM 15.13 59.234 0.209 7.01 21.06 8.49
9/2/2023 4:45:00 AM 15.08 59.144 0.21 7.01 32.61 8.5
9/2/2023 5:00:00 AM 15.01 59.018 0.209 7.03 20.25 8.53
9/2/2023 5:15:00 AM 14.95 58.91 0.209 7.05 15.89 8.52
9/2/2023 5:30:00 AM 14.9 58.82 0.21 7.03 19.27 8.55
9/2/2023 5:45:00 AM 14.86 58.748 0.209 7.04 17.61 8.53
9/2/2023 6:00:00 AM 14.8 58.64 0.21 7.07 19.73 8.56
9/2/2023 6:15:00 AM 14.75 58.55 0.209 7.06 16.88 8.58
9/2/2023 6:30:00 AM 14.7 58.46 0.211 7.04 18.03 8.58
9/2/2023 6:45:00 AM 14.65 58.37 0.211 7.07 13.53 8.6
9/2/2023 7:00:00 AM 14.61 58.298 0.209 7.03 22.36 8.61
9/2/2023 7:15:00 AM 14.58 58.244 0.204 7.04 15.97 8.68
9/2/2023 7:30:00 AM 14.54 58.172 0.209 7.04 56.2 8.76
9/2/2023 7:45:00 AM 14.55 58.19 0.213 7.07 26.62 8.91
9/2/2023 8:00:00 AM 14.57 58.226 0.212 7.06 22.63 9.07
9/2/2023 8:15:00 AM 14.6 58.28 0.211 7.07 24.3 9.23
9/2/2023 8:30:00 AM 14.65 58.37 0.21 7.08 22.27 9.38
9/2/2023 8:45:00 AM 14.74 58.532 0.212 7.1 18.18 9.51
9/2/2023 9:00:00 AM 14.88 58.784 0.214 7.11 111.24 9.72
9/2/2023 9:15:00 AM 15.06 59.108 0.215 7.14 46.24 9.82
9/2/2023 9:30:00 AM 15.24 59.432 0.212 7.17 13.57 9.81
9/2/2023 9:45:00 AM 15.46 59.828 0.212 7.16 13.39 9.95
9/2/2023 10:00:00 AM 15.66 60.188 0.246 7.16 17.47 9.81
9/2/2023 10:15:00 AM 15.84 60.512 0.246 7.15 12.03 9.89
9/2/2023 10:30:00 AM 16.18 61.124 0.246 7.2 11.28 10
9/2/2023 10:45:00 AM 16.49 61.682 0.246 7.23 16.53 10.16
9/2/2023 11:00:00 AM 16.84 62.312 0.247 7.24 15.12 10.21
9/2/2023 11:15:00 AM 17.19 62.942 0.247 7.3 16.55 10.35
9/2/2023 11:30:00 AM 17.51 63.518 0.247 7.31 12.23 10.41
9/2/2023 11:45:00 AM 17.81 64.058 0.247 7.31 11.86 10.44
9/2/2023 12:00:00 PM 18.11 64.598 0.247 7.37 26.08 10.52
9/2/2023 12:15:00 PM 18.29 64.922 0.247 7.39 17.8 10.5
9/2/2023 12:30:00 PM 18.42 65.156 0.247 7.39 21.33 10.47
9/2/2023 12:45:00 PM 18.55 65.39 0.236 7.43 16.74 10.52
9/2/2023 1:00:00 PM 18.75 65.75 0.226 7.46 11.39 10.56
9/2/2023 1:15:00 PM 19.16 66.488 0.22 7.49 12.44 10.68
9/2/2023 1:30:00 PM 19.51 67.118 0.214 7.5 12.41 10.76
9/2/2023 1:45:00 PM 19.89 67.802 0.216 7.55 14.87 10.81
9/2/2023 2:00:00 PM 20.2 68.36 0.212 7.57 17.94 10.84
9/2/2023 2:15:00 PM 20.45 68.81 0.202 7.58 17.12 10.84
9/2/2023 2:30:00 PM 20.67 69.206 0.186 7.62 18.52 10.84
9/2/2023 2:45:00 PM 20.85 69.53 0.19 7.64 14.36 10.83
9/2/2023 3:00:00 PM 21.02 69.836 0.192 7.62 15.99 10.81
9/2/2023 3:15:00 PM 21.16 70.088 0.184 7.67 17.25 10.8
9/2/2023 3:30:00 PM 21.28 70.304 0.179 7.68 16.97 10.76
9/2/2023 3:45:00 PM 21.38 70.484 0.177 7.69 21.11 10.69
9/2/2023 4:00:00 PM 21.41 70.538 0.167 7.68 20.95 10.67
9/2/2023 4:15:00 PM 21.42 70.556 0.169 7.68 12.63 10.6
9/2/2023 4:30:00 PM 21.4 70.52 0.169 7.64 11.52 10.51
9/2/2023 4:45:00 PM 21.35 70.43 0.167 7.66 12.78 10.44
9/2/2023 5:00:00 PM 21.29 70.32201 0.166 7.65 13.99 10.36
9/2/2023 5:15:00 PM 21.2 70.16 0.167 7.61 11.52 10.25
9/2/2023 5:30:00 PM 21.08 69.944 0.164 7.6 10.81 10.13
9/2/2023 5:45:00 PM 20.91 69.638 0.164 7.61 12.17 10.02
9/2/2023 6:00:00 PM 20.73 69.314 0.165 7.54 12.27 9.89
9/2/2023 6:15:00 PM 20.47 68.846 0.157 7.51 13.03 9.63
9/2/2023 6:30:00 PM 20.21 68.378 0.158 7.48 12.34 9.41
9/2/2023 6:45:00 PM 19.97 67.946 0.16 7.44 12.7 9.25
9/2/2023 7:00:00 PM 19.79 67.622 0.158 7.42 13.76 9.14
9/2/2023 7:15:00 PM 19.63 67.334 0.157 7.36 12.9 9.04
9/2/2023 7:30:00 PM 19.48 67.064 0.151 7.34 13.62 8.91
9/2/2023 7:45:00 PM 19.34 66.812 0.152 7.32 13.01 8.78
9/2/2023 8:00:00 PM 19.21 66.578 0.152 7.29 14.32 8.67
9/2/2023 8:15:00 PM 19.09 66.362 0.152 7.26 12.01 8.55
9/2/2023 8:30:00 PM 18.98 66.164 0.153 7.24 13.66 8.47
9/2/2023 8:45:00 PM 18.89 66.002 0.153 7.23 12.36 8.39
9/2/2023 9:00:00 PM 18.81 65.858 0.163 7.21 44.23 8.32
9/2/2023 9:15:00 PM 18.75 65.75 0.165 7.19 43.63 8.26
9/2/2023 9:30:00 PM 18.69 65.642 0.163 7.18 39.24 8.23
9/2/2023 9:45:00 PM 18.62 65.516 0.164 7.17 12.77 8.18
9/2/2023 10:00:00 PM 18.57 65.426 0.257 7.13 12.36 8.14
9/2/2023 10:15:00 PM 18.52 65.336 0.257 7.16 14.48 8.11
9/2/2023 10:30:00 PM 18.47 65.246 0.257 7.17 19.62 8.1
9/2/2023 10:45:00 PM 18.4 65.12 0.195 7.17 17.26 8.08
9/2/2023 11:00:00 PM 18.32 64.976 0.258 7.15 16.81 8.07
9/2/2023 11:15:00 PM 18.26 64.868 0.259 7.12 16.8 8.06
9/2/2023 11:30:00 PM 18.18 64.724 0.259 7.14 14.09 8.06
9/2/2023 11:45:00 PM 18.1 64.58 0.26 7.13 41.88 8.06
9/3/2023 12:00:00 AM 18.02 64.436 0.259 7.12 17.91 8.06
9/3/2023 12:15:00 AM 17.94 64.292 0.26 7.11 20.68 8.05
9/3/2023 12:30:00 AM 17.85 64.13 0.26 7.13 20.87 8.05
9/3/2023 12:45:00 AM 17.77 63.986 0.26 7.12 16.51 8.06
9/3/2023 1:00:00 AM 17.69 63.842 0.26 7.12 14.22 8.06
9/3/2023 1:15:00 AM 17.61 63.698 0.26 7.12 16.71 8.07
9/3/2023 1:30:00 AM 17.54 63.572 0.26 7.11 17.07 8.08
9/3/2023 1:45:00 AM 17.48 63.464 0.261 7.08 66.55 8.08
9/3/2023 2:00:00 AM 17.45 63.41 0.261 7.11 15.71 8.08
9/3/2023 2:15:00 AM 17.41 63.338 0.26 7.11 18.93 8.09
9/3/2023 2:30:00 AM 17.37 63.266 0.26 7.11 42.32 8.08
9/3/2023 2:45:00 AM 17.35 63.23 0.261 7.08 27.58 8.08
9/3/2023 3:00:00 AM 17.32 63.176 0.259 7.11 16.45 8.07
9/3/2023 3:15:00 AM 17.28 63.104 0.26 7.07 19.51 8.04
9/3/2023 3:30:00 AM 17.24 63.032 0.26 7.11 17.8 8.09
9/3/2023 3:45:00 AM 17.22 62.996 0.261 7.08 17.57 8.09
9/3/2023 4:00:00 AM 17.18 62.924 0.26 7.11 16.34 8.09
9/3/2023 4:15:00 AM 17.14 62.852 0.26 7.1 16.19 8.09
9/3/2023 4:30:00 AM 17.1 62.78 0.26 7.08 21.73 8.1
9/3/2023 4:45:00 AM 17.06 62.708 0.258 7.09 35 8.09
9/3/2023 5:00:00 AM 17.04 62.672 0.256 7.08 22.64 8.08
9/3/2023 5:15:00 AM 17.01 62.618 0.249 7.09 19.98 8.1
9/3/2023 5:30:00 AM 16.98 62.564 0.241 7.07 24.29 8.09
9/3/2023 5:45:00 AM 16.95 62.51 0.24 7.1 21.1 8.1
9/3/2023 6:00:00 AM 16.94 62.492 0.235 7.09 16.78 8.1
9/3/2023 6:15:00 AM 16.92 62.456 0.259 7.09 21.31 8.1
9/3/2023 6:30:00 AM 16.9 62.42 0.258 7.08 35.89 8.11
9/3/2023 6:45:00 AM 16.89 62.402 0.259 7.1 19.23 8.11
9/3/2023 7:00:00 AM 16.88 62.384 0.259 7.06 17.9 8.13
9/3/2023 7:15:00 AM 16.87 62.366 0.259 7.1 19.16 8.17
9/3/2023 7:30:00 AM 16.87 62.366 0.244 7.1 138.74 8.23
9/3/2023 7:45:00 AM 16.89 62.402 0.261 7.11 12.86 8.33
9/3/2023 8:00:00 AM 16.94 62.492 0.26 7.12 12.65 8.44
9/3/2023 8:15:00 AM 17.01 62.618 0.26 7.12 16.22 8.56
9/3/2023 8:30:00 AM 17.1 62.78 0.26 7.12 17.13 8.71
9/3/2023 8:45:00 AM 17.22 62.996 0.26 7.14 14.8 8.84
9/3/2023 9:00:00 AM 17.36 63.248 0.26 7.17 19.64 9
9/3/2023 9:15:00 AM 17.54 63.572 0.26 7.18 26.04 9.18
9/3/2023 9:30:00 AM 17.72 63.896 0.257 7.2 13.8 9.33
9/3/2023 9:45:00 AM 17.91 64.238 0.252 7.22 13.16 9.49
9/3/2023 10:00:00 AM 18.14 64.652 0.261 7.25 13.72 9.63
9/3/2023 10:15:00 AM 18.37 65.066 0.261 7.28 13.58 9.74
9/3/2023 10:30:00 AM 18.55 65.39 0.26 7.32 15.36 9.83
9/3/2023 10:45:00 AM 18.73 65.714 0.26 7.31 12.5 9.93
9/3/2023 11:00:00 AM 18.97 66.146 0.26 7.34 14.92 10.02
9/3/2023 11:15:00 AM 19.3 66.74 0.26 7.38 12.48 10.2
9/3/2023 11:30:00 AM 19.6 67.28 0.26 7.4 14.3 10.29
9/3/2023 11:45:00 AM 19.83 67.694 0.26 7.42 61.42 10.37
9/3/2023 12:00:00 PM 20.02 68.036 0.26 7.46 13.57 10.39
9/3/2023 12:15:00 PM 20.11 68.198 0.261 7.47 12.58 10.32
9/3/2023 12:30:00 PM 20.27 68.486 0.261 7.44 12.75 10.33
9/3/2023 12:45:00 PM 20.68 69.224 0.261 7.5 13.26 10.57
9/3/2023 1:00:00 PM 21.05 69.89 0.261 7.54 11.84 10.71
9/3/2023 1:15:00 PM 21.38 70.484 0.261 7.58 11.86 10.78
9/3/2023 1:30:00 PM 21.64 70.952 0.261 7.62 12.58 10.83
9/3/2023 1:45:00 PM 21.92 71.456 0.262 7.64 11.39 10.87
9/3/2023 2:00:00 PM 22.16 71.888 0.262 7.66 12.62 10.9
9/3/2023 2:15:00 PM 22.25 72.05 0.264 7.68 18.21 10.83
9/3/2023 2:30:00 PM 22.5 72.5 0.262 7.72 13.02 10.87
9/3/2023 2:45:00 PM 22.57 72.626 0.262 7.71 13.14 10.82
9/3/2023 3:00:00 PM 22.82 73.076 0.261 7.72 12.86 10.86
9/3/2023 3:15:00 PM 22.98 73.364 0.262 7.74 14.39 10.85
9/3/2023 3:30:00 PM 23.08 73.544 0.259 7.77 14.67 10.81
9/3/2023 3:45:00 PM 23.16 73.688 0.262 7.78 10.45 10.79
9/3/2023 4:00:00 PM 23.22 73.796 0.262 7.76 11.1 10.73
9/3/2023 4:15:00 PM 23.24 73.832 0.261 7.77 11.43 10.65
9/3/2023 4:30:00 PM 23.23 73.814 0.262 7.77 11.88 10.56
9/3/2023 4:45:00 PM 23.22 73.796 0.262 7.78 11.21 10.49
9/3/2023 5:00:00 PM 23.15 73.67 0.262 7.78 26.12 10.36
9/3/2023 5:15:00 PM 23.03 73.454 0.262 7.73 10.83 10.23
9/3/2023 5:30:00 PM 22.92 73.256 0.262 7.71 16.19 10.08
9/3/2023 5:45:00 PM 22.77 72.986 0.262 7.7 11.92 9.98
9/3/2023 6:00:00 PM 22.57 72.626 0.262 7.64 12.42 9.78
9/3/2023 6:15:00 PM 22.32 72.176 0.263 7.6 12.07 9.57
9/3/2023 6:30:00 PM 22.04 71.672 0.263 7.56 11.41 9.34
9/3/2023 6:45:00 PM 21.75 71.15 0.263 7.52 12.19 9.1
9/3/2023 7:00:00 PM 21.49 70.682 0.264 7.46 15.31 8.89
9/3/2023 7:15:00 PM 21.27 70.286 0.264 7.44 10.22 8.72
9/3/2023 7:30:00 PM 21.06 69.908 0.264 7.4 10.64 8.57
9/3/2023 7:45:00 PM 20.88 69.584 0.265 7.35 12.31 8.42
9/3/2023 8:00:00 PM 20.72 69.296 0.264 7.33 13.55 8.3
9/3/2023 8:15:00 PM 20.59 69.062 0.265 7.29 11.75 8.2
9/3/2023 8:30:00 PM 20.44 68.792 0.265 7.26 11.41 8.11
9/3/2023 8:45:00 PM 20.3 68.54 0.266 7.26 11.05 8.04
9/3/2023 9:00:00 PM 20.18 68.324 0.266 7.23 16.19 7.98
9/3/2023 9:15:00 PM 20.08 68.144 0.266 7.22 12.91 7.93
9/3/2023 9:30:00 PM 19.98 67.964 0.266 7.19 14.82 7.88
9/3/2023 9:45:00 PM 19.88 67.784 0.266 7.18 17.16 7.85
9/3/2023 10:00:00 PM 19.79 67.622 0.267 7.16 12.16 7.81
9/3/2023 10:15:00 PM 19.71 67.478 0.267 7.15 12.57 7.77
9/3/2023 10:30:00 PM 19.63 67.334 0.267 7.15 12.22 7.76
9/3/2023 10:45:00 PM 19.57 67.226 0.267 7.16 13.19 7.75
9/3/2023 11:00:00 PM 19.5 67.1 0.267 7.13 12.26 7.73
9/3/2023 11:15:00 PM 19.44 66.992 0.268 7.14 11.35 7.73
9/3/2023 11:30:00 PM 19.37 66.866 0.268 7.13 15.26 7.72
9/3/2023 11:45:00 PM 19.3 66.74 0.269 7.11 11.06 7.71
9/4/2023 12:00:00 AM 19.24 66.632 0.269 7.16 12.35 7.72
9/4/2023 12:15:00 AM 19.17 66.506 0.269 7.14 12.96 7.71
9/4/2023 12:30:00 AM 19.1 66.38 0.269 7.15 25.21 7.72
9/4/2023 12:45:00 AM 19.04 66.272 0.27 7.14 11.94 7.71
9/4/2023 1:00:00 AM 18.97 66.146 0.27 7.15 15.04 7.71
9/4/2023 1:15:00 AM 18.89 66.002 0.27 7.12 13.53 7.72
9/4/2023 1:30:00 AM 18.83 65.894 0.27 7.13 14.87 7.71
9/4/2023 1:45:00 AM 18.77 65.786 0.247 7.14 19.17 7.7
9/4/2023 2:00:00 AM 18.71 65.67799 0.26 7.12 62.93 7.69
9/4/2023 2:15:00 AM 18.65 65.57 0.258 7.12 2441.34 7.73
9/4/2023 2:30:00 AM 18.61 65.498 0.271 7.12 58.33 7.7
9/4/2023 2:45:00 AM 18.58 65.444 0.263 7.13 1554.75 7.73
9/4/2023 3:00:00 AM 18.55 65.39 0.272 7.14 18.91 7.72
9/4/2023 3:15:00 AM 18.53 65.354 0.272 7.11 16.44 7.73
9/4/2023 3:30:00 AM 18.51 65.318 0.272 7.12 13.93 7.73
9/4/2023 3:45:00 AM 18.5 65.3 0.272 7.12 13.82 7.73
9/4/2023 4:00:00 AM 18.48 65.264 0.272 7.11 15.57 7.7
9/4/2023 4:15:00 AM 18.47 65.246 0.272 7.11 17.61 7.71
9/4/2023 4:30:00 AM 18.45 65.21 0.272 7.11 15.02 7.72
9/4/2023 4:45:00 AM 18.44 65.192 0.272 7.12 17.5 7.72
9/4/2023 5:00:00 AM 18.43 65.174 0.272 7.1 15.75 7.7
9/4/2023 5:15:00 AM 18.43 65.174 0.272 7.1 13.26 7.72
9/4/2023 5:30:00 AM 18.42 65.156 0.272 7.1 14.98 7.7
9/4/2023 5:45:00 AM 18.4 65.12 0.272 7.11 497.74 7.7
9/4/2023 6:00:00 AM 18.36 65.048 0.272 7.1 22.77 7.71
9/4/2023 6:15:00 AM 18.33 64.994 0.272 7.11 19.32 7.72
9/4/2023 6:30:00 AM 18.32 64.976 0.272 7.12 24.71 7.7
9/4/2023 6:45:00 AM 18.3 64.94 0.272 7.11 15.21 7.71
9/4/2023 7:00:00 AM 18.29 64.922 0.272 7.11 17.28 7.71
9/4/2023 7:15:00 AM 18.28 64.904 0.272 7.1 33.86 7.77
9/4/2023 7:30:00 AM 18.28 64.904 0.272 7.13 17.35 7.82
9/4/2023 7:45:00 AM 18.28 64.904 0.272 7.12 21.51 7.88
9/4/2023 8:00:00 AM 18.29 64.922 0.272 7.14 16.44 7.95
9/4/2023 8:15:00 AM 18.3 64.94 0.272 7.15 12.69 8.02
9/4/2023 8:30:00 AM 18.38 65.084 0.271 7.15 18.76 8.22
9/4/2023 8:45:00 AM 18.46 65.228 0.271 7.17 20.01 8.4
9/4/2023 9:00:00 AM 18.58 65.444 0.271 7.18 104.94 8.57
9/4/2023 9:15:00 AM 18.65 65.57 0.271 7.21 120.27 8.7
9/4/2023 9:30:00 AM 18.74 65.732 0.271 7.24 179.54 8.89
9/4/2023 9:45:00 AM 18.93 66.074 0.271 7.24 782.02 9.13
9/4/2023 10:00:00 AM 19.18 66.524 0.271 7.28 218.11 9.38
9/4/2023 10:15:00 AM 19.38 66.884 0.271 7.3 17.61 9.56
9/4/2023 10:30:00 AM 19.74 67.532 0.271 7.33 434.48 9.81
9/4/2023 10:45:00 AM 20.03 68.054 0.271 7.37 19.81 10
9/4/2023 11:00:00 AM 20.34 68.612 0.271 7.39 12.75 10.16
9/4/2023 11:15:00 AM 20.62 69.116 0.271 7.43 10.66 10.25
9/4/2023 11:30:00 AM 20.94 69.692 0.271 7.47 11.59 10.4
9/4/2023 11:45:00 AM 21.21 70.17799 0.271 7.51 13.83 10.49
9/4/2023 12:00:00 PM 21.53 70.754 0.27 7.54 13.36 10.6
9/4/2023 12:15:00 PM 21.6 70.88 0.271 7.57 13.37 10.52
9/4/2023 12:30:00 PM 21.73 71.114 0.27 7.57 12.8 10.49
9/4/2023 12:45:00 PM 22.22 71.996 0.271 7.63 12 10.73
9/4/2023 1:00:00 PM 22.34 72.212 0.271 7.66 13.88 10.74
9/4/2023 1:15:00 PM 22.49 72.482 0.271 7.68 11.54 10.75
9/4/2023 1:30:00 PM 23.02 73.436 0.27 7.74 12.59 10.94
9/4/2023 1:45:00 PM 23.3 73.94 0.271 7.81 12.12 10.96
9/4/2023 2:00:00 PM 23.42 74.156 0.271 7.81 12.26 10.89
9/4/2023 2:15:00 PM 23.54 74.372 0.271 7.83 12.13 10.87
9/4/2023 2:30:00 PM 23.91 75.038 0.271 7.86 14.39 10.97
9/4/2023 2:45:00 PM 24.21 75.578 0.271 7.9 12.7 11.04
9/4/2023 3:00:00 PM 24.3 75.74 0.271 7.91 11.98 10.93
9/4/2023 3:15:00 PM 24.4 75.92 0.271 7.93 15.66 10.86
9/4/2023 3:30:00 PM 24.44 75.992 0.271 7.91 25.64 10.73
9/4/2023 3:45:00 PM 24.52 76.136 0.269 7.94 21.59 10.73
9/4/2023 4:00:00 PM 24.66 76.388 0.271 7.94 32.7 10.74
9/4/2023 4:15:00 PM 24.76 76.568 0.272 7.96 18.06 10.71
9/4/2023 4:30:00 PM 24.81 76.658 0.279 7.94 406.27 10.64
9/4/2023 4:45:00 PM 24.75 76.55 0.269 7.93 27.8 10.5
9/4/2023 5:00:00 PM 24.69 76.442 0.277 7.91 122.89 10.43
9/4/2023 5:15:00 PM 24.57 76.226 0.275 7.91 119.63 10.26
9/4/2023 5:30:00 PM 24.4 75.92 0.274 7.86 1053.49 10.09
9/4/2023 5:45:00 PM 24.24 75.632 0.266 7.84 76.9 9.96
9/4/2023 6:00:00 PM 24.03 75.254 0.274 7.79 45.71 9.74
9/4/2023 6:15:00 PM 23.82 74.876 0.272 7.76 39.34 9.53
9/4/2023 6:30:00 PM 23.56 74.408 0.274 7.68 29.87 9.26
9/4/2023 6:45:00 PM 23.26 73.868 0.275 7.64 26.76 8.99
9/4/2023 7:00:00 PM 22.98 73.364 0.277 7.58 32.54 8.72
9/4/2023 7:15:00 PM 22.74 72.932 0.278 7.52 40.1 8.52
9/4/2023 7:30:00 PM 22.53 72.554 0.277 7.48 27.15 8.34
9/4/2023 7:45:00 PM 22.34 72.212 0.275 7.45 29.31 8.18
9/4/2023 8:00:00 PM 22.16 71.888 0.275 7.4 17.01 8.03
9/4/2023 8:15:00 PM 21.99 71.582 0.276 7.39 22.45 7.93
9/4/2023 8:30:00 PM 21.83 71.294 0.277 7.34 23.04 7.82
9/4/2023 8:45:00 PM 21.69 71.042 0.278 7.33 22.76 7.73
9/4/2023 9:00:00 PM 21.56 70.808 0.277 7.3 27.16 7.68
9/4/2023 9:15:00 PM 21.44 70.592 0.269 7.28 26.88 7.61
9/4/2023 9:30:00 PM 21.33 70.394 0.254 7.29 77.75 7.56
9/4/2023 9:45:00 PM 21.23 70.214 0.278 7.25 31.79 7.52
9/4/2023 10:00:00 PM 21.13 70.034 0.28 7.24 26.47 7.48
9/4/2023 10:15:00 PM 21.05 69.89 0.279 7.22 16.33 7.44
9/4/2023 10:30:00 PM 20.97 69.746 0.277 7.21 15.87 7.44
9/4/2023 10:45:00 PM 20.91 69.638 0.268 7.2 19.25 7.41
9/4/2023 11:00:00 PM 20.85 69.53 0.278 7.2 3808.58 7.39
9/4/2023 11:15:00 PM 20.78 69.404 0.278 7.2 22.19 7.39
9/4/2023 11:30:00 PM 20.7 69.26 0.278 7.19 23.35 7.38
9/4/2023 11:45:00 PM 20.63 69.134 0.267 7.17 19.39 7.36
9/5/2023 12:00:00 AM 20.55 68.99 0.265 7.19 14.38 7.37
9/5/2023 12:15:00 AM 20.47 68.846 0.265 7.19 16.24 7.35
9/5/2023 12:30:00 AM 20.39 68.702 0.266 7.18 91.19 7.36
9/5/2023 12:45:00 AM 20.3 68.54 0.273 7.18 54.53 7.36
9/5/2023 1:00:00 AM 20.2 68.36 0.245 7.16 25.05 7.37
9/5/2023 1:15:00 AM 20.11 68.198 0.237 7.17 20.86 7.37
9/5/2023 1:30:00 AM 20.02 68.036 0.231 7.16 23.67 7.38
9/5/2023 1:45:00 AM 19.95 67.91 0.232 7.15 24.97 7.39
9/5/2023 2:00:00 AM 19.85 67.73 0.232 7.14 21.56 7.39
9/5/2023 2:15:00 AM 19.75 67.55 0.231 7.15 16.44 7.4
9/5/2023 2:30:00 AM 19.66 67.388 0.225 7.13 16.28 7.4
9/5/2023 2:45:00 AM 19.56 67.208 0.226 7.13 16.36 7.42
9/5/2023 3:00:00 AM 19.47 67.046 0.241 7.14 17.53 7.43
9/5/2023 3:15:00 AM 19.38 66.884 0.213 7.12 19.61 7.44
9/5/2023 3:30:00 AM 19.29 66.722 0.214 7.12 17.78 7.45
9/5/2023 3:45:00 AM 19.2 66.56 0.212 7.12 15.52 7.47
9/5/2023 4:00:00 AM 19.12 66.416 0.207 7.12 16.14 7.47
9/5/2023 4:15:00 AM 19.04 66.272 0.225 7.11 18.05 7.48
9/5/2023 4:30:00 AM 18.97 66.146 0.229 7.12 15.44 7.49
9/5/2023 4:45:00 AM 18.9 66.02 0.262 7.13 15.36 7.49
9/5/2023 5:00:00 AM 18.84 65.912 0.224 7.1 20.53 7.5
9/5/2023 5:15:00 AM 18.78 65.804 0.227 7.1 19.98 7.49
9/5/2023 5:30:00 AM 18.72 65.696 0.221 7.11 16.03 7.51
9/5/2023 5:45:00 AM 18.66 65.588 0.222 7.12 23.09 7.51
9/5/2023 6:00:00 AM 18.61 65.498 0.206 7.11 14.4 7.5
9/5/2023 6:15:00 AM 18.55 65.39 0.21 7.09 20.27 7.54
9/5/2023 6:30:00 AM 18.51 65.318 0.208 7.11 18.52 7.54
9/5/2023 6:45:00 AM 18.47 65.246 0.211 7.09 16.46 7.54
9/5/2023 7:00:00 AM 18.43 65.174 0.225 7.11 67.27 7.57
9/5/2023 7:15:00 AM 18.4 65.12 0.218 7.09 14.64 7.63
9/5/2023 7:30:00 AM 18.38 65.084 0.221 7.1 14.23 7.7
9/5/2023 7:45:00 AM 18.38 65.084 0.221 7.11 21.84 7.8
9/5/2023 8:00:00 AM 18.4 65.12 0.222 7.12 17 7.94
9/5/2023 8:15:00 AM 18.45 65.21 0.227 7.13 14.94 8.09
9/5/2023 8:30:00 AM 18.51 65.318 0.283 7.16 150.74 8.24
9/5/2023 8:45:00 AM 18.6 65.48 0.282 7.18 14.25 8.42
9/5/2023 9:00:00 AM 18.73 65.714 0.282 7.18 15.37 8.63
9/5/2023 9:15:00 AM 18.9 66.02 0.282 7.2 23.24 8.85
9/5/2023 9:30:00 AM 19.09 66.362 0.282 7.23 26.6 9.06
9/5/2023 9:45:00 AM 19.31 66.758 0.282 7.26 18.61 9.26
9/5/2023 10:00:00 AM 19.51 67.118 0.263 7.29 26.3 9.38
9/5/2023 10:15:00 AM 19.69 67.442 0.259 7.33 22.38 9.48
9/5/2023 10:30:00 AM 20.03 68.054 0.252 7.33 17.61 9.75
9/5/2023 10:45:00 AM 20.31 68.558 0.281 7.38 16.91 9.82
9/5/2023 11:00:00 AM 20.53 68.954 0.281 7.38 24.09 9.86
9/5/2023 11:15:00 AM 20.76 69.368 0.281 7.41 21.74 10.01
9/5/2023 11:30:00 AM 21.18 70.124 0.28 7.46 35.46 10.23
9/5/2023 11:45:00 AM 21.4 70.52 0.279 7.47 18.92 10.26
9/5/2023 12:00:00 PM 21.78 71.204 0.28 7.51 26.36 10.47
9/5/2023 12:15:00 PM 22.06 71.708 0.28 7.55 23.34 10.53
9/5/2023 12:30:00 PM 22.27 72.086 0.28 7.57 14.36 10.54
9/5/2023 12:45:00 PM 22.47 72.446 0.28 7.62 387.35 10.6
9/5/2023 1:00:00 PM 22.75 72.95 0.28 7.65 63.44 10.65
9/5/2023 1:15:00 PM 22.96 73.328 0.28 7.67 16.61 10.69
9/5/2023 1:30:00 PM 23.2 73.76 0.28 7.7 13.57 10.79
9/5/2023 1:45:00 PM 23.2 73.76 0.28 7.76 19.33 10.78
9/5/2023 2:00:00 PM 23.53 74.354 0.28 7.79 14.99 10.92
9/5/2023 2:15:00 PM 23.89 75.002 0.28 7.8 13.13 10.98
9/5/2023 2:30:00 PM 23.94 75.092 0.28 7.83 26.6 10.88
9/5/2023 2:45:00 PM 24.33 75.794 0.279 7.85 19.2 11
9/5/2023 3:00:00 PM 24.49 76.082 0.279 7.89 28.64 11
9/5/2023 3:15:00 PM 24.34 75.812 0.279 7.87 32.33 10.76
9/5/2023 3:30:00 PM 24.38 75.884 0.28 7.88 24.81 10.76
9/5/2023 3:45:00 PM 24.51 76.118 0.271 7.91 44.04 10.8
9/5/2023 4:00:00 PM 24.52 76.136 0.28 7.9 13.57 10.72
9/5/2023 4:15:00 PM 24.59 76.262 0.28 7.92 33.11 10.68
9/5/2023 4:30:00 PM 24.61 76.298 0.288 7.91 18.47 10.66
9/5/2023 4:45:00 PM 24.64 76.352 0.28 7.9 13.69 10.57
9/5/2023 5:00:00 PM 24.58 76.244 0.28 7.87 13.55 10.42
9/5/2023 5:15:00 PM 24.48 76.064 0.28 7.86 12.38 10.26
9/5/2023 5:30:00 PM 24.36 75.848 0.28 7.83 11.88 10.11
9/5/2023 5:45:00 PM 24.19 75.542 0.28 7.8 23.96 9.9
9/5/2023 6:00:00 PM 23.99 75.182 0.281 7.76 14.38 9.7
9/5/2023 6:30:00 PM 23.53 74.354 0.281 7.66 12.67 9.17
9/5/2023 6:45:00 PM 23.27 73.886 0.281 7.62 12.89 8.87
9/5/2023 7:00:00 PM 23.02 73.436 0.282 7.55 16.04 8.62
9/5/2023 7:15:00 PM 22.79 73.022 0.307 7.52 29.53 8.43
9/5/2023 7:30:00 PM 22.57 72.626 0.29 7.48 49.38 8.24
9/5/2023 7:45:00 PM 22.37 72.266 0.286 7.47 15.16 8.07
9/5/2023 8:00:00 PM 22.2 71.96 0.285 7.42 16.13 7.93
9/5/2023 8:15:00 PM 22.02 71.636 0.284 7.39 13.96 7.82
9/5/2023 8:30:00 PM 21.87 71.366 0.29 7.36 21.5 7.73
9/5/2023 8:45:00 PM 21.72 71.096 0.284 7.34 12.06 7.65
9/5/2023 9:00:00 PM 21.59 70.862 0.284 7.31 12.42 7.6
9/5/2023 9:15:00 PM 21.47 70.646 0.285 7.3 13.47 7.53
9/5/2023 9:30:00 PM 21.35 70.43 0.285 7.29 12.36 7.5
9/5/2023 9:45:00 PM 21.24 70.232 0.285 7.3 12.25 7.44
9/5/2023 10:00:00 PM 21.14 70.052 0.286 7.26 13 7.41
9/5/2023 10:15:00 PM 21.05 69.89 0.286 7.25 13.76 7.38
9/5/2023 10:30:00 PM 20.97 69.746 0.286 7.23 13.19 7.36
9/5/2023 10:45:00 PM 20.88 69.584 0.286 7.22 17 7.34
9/5/2023 11:00:00 PM 20.8 69.44 0.286 7.21 21.66 7.32
9/5/2023 11:15:00 PM 20.72 69.296 0.287 7.21 15.74 7.3
9/5/2023 11:30:00 PM 20.65 69.17 0.287 7.21 17.58 7.31
9/5/2023 11:45:00 PM 20.57 69.026 0.273 7.22 18.91 7.31
9/6/2023 12:00:00 AM 20.49 68.882 0.257 7.21 16.12 7.31
9/6/2023 12:15:00 AM 20.41 68.738 0.257 7.18 16.51 7.3
9/6/2023 12:30:00 AM 20.33 68.594 0.257 7.21 18.75 7.31
9/6/2023 12:45:00 AM 20.25 68.45 0.258 7.19 25.4 7.31
9/6/2023 1:00:00 AM 20.17 68.306 0.258 7.2 15.97 7.31
9/6/2023 1:15:00 AM 20.08 68.144 0.258 7.18 27.56 7.32
9/6/2023 1:30:00 AM 19.99 67.982 0.261 7.19 32.12 7.31
9/6/2023 1:45:00 AM 19.9 67.82 0.289 7.17 87.32 7.33
9/6/2023 2:00:00 AM 19.81 67.658 0.289 7.19 30.9 7.33
9/6/2023 2:15:00 AM 19.71 67.478 0.289 7.18 16.06 7.34
9/6/2023 2:30:00 AM 19.62 67.316 0.289 7.17 21.98 7.35
9/6/2023 2:45:00 AM 19.52 67.136 0.29 7.18 19.21 7.35
9/6/2023 3:00:00 AM 19.43 66.974 0.29 7.17 28.5 7.37
9/6/2023 3:15:00 AM 19.34 66.812 0.29 7.17 33.13 7.38
9/6/2023 3:30:00 AM 19.24 66.632 0.29 7.17 28.41 7.41
9/6/2023 3:45:00 AM 19.16 66.488 0.291 7.17 25.19 7.41
9/6/2023 4:00:00 AM 19.08 66.344 0.291 7.16 27.89 7.41
9/6/2023 4:15:00 AM 19 66.2 0.29 7.13 26.88 7.43
9/6/2023 4:30:00 AM 18.93 66.074 0.291 7.15 24.22 7.42
9/6/2023 4:45:00 AM 18.85 65.93 0.291 7.16 220.51 7.43
9/6/2023 5:00:00 AM 18.78 65.804 0.291 7.16 26.4 7.47
9/6/2023 5:15:00 AM 18.71 65.67799 0.291 7.14 332.89 7.47
9/6/2023 5:30:00 AM 18.65 65.57 0.291 7.16 44.24 7.47
9/6/2023 5:45:00 AM 18.58 65.444 0.291 7.13 63.76 7.48
9/6/2023 6:00:00 AM 18.52 65.336 0.291 7.14 59.72 7.49
9/6/2023 6:15:00 AM 18.47 65.246 0.291 7.12 24.79 7.48
9/6/2023 6:30:00 AM 18.42 65.156 0.291 7.14 40.56 7.5
9/6/2023 6:45:00 AM 18.37 65.066 0.291 7.12 32.16 7.51
9/6/2023 7:00:00 AM 18.33 64.994 0.291 7.12 346.33 7.54
9/6/2023 7:15:00 AM 18.29 64.922 0.291 7.16 50.29 7.59
9/6/2023 7:30:00 AM 18.27 64.886 0.291 7.12 147.03 7.66
9/6/2023 7:45:00 AM 18.27 64.886 0.291 7.17 64.89 7.76
9/6/2023 8:00:00 AM 18.3 64.94 0.291 7.15 41.83 7.9
9/6/2023 8:15:00 AM 18.34 65.012 0.291 7.16 212.17 8.06
9/6/2023 8:30:00 AM 18.4 65.12 0.291 7.18 25.23 8.21
9/6/2023 8:45:00 AM 18.49 65.282 0.291 7.19 88.36 8.4
9/6/2023 9:00:00 AM 18.61 65.498 0.29 7.22 161.45 8.6
9/6/2023 9:15:00 AM 18.77 65.786 0.288 7.26 17.05 8.83
9/6/2023 9:30:00 AM 18.96 66.128 0.288 7.25 116.62 9.06
9/6/2023 9:45:00 AM 19.16 66.488 0.29 7.27 15.7 9.25
9/6/2023 10:00:00 AM 19.4 66.92 0.29 7.3 433.42 9.44
9/6/2023 10:15:00 AM 19.63 67.334 0.29 7.33 21.05 9.62
9/6/2023 10:30:00 AM 19.91 67.838 0.29 7.36 3802.02 9.79
9/6/2023 10:45:00 AM 20.14 68.252 0.29 7.38 399.71 9.91
9/6/2023 11:00:00 AM 20.46 68.828 0.29 7.41 30.9 10.09
9/6/2023 11:15:00 AM 20.73 69.314 0.29 7.44 23.7 10.17
9/6/2023 11:30:00 AM 20.82 69.476 0.29 7.44 38.49 10.08
9/6/2023 11:45:00 AM 21.08 69.944 0.29 7.49 36.25 10.15
9/6/2023 12:00:00 PM 21.4 70.52 0.288 7.5 23.99 10.32
9/6/2023 12:15:00 PM 21.55 70.79 0.29 7.55 30.94 10.36
9/6/2023 12:30:00 PM 22.1 71.78 0.29 7.6 16.67 10.66
9/6/2023 12:45:00 PM 22.4 72.32 0.29 7.63 45.95 10.74
9/6/2023 1:00:00 PM 22.4 72.32 0.29 7.66 67.21 10.58
9/6/2023 1:15:00 PM 22.65 72.77 0.29 7.65 15.18 10.68
9/6/2023 1:30:00 PM 22.89 73.202 0.29 7.69 21.31 10.73
9/6/2023 1:45:00 PM 23.19 73.742 0.279 7.76 14.01 10.86
9/6/2023 2:00:00 PM 23.48 74.264 0.278 7.77 15.14 10.92
9/6/2023 2:15:00 PM 23.5 74.3 0.287 7.8 21.86 10.81
9/6/2023 2:30:00 PM 23.65 74.57 0.28 7.8 15.28 10.79
9/6/2023 2:45:00 PM 24.03 75.254 0.279 7.85 26.79 10.96
9/6/2023 3:00:00 PM 24.07 75.326 0.271 7.85 15.17 10.85
9/6/2023 3:15:00 PM 24.27 75.686 0.268 7.88 21.3 10.87
9/6/2023 3:30:00 PM 24.51 76.118 0.267 7.9 39.37 10.93
9/6/2023 3:45:00 PM 24.7 76.46 0.266 7.93 73.04 10.93
9/6/2023 4:00:00 PM 24.81 76.658 0.265 7.95 28.52 10.89
9/6/2023 4:15:00 PM 24.87 76.766 0.266 7.94 195.17 10.8
9/6/2023 4:30:00 PM 24.96 76.92799 0.262 7.95 18.53 10.76
9/6/2023 4:45:00 PM 24.97 76.946 0.262 7.94 20.52 10.64
9/6/2023 5:00:00 PM 24.93 76.874 0.261 7.93 20.94 10.5
9/6/2023 5:15:00 PM 24.83 76.694 0.264 7.88 51.23 10.3
9/6/2023 5:30:00 PM 24.6 76.28 0.264 7.85 26.54 10.01
9/6/2023 5:45:00 PM 24.46 76.028 0.264 7.82 23.92 9.81
9/6/2023 6:00:00 PM 24.28 75.704 0.265 7.76 24.18 9.6
9/6/2023 6:15:00 PM 24.08 75.344 0.265 7.73 15.13 9.37
9/6/2023 6:30:00 PM 23.84 74.912 0.265 7.69 30.93 9.14
9/6/2023 6:45:00 PM 23.59 74.462 0.265 7.64 27.81 8.88
9/6/2023 7:00:00 PM 23.36 74.048 0.245 7.58 15.86 8.61
9/6/2023 7:15:00 PM 23.15 73.67 0.27 7.53 16.29 8.39
9/6/2023 7:30:00 PM 22.94 73.292 0.268 7.49 27.22 8.18
9/6/2023 7:45:00 PM 22.73 72.914 0.265 7.45 17.35 8
9/6/2023 8:00:00 PM 22.54 72.57201 0.268 7.43 17.12 7.85
9/6/2023 8:15:00 PM 22.35 72.23 0.271 7.4 16.04 7.73
9/6/2023 8:30:00 PM 22.18 71.924 0.272 7.37 35.44 7.63
9/6/2023 8:45:00 PM 22.02 71.636 0.272 7.35 21.17 7.55
9/6/2023 9:00:00 PM 21.87 71.366 0.27 7.33 18.41 7.48
9/6/2023 9:15:00 PM 21.73 71.114 0.27 7.32 24.59 7.42
9/6/2023 9:30:00 PM 21.59 70.862 0.271 7.28 17.71 7.38
9/6/2023 9:45:00 PM 21.47 70.646 0.269 7.29 18.1 7.34
9/6/2023 10:00:00 PM 21.35 70.43 0.268 7.28 30.45 7.29
9/6/2023 10:15:00 PM 21.24 70.232 0.268 7.27 16.73 7.25
9/6/2023 10:30:00 PM 21.13 70.034 0.268 7.27 22.27 7.24
9/6/2023 10:45:00 PM 21.04 69.872 0.269 7.24 35.26 7.22
9/6/2023 11:00:00 PM 20.96 69.728 0.269 7.25 18.39 7.19
9/6/2023 11:15:00 PM 20.88 69.584 0.269 7.22 20.75 7.18
9/6/2023 11:30:00 PM 20.8 69.44 0.27 7.23 26.36 7.19
9/6/2023 11:45:00 PM 20.73 69.314 0.27 7.23 16.61 7.17
9/7/2023 12:00:00 AM 20.66 69.188 0.27 7.22 18.2 7.17
9/7/2023 12:15:00 AM 20.59 69.062 0.271 7.21 17.87 7.15
9/7/2023 12:30:00 AM 20.52 68.936 0.27 7.21 18.37 7.15
9/7/2023 12:45:00 AM 20.45 68.81 0.27 7.21 36.73 7.15
9/7/2023 1:00:00 AM 20.38 68.684 0.272 7.21 26.72 7.16
9/7/2023 1:15:00 AM 20.31 68.558 0.278 7.2 17.25 7.13
9/7/2023 1:30:00 AM 20.24 68.432 0.276 7.2 31.44 7.16
9/7/2023 1:45:00 AM 20.16 68.288 0.276 7.2 20.86 7.16
9/7/2023 2:00:00 AM 20.08 68.144 0.275 7.19 45.36 7.16
9/7/2023 2:15:00 AM 20 68 0.276 7.19 147.88 7.18
9/7/2023 2:30:00 AM 19.92 67.856 0.276 7.18 36.38 7.18
9/7/2023 2:45:00 AM 19.83 67.694 0.275 7.19 57.75 7.19
9/7/2023 3:00:00 AM 19.75 67.55 0.276 7.18 45.08 7.18
9/7/2023 3:15:00 AM 19.67 67.406 0.276 7.18 123.14 7.2
9/7/2023 3:30:00 AM 19.59 67.262 0.277 7.18 310.07 7.21
9/7/2023 3:45:00 AM 19.51 67.118 0.279 7.17 19.74 7.22
9/7/2023 4:00:00 AM 19.43 66.974 0.273 7.17 34.76 7.22
9/7/2023 4:15:00 AM 19.35 66.83 0.263 7.14 20.94 7.25
9/7/2023 4:30:00 AM 19.26 66.668 0.252 7.13 24.96 7.26
9/7/2023 4:45:00 AM 19.18 66.524 0.257 7.15 19.5 7.28
9/7/2023 5:00:00 AM 19.11 66.398 0.26 7.14 17.68 7.28
9/7/2023 5:15:00 AM 19.04 66.272 0.262 7.13 16.04 7.3
9/7/2023 5:30:00 AM 18.98 66.164 0.259 7.13 17.15 7.31
9/7/2023 5:45:00 AM 18.92 66.056 0.25 7.13 15.31 7.3
9/7/2023 6:00:00 AM 18.86 65.948 0.254 7.13 15.83 7.33
9/7/2023 6:15:00 AM 18.81 65.858 0.245 7.12 16.09 7.33
9/7/2023 6:30:00 AM 18.75 65.75 0.243 7.14 27.44 7.34
9/7/2023 6:45:00 AM 18.69 65.642 0.243 7.14 18.57 7.35
9/7/2023 7:00:00 AM 18.65 65.57 0.241 7.13 18.45 7.38
9/7/2023 7:15:00 AM 18.61 65.498 0.242 7.12 18.91 7.43
9/7/2023 7:30:00 AM 18.59 65.462 0.239 7.13 18.39 7.53
9/7/2023 7:45:00 AM 18.58 65.444 0.242 7.14 16.63 7.64
9/7/2023 8:00:00 AM 18.6 65.48 0.239 7.16 16.47 7.8
9/7/2023 8:15:00 AM 18.63 65.534 0.219 7.16 108.03 7.92
9/7/2023 8:30:00 AM 18.69 65.642 0.206 7.19 56.1 8.11
9/7/2023 8:45:00 AM 18.79 65.82201 0.243 7.17 47.2 8.31
9/7/2023 9:00:00 AM 18.92 66.056 0.233 7.2 30.64 8.51
9/7/2023 9:15:00 AM 19.1 66.38 0.251 7.23 26.56 8.74
9/7/2023 9:30:00 AM 19.28 66.704 0.25 7.27 45.63 8.94
9/7/2023 9:45:00 AM 19.49 67.082 0.278 7.26 62.38 9.04
9/7/2023 10:00:00 AM 19.71 67.478 0.297 7.28 87.45 9.28
9/7/2023 10:15:00 AM 19.93 67.874 0.296 7.33 20.64 9.5
9/7/2023 10:30:00 AM 20.21 68.378 0.291 7.36 20.48 9.69
9/7/2023 10:45:00 AM 20.33 68.594 0.289 7.38 34.51 9.72
9/7/2023 11:00:00 AM 20.44 68.792 0.296 7.4 34.01 9.8
9/7/2023 11:15:00 AM 20.57 69.026 0.296 7.43 37.43 9.9
9/7/2023 11:30:00 AM 20.57 69.026 0.296 7.44 16.96 9.78
9/7/2023 11:45:00 AM 20.6 69.08 0.296 7.46 12.25 9.8
9/7/2023 12:00:00 PM 20.79 69.422 0.295 7.47 13.49 10.03
9/7/2023 12:15:00 PM 21.09 69.962 0.291 7.54 12.57 10.34
9/7/2023 12:30:00 PM 21.29 70.32201 0.289 7.59 12.43 10.51
9/7/2023 12:45:00 PM 21.19 70.142 0.288 7.56 14.21 10.13
9/7/2023 1:00:00 PM 20.96 69.728 0.279 7.54 13 9.47
9/7/2023 1:15:00 PM 21.79 71.222 0.194 7.46 174.63 8.75
9/7/2023 1:30:00 PM 21.38 70.484 0.256 7.42 60.68 8.92
9/7/2023 1:45:00 PM 20.72 69.296 0.289 7.47 84.32 8.83
9/7/2023 2:00:00 PM 20.97 69.746 0.259 7.45 38.06 8.67
9/7/2023 2:15:00 PM 21.23 70.214 0.249 7.41 52.79 8.68
9/7/2023 2:30:00 PM 21.4 70.52 0.246 7.4 37.06 8.71
9/7/2023 2:45:00 PM 21.46 70.628 0.248 7.41 34.6 8.8
9/7/2023 3:00:00 PM 21.58 70.844 0.251 7.41 29.95 8.96
9/7/2023 3:15:00 PM 21.64 70.952 0.253 7.42 27.06 9.1
9/7/2023 3:30:00 PM 21.83 71.294 0.255 7.43 27.82 9.32
9/7/2023 3:45:00 PM 22.14 71.852 0.259 7.45 23.5 9.54
9/7/2023 4:00:00 PM 22.27 72.086 0.265 7.45 23.71 9.64
9/7/2023 4:15:00 PM 22.3 72.14 0.273 7.49 23.89 9.69
9/7/2023 4:30:00 PM 22.19 71.942 0.279 7.48 19.92 9.66
9/7/2023 4:45:00 PM 22.18 71.924 0.286 7.5 19.8 9.7
9/7/2023 5:00:00 PM 22.13 71.834 0.295 7.52 17.48 9.76
9/7/2023 5:15:00 PM 22.08 71.744 0.3 7.54 17.52 9.72
9/7/2023 5:30:00 PM 22.05 71.69 0.3 7.54 21.22 9.64
9/7/2023 5:45:00 PM 22.06 71.708 0.298 7.54 27.59 9.54
9/7/2023 6:00:00 PM 21.98 71.564 0.295 7.51 30.82 9.34
9/7/2023 6:15:00 PM 21.91 71.438 0.293 7.47 32.96 9.17
9/7/2023 6:30:00 PM 21.8 71.24 0.291 7.45 27.7 9.01
9/7/2023 6:45:00 PM 21.66 70.988 0.29 7.45 22.09 8.84
9/7/2023 7:00:00 PM 21.51 70.718 0.29 7.42 23.22 8.66
9/7/2023 7:15:00 PM 21.36 70.448 0.29 7.39 22.82 8.48
9/7/2023 7:30:00 PM 21.22 70.196 0.29 7.36 20.34 8.31
9/7/2023 7:45:00 PM 21.09 69.962 0.29 7.34 50.34 8.17
9/7/2023 8:00:00 PM 20.97 69.746 0.289 7.32 16.62 8.05
9/7/2023 8:15:00 PM 20.85 69.53 0.288 7.3 19.02 7.94
9/7/2023 8:30:00 PM 20.73 69.314 0.287 7.31 20.44 7.89
9/7/2023 8:45:00 PM 20.77 69.386 0.276 7.3 27.56 7.82
9/7/2023 9:00:00 PM 20.94 69.692 0.263 7.26 25.87 7.69
9/7/2023 9:15:00 PM 20.67 69.206 0.276 7.26 20.52 7.62
9/7/2023 9:30:00 PM 20.4 68.72 0.288 7.26 20.23 7.63
9/7/2023 9:45:00 PM 20.36 68.648 0.284 7.25 19.63 7.54
9/7/2023 10:00:00 PM 20.37 68.666 0.278 7.25 20.05 7.47
9/7/2023 10:15:00 PM 20.37 68.666 0.274 7.21 23.72 7.41
9/7/2023 10:30:00 PM 20.35 68.63 0.273 7.22 18.08 7.36
9/7/2023 10:45:00 PM 20.3 68.54 0.273 7.22 17.74 7.36
9/7/2023 11:00:00 PM 20.24 68.432 0.274 7.2 18.85 7.33
9/7/2023 11:15:00 PM 20.19 68.342 0.275 7.2 19.48 7.34
9/7/2023 11:30:00 PM 20.13 68.234 0.276 7.2 17.92 7.34
9/7/2023 11:45:00 PM 20.07 68.126 0.277 7.21 17.07 7.33
9/8/2023 12:00:00 AM 20.01 68.018 0.277 7.21 19.84 7.32
9/8/2023 12:15:00 AM 19.95 67.91 0.278 7.19 16.4 7.34
9/8/2023 12:30:00 AM 19.88 67.784 0.278 7.19 16.62 7.35
9/8/2023 12:45:00 AM 19.82 67.676 0.278 7.19 17.74 7.35
9/8/2023 1:00:00 AM 19.74 67.532 0.279 7.18 193.67 7.34
9/8/2023 1:15:00 AM 19.68 67.424 0.278 7.17 18.79 7.36
9/8/2023 1:30:00 AM 19.61 67.298 0.279 7.17 17.27 7.36
9/8/2023 1:45:00 AM 19.53 67.154 0.279 7.19 17.02 7.38
9/8/2023 2:00:00 AM 19.48 67.064 0.279 7.18 17.04 7.39
9/8/2023 2:15:00 AM 19.41 66.938 0.279 7.18 19.1 7.39
9/8/2023 2:30:00 AM 19.34 66.812 0.279 7.17 19.03 7.38
9/8/2023 2:45:00 AM 19.27 66.686 0.28 7.16 18.55 7.38
9/8/2023 3:00:00 AM 19.19 66.542 0.28 7.19 22.05 7.4
9/8/2023 3:15:00 AM 19.13 66.434 0.28 7.15 19.15 7.4
9/8/2023 3:30:00 AM 19.1 66.38 0.281 7.16 19.39 7.4
9/8/2023 3:45:00 AM 19.07 66.326 0.281 7.16 18.54 7.41
9/8/2023 4:00:00 AM 19.04 66.272 0.282 7.17 17.43 7.42
9/8/2023 4:15:00 AM 19.02 66.236 0.282 7.17 16.4 7.41
9/8/2023 4:30:00 AM 18.99 66.182 0.283 7.15 23.33 7.41
9/8/2023 4:45:00 AM 18.97 66.146 0.283 7.16 18.23 7.41
9/8/2023 5:00:00 AM 18.95 66.11 0.284 7.16 17.16 7.41
9/8/2023 5:15:00 AM 18.92 66.056 0.285 7.15 19.42 7.41
9/8/2023 5:30:00 AM 18.87 65.966 0.285 7.15 17.38 7.42
9/8/2023 5:45:00 AM 18.84 65.912 0.286 7.16 15.9 7.41
9/8/2023 6:00:00 AM 18.82 65.876 0.286 7.17 19.44 7.42
9/8/2023 6:15:00 AM 18.8 65.84 0.287 7.15 17.61 7.42
9/8/2023 6:30:00 AM 18.77 65.786 0.287 7.15 19.71 7.43
9/8/2023 6:45:00 AM 18.76 65.768 0.288 7.15 19.18 7.44
9/8/2023 7:00:00 AM 18.74 65.732 0.288 7.15 15.56 7.44
9/8/2023 7:15:00 AM 18.73 65.714 0.289 7.17 17.22 7.45
9/8/2023 7:30:00 AM 18.72 65.696 0.289 7.16 140.89 7.48
9/8/2023 7:45:00 AM 18.73 65.714 0.29 7.14 16.41 7.53
9/8/2023 8:00:00 AM 18.77 65.786 0.29 7.16 15.75 7.7
9/8/2023 8:15:00 AM 18.81 65.858 0.29 7.18 14.51 7.82
9/8/2023 8:30:00 AM 18.83 65.894 0.29 7.18 13.08 7.98
9/8/2023 8:45:00 AM 18.91 66.038 0.29 7.21 16.17 8.17
9/8/2023 9:00:00 AM 18.95 66.11 0.291 7.21 19.14 8.22
9/8/2023 9:15:00 AM 19.07 66.326 0.291 7.24 13.89 8.49
9/8/2023 9:30:00 AM 19.3 66.74 0.291 7.28 11.92 8.82
9/8/2023 9:45:00 AM 19.38 66.884 0.291 7.29 12.12 8.99
9/8/2023 10:00:00 AM 19.59 67.262 0.291 7.32 12.91 9.23
9/8/2023 10:15:00 AM 19.68 67.424 0.291 7.35 13.21 9.35
9/8/2023 10:30:00 AM 19.76 67.568 0.291 7.36 11.35 9.43
9/8/2023 10:45:00 AM 19.91 67.838 0.291 7.39 10.51 9.54
9/8/2023 11:00:00 AM 20.22 68.396 0.291 7.42 11.24 9.83
9/8/2023 11:15:00 AM 20.39 68.702 0.291 7.45 11.72 9.89
9/8/2023 11:30:00 AM 20.4 68.72 0.291 7.46 10.22 9.89
9/8/2023 11:45:00 AM 20.74 69.332 0.291 7.48 9.37 10.05
9/8/2023 12:00:00 PM 20.97 69.746 0.29 7.51 10.43 10.23
9/8/2023 12:15:00 PM 21.25 70.25 0.29 7.56 10.36 10.43
9/8/2023 12:30:00 PM 21.69 71.042 0.29 7.6 12.05 10.63
9/8/2023 12:45:00 PM 22.04 71.672 0.29 7.65 13.61 10.71
9/8/2023 1:00:00 PM 22.25 72.05 0.289 7.66 10.87 10.69
9/8/2023 1:15:00 PM 22.44 72.392 0.289 7.66 10.73 10.63
9/8/2023 1:30:00 PM 22.48 72.464 0.292 7.66 10.83 10.48
9/8/2023 1:45:00 PM 22.71 72.878 0.291 7.69 11.85 10.58
9/8/2023 2:00:00 PM 22.72 72.896 0.291 7.71 11.03 10.57
9/8/2023 2:15:00 PM 22.75 72.95 0.292 7.72 10.23 10.62
9/8/2023 2:30:00 PM 22.63 72.734 0.291 7.7 11.5 10.34
9/8/2023 2:45:00 PM 22.59 72.662 0.291 7.68 11.66 10.32
9/8/2023 3:00:00 PM 22.58 72.644 0.288 7.72 9.85 10.37
9/8/2023 3:15:00 PM 22.74 72.932 0.29 7.74 9.89 10.54
9/8/2023 3:30:00 PM 22.73 72.914 0.288 7.77 11.15 10.57
9/8/2023 3:45:00 PM 22.71 72.878 0.284 7.74 12.45 10.41
9/8/2023 4:00:00 PM 22.67 72.806 0.285 7.71 11.31 10.17
9/8/2023 4:15:00 PM 22.66 72.788 0.285 7.69 11.02 10.06
9/8/2023 4:30:00 PM 22.79 73.022 0.284 7.72 10.27 10.24
9/8/2023 4:45:00 PM 22.59 72.662 0.284 7.66 14.06 9.88
9/8/2023 5:00:00 PM 22.49 72.482 0.285 7.64 12.33 9.73
9/8/2023 5:15:00 PM 22.42 72.356 0.285 7.64 17.13 9.71
9/8/2023 5:30:00 PM 22.43 72.374 0.284 7.63 10.67 9.78
9/8/2023 5:45:00 PM 22.32 72.176 0.285 7.61 10.36 9.63
9/8/2023 6:00:00 PM 22.16 71.888 0.285 7.58 11.64 9.37
9/8/2023 6:15:00 PM 22.07 71.726 0.285 7.55 11.65 9.29
9/8/2023 6:30:00 PM 21.97 71.546 0.285 7.56 11.54 9.28
9/8/2023 6:45:00 PM 21.83 71.294 0.286 7.52 11.01 9.17
9/8/2023 7:00:00 PM 21.68 71.024 0.286 7.5 11.35 8.96
9/8/2023 7:15:00 PM 21.54 70.772 0.287 7.47 11.15 8.71
9/8/2023 7:30:00 PM 21.41 70.538 0.287 7.43 11.48 8.5
9/8/2023 7:45:00 PM 21.28 70.304 0.288 7.39 11.03 8.33
9/8/2023 8:00:00 PM 21.17 70.106 0.288 7.35 14.46 8.16
9/8/2023 8:15:00 PM 21.07 69.926 0.289 7.34 11.66 8.03
9/8/2023 8:30:00 PM 20.98 69.764 0.289 7.31 12.09 7.9
9/8/2023 8:45:00 PM 20.89 69.602 0.289 7.32 11.41 7.83
9/8/2023 9:00:00 PM 20.82 69.476 0.289 7.29 12.24 7.74
9/8/2023 9:15:00 PM 20.74 69.332 0.29 7.28 12.93 7.69
9/8/2023 9:30:00 PM 20.67 69.206 0.291 7.25 12.74 7.64
9/8/2023 9:45:00 PM 20.61 69.098 0.29 7.24 12.5 7.59
9/8/2023 10:00:00 PM 20.54 68.972 0.29 7.24 19.6 7.55
9/8/2023 10:15:00 PM 20.49 68.882 0.287 7.23 17.84 7.51
9/8/2023 10:30:00 PM 20.54 68.972 0.279 7.22 12.42 7.48
9/8/2023 10:45:00 PM 20.62 69.116 0.27 7.25 15.18 7.47
9/8/2023 11:00:00 PM 20.66 69.188 0.264 7.25 13.27 7.47
9/8/2023 11:15:00 PM 20.66 69.188 0.261 7.28 14.89 7.49
9/8/2023 11:30:00 PM 20.62 69.116 0.26 7.26 16.61 7.51
9/8/2023 11:45:00 PM 20.54 68.972 0.259 7.28 11.85 7.53
9/9/2023 12:00:00 AM 20.43 68.774 0.26 7.27 15.05 7.54
9/9/2023 12:15:00 AM 20.33 68.594 0.26 7.27 14.48 7.55
9/9/2023 12:30:00 AM 20.24 68.432 0.261 7.27 14.08 7.54
9/9/2023 12:45:00 AM 20.15 68.27 0.261 7.26 15.29 7.55
9/9/2023 1:00:00 AM 20.07 68.126 0.262 7.25 13.3 7.54
9/9/2023 1:15:00 AM 19.99 67.982 0.263 7.26 14.78 7.54
9/9/2023 1:30:00 AM 19.93 67.874 0.263 7.26 14.62 7.55
9/9/2023 1:45:00 AM 19.87 67.766 0.264 7.24 13.5 7.55
9/9/2023 2:00:00 AM 19.82 67.676 0.264 7.24 15.7 7.55
9/9/2023 2:15:00 AM 19.76 67.568 0.265 7.25 13.31 7.57
9/9/2023 2:30:00 AM 19.73 67.514 0.265 7.24 17.2 7.56
9/9/2023 2:45:00 AM 19.7 67.46 0.265 7.24 15.28 7.56
9/9/2023 3:00:00 AM 19.68 67.424 0.266 7.23 13.87 7.57
9/9/2023 3:15:00 AM 19.67 67.406 0.266 7.23 32.22 7.57
9/9/2023 3:30:00 AM 19.65 67.37 0.267 7.25 14.95 7.56
9/9/2023 3:45:00 AM 19.64 67.352 0.267 7.24 16.49 7.56
9/9/2023 4:00:00 AM 19.62 67.316 0.267 7.23 14.09 7.56
9/9/2023 4:15:00 AM 19.6 67.28 0.268 7.23 15.7 7.56
9/9/2023 4:30:00 AM 19.59 67.262 0.269 7.24 16.52 7.56
9/9/2023 4:45:00 AM 19.58 67.244 0.269 7.22 13.41 7.56
9/9/2023 5:00:00 AM 19.58 67.244 0.27 7.24 15.32 7.55
9/9/2023 5:15:00 AM 19.57 67.226 0.27 7.22 17.78 7.56
9/9/2023 5:30:00 AM 19.56 67.208 0.271 7.23 16.15 7.55
9/9/2023 5:45:00 AM 19.54 67.172 0.272 7.24 26.93 7.55
9/9/2023 6:00:00 AM 19.52 67.136 0.272 7.22 16.16 7.54
9/9/2023 6:15:00 AM 19.5 67.1 0.273 7.23 15.88 7.55
9/9/2023 6:30:00 AM 19.49 67.082 0.273 7.23 28.17 7.54
9/9/2023 6:45:00 AM 19.47 67.046 0.273 7.22 14.24 7.54
9/9/2023 7:00:00 AM 19.45 67.01 0.274 7.21 16.54 7.53
9/9/2023 7:15:00 AM 19.41 66.938 0.271 7.26 17.18 7.64
9/9/2023 7:30:00 AM 19.44 66.992 0.258 7.23 16.77 7.67
9/9/2023 7:45:00 AM 19.49 67.082 0.249 7.24 18.58 7.68
9/9/2023 8:00:00 AM 19.4 66.92 0.259 7.21 21.19 7.75
9/9/2023 8:15:00 AM 19.25 66.65 0.271 7.21 25.98 7.81
9/9/2023 8:30:00 AM 19.19 66.542 0.273 7.21 15.18 7.85
9/9/2023 8:45:00 AM 19.18 66.524 0.269 7.2 17.46 7.89
9/9/2023 9:00:00 AM 19.25 66.65 0.261 7.2 17 7.96
9/9/2023 9:15:00 AM 19.26 66.668 0.254 7.19 18.49 7.95
9/9/2023 9:30:00 AM 19.34 66.812 0.239 7.21 22.83 7.95
9/9/2023 9:45:00 AM 19.55 67.19 0.205 7.19 30.44 8.07
9/9/2023 10:00:00 AM 19.56 67.208 0.202 7.19 29.98 8.13
9/9/2023 10:15:00 AM 19.27 66.686 0.228 7.18 25.52 8.19
9/9/2023 10:30:00 AM 19.32 66.776 0.228 7.17 27.12 8.28
9/9/2023 10:45:00 AM 19.41 66.938 0.218 7.17 30.53 8.3
9/9/2023 11:00:00 AM 19.59 67.262 0.212 7.17 75.14 8.41
9/9/2023 11:15:00 AM 19.76 67.568 0.213 7.19 34.33 8.55
9/9/2023 11:30:00 AM 19.81 67.658 0.217 7.19 31.84 8.6
9/9/2023 11:45:00 AM 19.9 67.82 0.22 7.23 34.64 8.7
9/9/2023 12:00:00 PM 20.04 68.07201 0.224 7.26 33.03 8.84
9/9/2023 12:15:00 PM 20.14 68.252 0.229 7.24 31.86 8.94
9/9/2023 12:30:00 PM 20.43 68.774 0.235 7.28 30.96 9.13
9/9/2023 12:45:00 PM 20.41 68.738 0.239 7.3 30.1 9.11
9/9/2023 1:00:00 PM 20.5 68.9 0.246 7.32 31.74 9.22
9/9/2023 1:15:00 PM 20.37 68.666 0.249 7.33 35.92 9.04
9/9/2023 1:30:00 PM 20.39 68.702 0.248 7.35 35.68 9
9/9/2023 1:45:00 PM 20.46 68.828 0.247 7.33 36.04 9.03
9/9/2023 2:00:00 PM 20.47 68.846 0.246 7.32 31.09 8.99
9/9/2023 2:15:00 PM 20.46 68.828 0.245 7.33 30.22 8.92
9/9/2023 2:30:00 PM 20.4 68.72 0.244 7.32 46.05 8.76
9/9/2023 2:45:00 PM 20.27 68.486 0.245 7.31 30.07 8.62
9/9/2023 3:00:00 PM 20.19 68.342 0.244 7.32 24.14 8.56
9/9/2023 3:15:00 PM 20.33 68.594 0.24 7.33 161.48 8.66
9/9/2023 3:30:00 PM 20.29 68.522 0.242 7.37 32.32 8.72
9/9/2023 3:45:00 PM 20.26 68.468 0.244 7.35 27.07 8.7
9/9/2023 4:00:00 PM 20.28 68.504 0.241 7.33 28.96 8.61
9/9/2023 4:15:00 PM 20.31 68.558 0.237 7.34 24.93 8.56
9/9/2023 4:30:00 PM 20.29 68.522 0.236 7.37 21.02 8.51
9/9/2023 4:45:00 PM 20.25 68.45 0.236 7.35 23.39 8.43
9/9/2023 5:00:00 PM 20.2 68.36 0.24 7.33 22.22 8.36
9/9/2023 5:15:00 PM 20.17 68.306 0.234 7.33 20.9 8.27
9/9/2023 5:30:00 PM 20.16 68.288 0.234 7.34 22.93 8.24
9/9/2023 5:45:00 PM 20.16 68.288 0.234 7.32 23.67 8.22
9/9/2023 6:00:00 PM 20.16 68.288 0.234 7.35 22.28 8.15
9/9/2023 6:15:00 PM 20.16 68.288 0.235 7.32 22.39 8.16
9/9/2023 6:30:00 PM 20.16 68.288 0.234 7.36 27.11 8.16
9/9/2023 6:45:00 PM 20.14 68.252 0.234 7.36 23.75 8.14
9/9/2023 7:00:00 PM 20.1 68.18 0.234 7.36 30.63 8.1
9/9/2023 7:15:00 PM 20.07 68.126 0.234 7.33 28.85 8.05
9/9/2023 7:30:00 PM 20.03 68.054 0.233 7.34 31.41 8
9/9/2023 7:45:00 PM 19.99 67.982 0.233 7.36 36.24 7.94
9/9/2023 8:00:00 PM 19.93 67.874 0.232 7.35 32.4 7.91
9/9/2023 8:15:00 PM 19.89 67.802 0.231 7.32 31.39 7.88
9/9/2023 8:30:00 PM 19.86 67.748 0.229 7.32 43.95 7.86
9/9/2023 8:45:00 PM 19.84 67.712 0.228 7.32 42.06 7.84
9/9/2023 9:00:00 PM 19.82 67.676 0.226 7.31 57.98 7.83
9/9/2023 9:15:00 PM 19.8 67.64 0.224 7.32 173.7 7.82
9/9/2023 9:30:00 PM 19.78 67.604 0.222 7.29 61.3 7.79
9/9/2023 9:45:00 PM 19.77 67.586 0.221 7.3 347.58 7.8
9/9/2023 10:00:00 PM 19.75 67.55 0.226 7.27 345.52 7.8
9/9/2023 10:15:00 PM 19.74 67.532 0.287 7.27 134.36 7.78
9/9/2023 10:30:00 PM 19.72 67.496 0.28 7.3 652.7 7.78
9/9/2023 10:45:00 PM 19.7 67.46 0.237 7.26 75.82 7.79
9/9/2023 11:00:00 PM 19.67 67.406 0.249 7.3 267.3 7.78
9/9/2023 11:15:00 PM 19.64 67.352 0.21 7.28 486.3 7.78
9/9/2023 11:30:00 PM 19.59 67.262 0.21 7.28 212.47 7.78
9/9/2023 11:45:00 PM 19.53 67.154 0.2 7.27 269.67 7.79
9/10/2023 12:00:00 AM 19.47 67.046 0.193 7.26 76.43 7.8
9/10/2023 12:15:00 AM 19.4 66.92 0.205 7.24 75.6 7.8
9/10/2023 12:30:00 AM 19.34 66.812 0.203 7.21 105.43 7.82
9/10/2023 12:45:00 AM 19.28 66.704 0.202 7.24 78.2 7.83
9/10/2023 1:00:00 AM 19.23 66.614 0.202 7.22 85.98 7.83
9/10/2023 1:15:00 AM 19.19 66.542 0.201 7.22 82.92 7.84
9/10/2023 1:30:00 AM 19.17 66.506 0.201 7.2 758.71 7.85
9/10/2023 1:45:00 AM 19.15 66.47 0.202 7.24 73.69 7.85
9/10/2023 2:00:00 AM 19.14 66.452 0.203 7.23 62.71 7.84
9/10/2023 2:15:00 AM 19.14 66.452 0.204 7.2 75.01 7.84
9/10/2023 2:30:00 AM 19.14 66.452 0.205 7.22 435.36 7.85
9/10/2023 2:45:00 AM 19.14 66.452 0.206 7.22 62.74 7.84
9/10/2023 3:00:00 AM 19.14 66.452 0.207 7.26 64.78 7.84
9/10/2023 3:15:00 AM 19.14 66.452 0.208 7.25 83.26 7.84
9/10/2023 3:30:00 AM 19.14 66.452 0.208 7.27 60.34 7.84
9/10/2023 3:45:00 AM 19.13 66.434 0.207 7.26 118.49 7.84
9/10/2023 4:00:00 AM 19.11 66.398 0.206 7.25 78.29 7.83
9/10/2023 4:15:00 AM 19.09 66.362 0.205 7.25 93.53 7.84
9/10/2023 4:30:00 AM 19.07 66.326 0.204 7.25 78.32 7.83
9/10/2023 4:45:00 AM 19.06 66.308 0.203 7.22 80.02 7.84
9/10/2023 5:00:00 AM 19.05 66.29 0.202 7.22 76.4 7.84
9/10/2023 5:15:00 AM 19.04 66.272 0.202 7.24 64.63 7.84
9/10/2023 5:30:00 AM 19.02 66.236 0.201 7.21 323.64 7.84
9/10/2023 5:45:00 AM 19 66.2 0.2 7.21 59.29 7.84
9/10/2023 6:00:00 AM 18.98 66.164 0.199 7.22 51 7.84
9/10/2023 6:15:00 AM 18.96 66.128 0.198 7.22 66.05 7.85
9/10/2023 6:30:00 AM 18.93 66.074 0.197 7.21 69.24 7.85
9/10/2023 6:45:00 AM 18.91 66.038 0.196 7.24 59.06 7.85
9/10/2023 7:00:00 AM 18.88 65.984 0.196 7.22 45.29 7.85
9/10/2023 7:15:00 AM 18.86 65.948 0.195 7.17 64.57 7.86
9/10/2023 7:30:00 AM 18.84 65.912 0.195 7.19 46.15 7.87
9/10/2023 7:45:00 AM 18.83 65.894 0.195 7.19 44.25 7.9
9/10/2023 8:00:00 AM 18.83 65.894 0.196 7.22 42.76 7.92
9/10/2023 8:15:00 AM 18.85 65.93 0.198 7.22 63.53 7.96
9/10/2023 8:30:00 AM 18.85 65.93 0.199 7.21 49.77 7.99
9/10/2023 8:45:00 AM 18.89 66.002 0.2 7.26 105.8 8.03
9/10/2023 9:00:00 AM 18.96 66.128 0.201 7.24 56.65 8.08
9/10/2023 9:15:00 AM 19.04 66.272 0.201 7.28 52.95 8.13
9/10/2023 9:30:00 AM 19.06 66.308 0.202 7.25 51.66 8.14
9/10/2023 9:45:00 AM 19.1 66.38 0.202 7.27 55.3 8.18
9/10/2023 10:00:00 AM 19.2 66.56 0.202 7.3 49.42 8.23
9/10/2023 10:15:00 AM 19.37 66.866 0.203 7.29 45.13 8.31
9/10/2023 10:30:00 AM 19.61 67.298 0.204 7.31 45.16 8.42
9/10/2023 10:45:00 AM 19.66 67.388 0.204 7.32 44.12 8.4
9/10/2023 11:00:00 AM 19.74 67.532 0.206 7.33 40.31 8.45
9/10/2023 11:15:00 AM 19.82 67.676 0.207 7.37 38.2 8.48
9/10/2023 11:30:00 AM 19.86 67.748 0.208 7.34 45.76 8.49
9/10/2023 11:45:00 AM 19.96 67.92799 0.209 7.36 38.97 8.55
9/10/2023 12:00:00 PM 20.15 68.27 0.21 7.4 46.2 8.66
9/10/2023 12:15:00 PM 20.21 68.378 0.212 7.36 28.6 8.65
9/10/2023 12:30:00 PM 20.14 68.252 0.212 7.37 49.5 8.54
9/10/2023 12:45:00 PM 20.04 68.07201 0.211 7.38 41.63 8.49
9/10/2023 1:00:00 PM 20.41 68.738 0.191 7.38 58.49 8.39
9/10/2023 1:15:00 PM 20.07 68.126 0.2 7.38 50.15 8.37
9/10/2023 1:30:00 PM 20.52 68.936 0.162 7.34 191.46 8.37
9/10/2023 1:45:00 PM 20.43 68.774 0.14 7.29 389.15 8.34
9/10/2023 2:00:00 PM 20.26 68.468 0.131 7.18 238.73 8.26
9/10/2023 2:15:00 PM 20.14 68.252 0.129 7.11 271.79 8.29
9/10/2023 2:30:00 PM 19.73 67.514 0.121 7.07 1894.59 8.42
9/10/2023 2:45:00 PM 19.38 66.884 0.108 6.99 1170.62 8.47
9/10/2023 3:00:00 PM 19.23 66.614 0.099 6.98 1595.93 8.53
9/10/2023 3:15:00 PM 19.13 66.434 0.094 6.81 493.36 8.56
9/10/2023 3:30:00 PM 19.1 66.38 0.086 6.77 120.16 8.34
9/10/2023 3:45:00 PM 19.11 66.398 0.079 6.68 133.96 8.44
9/10/2023 4:00:00 PM 19.06 66.308 0.103 6.62 563.86 8.48
9/10/2023 4:15:00 PM 19.03 66.254 0.111 6.63 340.17 8.51
9/10/2023 4:30:00 PM 19 66.2 0.109 6.7 312.86 8.53
9/10/2023 4:45:00 PM 18.97 66.146 0.112 6.72 283.09 8.52
9/10/2023 5:00:00 PM 19 66.2 0.116 6.72 243.21 8.49
9/10/2023 5:15:00 PM 18.98 66.164 0.12 6.77 207.26 8.46
9/10/2023 5:30:00 PM 18.94 66.092 0.128 6.73 173.46 8.44
9/10/2023 5:45:00 PM 18.92 66.056 0.13 6.76 148.55 8.42
9/10/2023 6:00:00 PM 18.92 66.056 0.134 6.74 137.93 8.39
9/10/2023 6:15:00 PM 18.95 66.11 0.138 6.78 123.3 8.35
9/10/2023 6:30:00 PM 19 66.2 0.145 6.82 120.79 8.3
9/10/2023 6:45:00 PM 19.03 66.254 0.156 6.87 126.71 8.22
9/10/2023 7:00:00 PM 18.99 66.182 0.16 6.86 134.34 8.14
9/10/2023 7:15:00 PM 18.94 66.092 0.152 6.84 158.49 8.05
9/10/2023 7:30:00 PM 18.93 66.074 0.149 6.85 180.96 7.97
9/10/2023 7:45:00 PM 18.88 65.984 0.142 6.78 261.05 7.79
9/10/2023 8:00:00 PM 18.79 65.82201 0.126 6.69 372.08 7.6
9/10/2023 8:15:00 PM 18.72 65.696 0.116 6.54 403.13 7.68
9/10/2023 8:30:00 PM 18.68 65.624 0.105 6.52 400.3 7.82
9/10/2023 8:45:00 PM 18.55 65.39 0.101 6.51 370.64 8
9/10/2023 9:00:00 PM 18.53 65.354 0.093 6.48 378.4 8.14
9/10/2023 9:15:00 PM 18.54 65.372 0.092 6.37 402.44 8.19
9/10/2023 9:30:00 PM 18.53 65.354 0.096 6.44 368.55 8.19
9/10/2023 9:45:00 PM 18.53 65.354 0.098 6.41 319.05 8.16
9/10/2023 10:00:00 PM 18.53 65.354 0.099 6.39 280.29 8.12
9/10/2023 10:15:00 PM 18.51 65.318 0.103 6.46 249.86 8.08
9/10/2023 10:30:00 PM 18.5 65.3 0.108 6.44 227.05 8.05
9/10/2023 10:45:00 PM 18.49 65.282 0.111 6.45 206.88 8.02
9/10/2023 11:00:00 PM 18.49 65.282 0.113 6.51 182.17 8.01
9/10/2023 11:15:00 PM 18.47 65.246 0.114 6.59 166.09 8
9/10/2023 11:30:00 PM 18.45 65.21 0.116 6.58 159.62 7.98
9/10/2023 11:45:00 PM 18.45 65.21 0.118 6.56 162.19 7.94
9/11/2023 12:00:00 AM 18.44 65.192 0.121 6.6 161.51 7.88
9/11/2023 12:15:00 AM 18.44 65.192 0.122 6.59 167.77 7.8
9/11/2023 12:30:00 AM 18.42 65.156 0.122 6.6 185.79 7.72
9/11/2023 12:45:00 AM 18.42 65.156 0.122 6.61 205.56 7.67
9/11/2023 1:00:00 AM 18.42 65.156 0.121 6.53 215.83 7.63
9/11/2023 1:15:00 AM 18.41 65.138 0.12 6.54 221.02 7.61
9/11/2023 1:30:00 AM 18.42 65.156 0.118 6.53 218.27 7.59
9/11/2023 1:45:00 AM 18.42 65.156 0.117 6.52 203.79 7.58
9/11/2023 2:00:00 AM 18.42 65.156 0.116 6.58 189.59 7.58
9/11/2023 2:15:00 AM 18.43 65.174 0.116 6.53 179.77 7.57
9/11/2023 2:30:00 AM 18.43 65.174 0.116 6.54 167.44 7.57
9/11/2023 2:45:00 AM 18.43 65.174 0.117 6.55 157.51 7.56
9/11/2023 3:00:00 AM 18.42 65.156 0.117 6.53 145.64 7.56
9/11/2023 3:15:00 AM 18.42 65.156 0.117 6.57 136.79 7.56
9/11/2023 3:30:00 AM 18.41 65.138 0.118 6.52 130.58 7.56
9/11/2023 3:45:00 AM 18.39 65.102 0.118 6.52 123.8 7.56
9/11/2023 4:00:00 AM 18.38 65.084 0.118 6.54 117.29 7.57
9/11/2023 4:15:00 AM 18.35 65.03 0.118 6.53 112.34 7.58
9/11/2023 4:30:00 AM 18.33 64.994 0.119 6.5 106.4 7.59
9/11/2023 4:45:00 AM 18.3 64.94 0.119 6.55 100.73 7.6
9/11/2023 5:00:00 AM 18.28 64.904 0.12 6.55 97.14 7.61
9/11/2023 5:15:00 AM 18.25 64.85 0.12 6.56 93.52 7.63
9/11/2023 5:30:00 AM 18.23 64.814 0.121 6.54 89.82 7.64
9/11/2023 5:45:00 AM 18.2 64.76 0.122 6.56 87.64 7.65
9/11/2023 6:00:00 AM 18.18 64.724 0.123 6.57 84.19 7.66
9/11/2023 6:15:00 AM 18.16 64.688 0.124 6.48 81.47 7.67
9/11/2023 6:30:00 AM 18.13 64.634 0.125 6.51 79.45 7.68
9/11/2023 6:45:00 AM 18.11 64.598 0.126 6.52 77.43 7.7
9/11/2023 7:00:00 AM 18.08 64.544 0.127 6.52 75.14 7.72
9/11/2023 7:15:00 AM 18.06 64.508 0.128 6.54 72.75 7.74
9/11/2023 7:30:00 AM 18.03 64.454 0.129 6.55 70.48 7.77
9/11/2023 7:45:00 AM 18.01 64.418 0.13 6.56 68.05 7.79
9/11/2023 8:00:00 AM 17.99 64.382 0.131 6.55 66.79 7.81
9/11/2023 8:15:00 AM 17.97 64.346 0.131 6.58 64.69 7.84
9/11/2023 8:30:00 AM 17.95 64.31 0.132 6.56 62.77 7.86
9/11/2023 8:45:00 AM 17.93 64.274 0.132 6.59 61.47 7.87
9/11/2023 9:00:00 AM 17.91 64.238 0.133 6.59 60.64 7.89
9/11/2023 9:15:00 AM 17.89 64.202 0.133 6.58 59.34 7.9
9/11/2023 9:30:00 AM 17.88 64.184 0.133 6.58 58.22 7.92
9/11/2023 9:45:00 AM 17.89 64.202 0.134 6.62 57.97 7.94
9/11/2023 10:00:00 AM 17.9 64.22 0.134 6.64 57.42 7.95
9/11/2023 10:15:00 AM 17.9 64.22 0.134 6.63 56.1 7.95
9/11/2023 10:30:00 AM 17.91 64.238 0.134 6.61 56.56 7.96
9/11/2023 10:45:00 AM 17.92 64.256 0.135 6.64 55.41 7.97
9/11/2023 11:00:00 AM 17.95 64.31 0.135 6.66 54.14 7.98
9/11/2023 11:15:00 AM 17.98 64.364 0.136 6.66 53.02 8
9/11/2023 11:30:00 AM 18.02 64.436 0.136 6.65 52.51 8.01
9/11/2023 11:45:00 AM 18.05 64.49 0.137 6.69 51.18 8.02
9/11/2023 12:00:00 PM 18.07 64.526 0.138 6.65 50.71 8.03
9/11/2023 12:15:00 PM 18.16 64.688 0.138 6.69 50.58 8.04
9/11/2023 12:30:00 PM 18.22 64.796 0.139 6.65 49.27 8.05
9/11/2023 12:45:00 PM 18.23 64.814 0.139 6.67 49.02 8.06
9/11/2023 1:00:00 PM 18.31 64.958 0.14 6.67 47.92 8.07
9/11/2023 1:15:00 PM 18.41 65.138 0.141 6.69 48.37 8.09
9/11/2023 1:30:00 PM 18.41 65.138 0.141 6.69 46.56 8.11
9/11/2023 1:45:00 PM 18.5 65.3 0.142 6.67 45.79 8.12
9/11/2023 2:00:00 PM 18.57 65.426 0.143 6.7 45.72 8.14
9/11/2023 2:15:00 PM 18.67 65.606 0.144 6.69 44.67 8.15
9/11/2023 2:30:00 PM 18.66 65.588 0.144 6.7 44.3 8.16
9/11/2023 2:45:00 PM 18.72 65.696 0.145 6.72 43.47 8.18
9/11/2023 3:00:00 PM 18.75 65.75 0.146 6.71 42.44 8.19
9/11/2023 3:15:00 PM 18.82 65.876 0.146 6.72 42.18 8.2
9/11/2023 3:30:00 PM 18.85 65.93 0.147 6.72 40.46 8.21
9/11/2023 3:45:00 PM 18.88 65.984 0.148 6.74 38.51 8.22
9/11/2023 4:00:00 PM 18.88 65.984 0.149 6.75 38.53 8.23
9/11/2023 4:15:00 PM 18.84 65.912 0.149 6.75 37.9 8.24
9/11/2023 4:30:00 PM 18.85 65.93 0.15 6.75 37.21 8.25
9/11/2023 4:45:00 PM 18.79 65.82201 0.151 6.79 36.27 8.25
9/11/2023 5:00:00 PM 18.74 65.732 0.151 6.77 35.87 8.26
9/11/2023 5:15:00 PM 18.68 65.624 0.152 6.79 35.42 8.26
9/11/2023 5:30:00 PM 18.59 65.462 0.152 6.79 34.85 8.26
9/11/2023 5:45:00 PM 18.52 65.336 0.153 6.79 34.63 8.26
9/11/2023 6:00:00 PM 18.45 65.21 0.154 6.79 34.05 8.26
9/11/2023 6:15:00 PM 18.39 65.102 0.154 6.77 33.95 8.25
9/11/2023 6:30:00 PM 18.34 65.012 0.155 6.78 32.6 8.26
9/11/2023 6:45:00 PM 18.31 64.958 0.155 6.76 32.52 8.25
9/11/2023 7:00:00 PM 18.28 64.904 0.156 6.79 31.78 8.26

These are provisional data and have not been subject to a quality assurance process, but rather are the raw data reported by the instrument.
H: value is above sensor operating range
L: value is below sensor operating range
Offline: station is not reporting data
NC: parameter is not collected at site

Data Availability & Limitations

Uncertainty and potential for error can be associated with environmental monitoring data. Provisional data have not been subject to a quality assurance process, but rather are the raw data reported by the instrument. Data users are cautioned to consider carefully the provisional nature of the information before using it for decisions that concern personal or public safety or the conduct of business that involves substantial monetary or operational consequences.

Approved data are currently available by request by emailing: [email protected]. Approved data have been subject to a quality assurance process to correct for equipment or fouling drift. Data recorded during equipment malfunctions have been removed.

View Historical Stations that have been discontinued.